Ship Status Report: callsign 000000

sailwx.info

Track history (hours):
 
Tides and Currents Weather Stations Pressure Air Temp Water Temp Dewpoint Dewpoint Depression Visibility Wind Speed Wind Dir Waves Ship Positions

Callsign 000000 (name unknown)

Last reported at 2017-Jan-24 18:33 UTC. Time now 2017-Jan-24 19:28 UTC.
Position S 27°27' E 153°06'.

Type: Fishing. MMSI: 200007452.

Date/timePositionNaut miles runAvg speedWind from/ knotsBaromVisibWave heightAir tempDewpointWater temp
2017-Jan-24 18:33S 27°27' E 153°06'4015466296.2
2017-Jan-24 18:33N 31°30' E 121°24'11340.5
2017-Jan-24 18:31N 31°24' E 121°34'1067.8
2017-Jan-24 18:22N 31°30' E 121°24'0 6.5
2017-Jan-24 18:19N 31°30' E 121°24'13119.3
2017-Jan-24 18:12N 31°20' E 121°33'1320.0
2017-Jan-24 17:33N 31°30' E 121°24'40151032463.9
2017-Jan-24 17:33S 27°27' E 153°06'4001576213.7
2017-Jan-24 17:33N 31°19' E 121°34'13444.0
2017-Jan-24 17:31N 31°30' E 121°24'131359.5
2017-Jan-24 17:30N 31°20' E 121°33'141694.2
2017-Jan-24 17:30N 31°30' E 121°23'12730.6
2017-Jan-24 17:29N 31°24' E 121°34'10431.5
2017-Jan-24 17:27N 31°30' E 121°24'40154441.9
2017-Jan-24 16:33S 27°27' E 153°06'4005147131.6
2017-Jan-24 16:31N 31°24' E 121°34'916109.4
2017-Jan-24 16:31N 31°28' E 121°25'280.3
2017-Jan-24 16:30N 31°30' E 121°24'0461.6
2017-Jan-24 16:30N 31°30' E 121°24'121.7
2017-Jan-24 16:28N 31°30' E 121°24'1 3.9
2017-Jan-24 16:06N 31°30' E 121°23'40167395.8
2017-Jan-24 15:33S 27°27' E 153°06'4005163852.2
2017-Jan-24 15:32N 31°24' E 121°34'5281.0
2017-Jan-24 15:31N 31°19' E 121°33'131256.6
2017-Jan-24 15:30N 31°30' E 121°24'016.9
2017-Jan-24 15:29N 31°30' E 121°24'026.4
2017-Jan-24 15:28N 31°30' E 121°24'118.0
2017-Jan-24 15:25N 31°30' E 121°23'234.8
2017-Jan-24 15:22N 31°30' E 121°24'40154907.7
2017-Jan-24 14:33S 27°27' E 153°06'4015760789.9
2017-Jan-24 14:33N 31°30' E 121°24'1179.6
2017-Jan-24 14:32N 31°30' E 121°23'14357.9
2017-Jan-24 14:30N 31°19' E 121°33'13276.6
2017-Jan-24 14:27N 31°30' E 121°24'10408.9
2017-Jan-24 14:26N 31°24' E 121°34'311648.0
2017-Jan-24 14:25N 31°44' E 121°07'20252.5
2017-Jan-24 14:20N 31°30' E 121°24'1 9.4
2017-Jan-24 14:15N 31°29' E 121°24'40155726.2
2017-Jan-24 13:33S 27°27' E 153°06'4030468011.9
2017-Jan-24 13:33N 31°40' E 121°12'13694.2
2017-Jan-24 13:31N 31°30' E 121°23'197.8
2017-Jan-24 13:30N 31°30' E 121°24'131788.2
2017-Jan-24 13:30N 31°19' E 121°33'132955.2
2017-Jan-24 13:30N 31°30' E 121°24'11597.2
2017-Jan-24 13:29N 31°24' E 121°34'11251.9
2017-Jan-24 13:26N 31°30' E 121°24'40154537.2
2017-Jan-24 12:33S 27°27' E 153°06'4015390689.2
2017-Jan-24 12:32N 31°30' E 121°24'131.9
2017-Jan-24 12:31N 31°30' E 121°23'916246.9
2017-Jan-24 12:31N 31°38' E 121°17'201872.4
2017-Jan-24 12:30N 31°24' E 121°34'102655.5
2017-Jan-24 12:30N 31°30' E 121°24'020.7
2017-Jan-24 12:29N 31°30' E 121°24'13379.0
2017-Jan-24 12:27N 31°20' E 121°33'40024479.6
2017-Jan-24 11:33S 27°27' E 153°06'4015277935.2
2017-Jan-24 11:32N 31°29' E 121°25'135.0
2017-Jan-24 11:31N 31°30' E 121°24'1185.6
2017-Jan-24 11:31N 31°30' E 121°25'101986.3
2017-Jan-24 11:30N 31°38' E 121°17'10450.3
2017-Jan-24 11:29N 31°30' E 121°24'103433.5
2017-Jan-24 11:29N 31°24' E 121°34'1233.3
2017-Jan-24 11:08N 31°30' E 121°23'40166947.8
2017-Jan-24 10:33S 27°27' E 153°06'4005351679.9
2017-Jan-24 10:32N 31°24' E 121°34'10609.0
2017-Jan-24 10:31N 31°30' E 121°24'011.9
2017-Jan-24 10:30N 31°30' E 121°24'1150.8
2017-Jan-24 10:29N 31°30' E 121°25'017.5
2017-Jan-24 10:28N 31°29' E 121°25'0 0.4
2017-Jan-24 09:33N 31°30' E 121°25'4015535317.6
2017-Jan-24 09:33S 27°27' E 153°06'4026426253.6
2017-Jan-24 09:32N 31°38' E 121°17'201596.8
2017-Jan-24 09:32N 31°24' E 121°35'11283.2
2017-Jan-24 09:29N 31°30' E 121°24'11722.5
2017-Jan-24 09:28N 31°21' E 121°32'1188.2
2017-Jan-24 09:21N 31°30' E 121°24'932.7
2017-Jan-24 09:05N 31°23' E 121°30'40067430.5
2017-Jan-24 08:33S 27°27' E 153°06'400571028.2
2017-Jan-24 08:30N 31°24' E 121°35'53496202.1
2017-Jan-24 08:29N 22°35' E 120°13'535128498.5
2017-Jan-24 08:29N 31°26' E 121°29'6245.5
2017-Jan-24 08:28N 31°30' E 121°25'115.8
2017-Jan-24 08:25N 31°30' E 121°24'10296.9
2017-Jan-24 08:23N 31°38' E 121°17'10839.3
2017-Jan-24 08:22N 31°30' E 121°24'40154868.5
2017-Jan-24 07:33S 27°27' E 153°06'40151806593.0
2017-Jan-24 07:33N 31°29' E 121°25'2279.0
2017-Jan-24 07:32N 31°31' E 121°22'9614.8
2017-Jan-24 07:32N 31°38' E 121°17'101055.1
2017-Jan-24 07:31N 31°30' E 121°24'0 6.9
2017-Jan-24 07:28N 31°30' E 121°24'11214.1
2017-Jan-24 07:25N 31°24' E 121°35'1053.1
2017-Jan-24 07:14N 31°30' E 121°25'1115.7
2017-Jan-24 06:34N 31°38' E 121°17'4026467505.7
2017-Jan-24 06:33S 27°27' E 153°06'4015283433.9
2017-Jan-24 06:32N 31°30' E 121°24'1220.0
2017-Jan-24 06:32N 31°31' E 121°22'123684.6
2017-Jan-24 06:32N 31°24' E 121°35'11326.8
2017-Jan-24 06:30N 31°30' E 121°24'110.2
2017-Jan-24 06:27N 31°29' E 121°25'2 5.0
2017-Jan-24 06:06N 31°30' E 121°23'1119.6
2017-Jan-24 05:33N 31°24' E 121°33'40061442034.6
2017-Jan-24 05:33S 27°27' E 153°06'40157226927.2
2017-Jan-24 05:33N 31°30' E 121°24'11868.7
2017-Jan-24 05:32N 31°38' E 121°17'11898.0
2017-Jan-24 05:31N 31°29' E 121°24'0 8.2
2017-Jan-24 05:29N 31°30' E 121°24'145.1
2017-Jan-24 05:28N 31°30' E 121°24'0 9.5
2017-Jan-24 05:26N 31°30' E 121°24'40154534.1
2017-Jan-24 04:33S 27°27' E 153°06'4002464715.7
2017-Jan-24 04:32N 31°20' E 121°33'141159.2
2017-Jan-24 04:32N 31°30' E 121°23'2504.5
2017-Jan-24 04:32N 31°30' E 121°24'1445.0
2017-Jan-24 04:31N 31°30' E 121°24'52855.4
2017-Jan-24 04:31N 31°27' E 121°28'560.9
2017-Jan-24 04:27N 31°30' E 121°24'8204.5
2017-Jan-24 04:24N 31°24' E 121°31'861.6
2017-Jan-24 04:17N 31°30' E 121°24'1 1.0
2017-Jan-24 03:33N 31°30' E 121°24'1667.2
2017-Jan-24 03:33N 31°29' E 121°25'40141806519.4
2017-Jan-24 03:33S 27°27' E 153°06'4026414101.3
2017-Jan-24 03:32N 31°38' E 121°17'101037.1
2017-Jan-24 03:32N 31°30' E 121°24'1113.7
2017-Jan-24 03:31N 31°30' E 121°23'2213.8
2017-Jan-24 03:31N 31°30' E 121°24'13586.9
2017-Jan-24 03:29N 31°19' E 121°33'1414.6
2017-Jan-24 02:33N 31°30' E 121°23'4016516302.3
2017-Jan-24 02:33S 27°27' E 153°06'40301036273.3
2017-Jan-24 02:33N 31°40' E 121°12'286201.7
2017-Jan-24 02:32N 31°19' E 121°33'13966.3
2017-Jan-24 02:32N 31°30' E 121°24'014.6
2017-Jan-24 02:30N 31°30' E 121°24'1332.2
2017-Jan-24 02:30N 31°30' E 121°23'9343.0
2017-Jan-24 02:28N 31°38' E 121°17'10120.9
2017-Jan-24 02:23N 31°30' E 121°24'40154788.2
2017-Jan-24 01:33S 27°27' E 153°06'40151111912.4
2017-Jan-24 01:33N 31°30' E 121°24'117.9
2017-Jan-24 01:31N 31°30' E 121°23'10251.6
2017-Jan-24 01:28N 31°38' E 121°17'9479.7
2017-Jan-24 01:27N 31°30' E 121°23'141066.8
2017-Jan-24 01:26N 31°19' E 121°33'13704.7
2017-Jan-24 01:25N 31°30' E 121°24'149.4
2017-Jan-24 01:25N 31°30' E 121°24'911.1
2017-Jan-24 00:33N 31°37' E 121°18'4025603719.4
2017-Jan-24 00:33S 27°27' E 153°06'4015628470.8
2017-Jan-24 00:33N 31°30' E 121°23'017.7
2017-Jan-24 00:31N 31°30' E 121°24'033.9
2017-Jan-24 00:31N 31°30' E 121°23'120.1
2017-Jan-24 00:29N 31°30' E 121°24'13319.4
2017-Jan-24 00:26N 31°19' E 121°33'13284.1
2017-Jan-24 00:24N 31°30' E 121°24'216.5
2017-Jan-24 00:18N 31°30' E 121°23'40165343.2
2017-Jan-23 23:33S 27°27' E 153°06'40192893727.7
2017-Jan-23 23:33N 31°32' E 121°20'453.2
2017-Jan-23 23:28N 31°29' E 121°24'13414.9
2017-Jan-23 23:26N 31°20' E 121°33'22706.9
2017-Jan-23 23:24N 31°37' E 121°18'9350.2
2017-Jan-23 23:23N 31°30' E 121°24'0 3.6
2017-Jan-23 23:18N 31°30' E 121°24'144.2
2017-Jan-23 23:18N 31°30' E 121°24'0 5.2
2017-Jan-23 23:14N 31°29' E 121°24'1 1.0
2017-Jan-23 22:33N 31°30' E 121°24'103697.7
2017-Jan-23 22:33N 31°37' E 121°15'114861.9
2017-Jan-23 22:33N 31°30' E 121°25'40152064824.7
2017-Jan-23 22:33S 27°27' E 153°06'4015219008.5
2017-Jan-23 22:32N 31°30' E 121°24'91068.8
2017-Jan-23 22:31N 31°37' E 121°18'9135.1
2017-Jan-23 22:27N 31°29' E 121°24'167.0
2017-Jan-23 22:26N 31°29' E 121°25'40154512.2
2017-Jan-23 21:33S 27°27' E 153°06'4015328489.5
2017-Jan-23 21:32N 31°30' E 121°25'196.6
2017-Jan-23 21:32N 31°30' E 121°24'143.4
2017-Jan-23 21:31N 31°29' E 121°25'122987.0
2017-Jan-23 21:30N 31°38' E 121°14'1210835.9
2017-Jan-23 21:30N 31°29' E 121°24'93094.3
2017-Jan-23 21:30N 31°37' E 121°18'9404.3
2017-Jan-23 21:29N 31°30' E 121°24'112.0
2017-Jan-23 21:23N 31°30' E 121°23'1 1.5
2017-Jan-23 20:33N 31°30' E 121°24'40151806785.4
2017-Jan-23 20:33S 27°27' E 153°06'4027966511.5
2017-Jan-23 20:33N 31°38' E 121°14'122803.5
2017-Jan-23 20:32N 31°30' E 121°24'132.7
2017-Jan-23 20:31N 31°30' E 121°25'020.1
2017-Jan-23 20:30N 31°29' E 121°25'10872.9
2017-Jan-23 20:30N 31°37' E 121°18'9382.4
2017-Jan-23 20:28N 31°29' E 121°24'910.4
2017-Jan-23 19:33N 31°37' E 121°18'4025467373.9
2017-Jan-23 19:33S 27°27' E 153°06'40151445507.9
2017-Jan-23 19:33N 31°30' E 121°24'1323.9
2017-Jan-23 19:33N 31°29' E 121°24'124816.0
2017-Jan-23 19:32N 31°38' E 121°14'12199.2
2017-Jan-23 19:29N 31°30' E 121°24'011.1
2017-Jan-23 19:27N 31°30' E 121°25'0233.3
2017-Jan-23 19:27N 31°29' E 121°25'40154471.7
2017-Jan-23 18:33S 27°27' E 153°06'4027188282.3
2017-Jan-23 18:32N 31°38' E 121°14'3437.9
2017-Jan-23 18:31N 31°37' E 121°18'91042.4
2017-Jan-23 18:31N 31°30' E 121°24'1 3.7
2017-Jan-23 18:19N 31°29' E 121°24'155.0
2017-Jan-23 18:18N 31°30' E 121°25'0583.2
2017-Jan-23 18:18N 31°29' E 121°25'0 7.3
2017-Jan-23 18:14N 31°30' E 121°24'1 9.5
2017-Jan-23 18:06N 31°30' E 121°23'40167250.9
2017-Jan-23 17:33S 27°27' E 153°06'401597658.2
2017-Jan-23 17:30N 31°29' E 121°24'168.2
2017-Jan-23 17:30N 31°30' E 121°24'186.2
2017-Jan-23 17:29N 31°29' E 121°25'010.0
2017-Jan-23 17:26N 31°30' E 121°24'933185.5
2017-Jan-23 17:26N 31°37' E 121°18'9555.1
2017-Jan-23 17:25N 31°30' E 121°24'40154604.6
2017-Jan-23 16:33S 27°27' E 153°06'4015170043.2
2017-Jan-23 16:32N 31°30' E 121°24'9281.3
2017-Jan-23 16:30N 31°37' E 121°18'92029.4
2017-Jan-23 16:29N 31°30' E 121°24'010.5
2017-Jan-23 16:28N 31°30' E 121°24'114.8
2017-Jan-23 16:25N 31°29' E 121°24'40154656.4
2017-Jan-23 15:33S 27°27' E 153°06'4015657065.5
2017-Jan-23 15:32N 31°30' E 121°24'12733.6
2017-Jan-23 15:32N 31°38' E 121°14'1214458.6
2017-Jan-23 15:31N 31°29' E 121°24'1113.9
2017-Jan-23 15:31N 31°30' E 121°24'0220.3
2017-Jan-23 15:31N 31°29' E 121°24'1034916.4
2017-Jan-23 15:31N 31°37' E 121°18'8555.4
2017-Jan-23 15:30N 31°30' E 121°23'1308.5
2017-Jan-23 15:30N 31°30' E 121°24'0 0.3
2017-Jan-23 14:33N 31°30' E 121°24'4015657068.1
2017-Jan-23 14:33S 27°27' E 153°06'4025295698.5
2017-Jan-23 14:32N 31°37' E 121°18'8294.5
2017-Jan-23 14:30N 31°30' E 121°23'1202.9
2017-Jan-23 14:30N 31°29' E 121°24'141.3
2017-Jan-23 14:29N 31°30' E 121°24'024.0
2017-Jan-23 14:28N 31°30' E 121°24'121637.0
2017-Jan-23 14:27N 31°38' E 121°14'251259.5
2017-Jan-23 14:26N 31°20' E 121°33'40024526.1
2017-Jan-23 13:33S 27°27' E 153°06'4015109501.5
2017-Jan-23 13:31N 31°30' E 121°24'21111.6
2017-Jan-23 13:31N 31°30' E 121°23'198.2
2017-Jan-23 13:30N 31°30' E 121°24'96630.0
2017-Jan-23 13:30N 31°37' E 121°18'3111.7
2017-Jan-23 13:28N 31°38' E 121°14'12352.8
2017-Jan-23 13:26N 31°29' E 121°24'120.6
2017-Jan-23 13:24N 31°30' E 121°24'1 0.7
2017-Jan-23 12:33N 31°30' E 121°24'4015850235.3
2017-Jan-23 12:33S 27°27' E 153°06'4027483259.6
2017-Jan-23 12:32N 31°38' E 121°14'125971.5
2017-Jan-23 12:32N 31°30' E 121°24'9308.6
2017-Jan-23 12:31N 31°37' E 121°18'84191.8
2017-Jan-23 12:30N 31°30' E 121°23'130.3
2017-Jan-23 12:28N 31°29' E 121°24'112.2
2017-Jan-23 12:24N 31°30' E 121°24'1 3.4
2017-Jan-23 12:15N 31°29' E 121°24'12380.3
2017-Jan-23 12:13N 31°38' E 121°14'2 3.1
2017-Jan-23 11:33N 31°40' E 121°13'40292900897.7
2017-Jan-23 11:33S 27°27' E 153°06'40311813839.4
2017-Jan-23 11:33N 31°41' E 121°11'161937.3
2017-Jan-23 11:32N 31°29' E 121°24'113.4
2017-Jan-23 11:29N 31°30' E 121°24'92155.5
2017-Jan-23 11:29N 31°37' E 121°18'9471.0
2017-Jan-23 11:28N 31°30' E 121°24'0 4.2
2017-Jan-23 11:23N 31°30' E 121°24'1416.4
2017-Jan-23 10:33N 31°40' E 121°13'4029453266.3
2017-Jan-23 10:33S 27°27' E 153°06'4015336109.3
2017-Jan-23 10:32N 31°29' E 121°25'10195.0
2017-Jan-23 10:29N 31°37' E 121°18'91141.3
2017-Jan-23 10:29N 31°30' E 121°24'117.8
2017-Jan-23 10:26N 31°29' E 121°24'166.3
2017-Jan-23 10:25N 31°30' E 121°24'1 7.9
2017-Jan-23 10:20N 31°30' E 121°25'1 0.9
2017-Jan-23 09:33N 31°30' E 121°24'4015425154.3
2017-Jan-23 09:33S 27°27' E 153°06'4029725214.5
2017-Jan-23 09:33N 31°40' E 121°13'142467.5
2017-Jan-23 09:32N 31°29' E 121°24'194.2
2017-Jan-23 09:32N 31°29' E 121°25'104985.6
2017-Jan-23 09:32N 31°37' E 121°18'9140.9
2017-Jan-23 09:28N 31°30' E 121°25'012.8
2017-Jan-23 09:26N 31°30' E 121°24'1 0.9
2017-Jan-23 08:34N 31°29' E 121°24'4015390625.1
2017-Jan-23 08:33S 27°27' E 153°06'4029725199.9
2017-Jan-23 08:33N 31°40' E 121°13'5145.1
2017-Jan-23 08:31N 31°37' E 121°18'9640.7
2017-Jan-23 08:30N 31°30' E 121°25'6122.0
2017-Jan-23 08:27N 31°25' E 121°29'7129.3
2017-Jan-23 08:24N 31°30' E 121°23'11486.0
2017-Jan-23 08:23N 31°30' E 121°24'128.4
2017-Jan-23 08:22N 31°30' E 121°23'1 1.1
2017-Jan-23 07:33N 31°30' E 121°24'1442.2
2017-Jan-23 07:33N 31°29' E 121°24'40151605922.9
2017-Jan-23 07:33S 27°27' E 153°06'4016370733.3
2017-Jan-23 07:32N 31°30' E 121°22'8692.1
2017-Jan-23 07:32N 31°37' E 121°18'10119.6
2017-Jan-23 07:27N 31°29' E 121°25'0 7.1
2017-Jan-23 07:24N 31°30' E 121°24'145518.0
2017-Jan-23 07:24N 31°40' E 121°13'40294752.3
2017-Jan-23 06:33S 27°27' E 153°06'4029353757.9
2017-Jan-23 06:32N 31°40' E 121°13'262714.3
2017-Jan-23 06:32N 31°20' E 121°33'134711.9
2017-Jan-23 06:31N 31°30' E 121°24'4243.6
2017-Jan-23 06:31N 31°28' E 121°27'3432.9
2017-Jan-23 06:30N 31°30' E 121°24'9335.3
2017-Jan-23 06:28N 31°37' E 121°18'8147.3
2017-Jan-23 06:25N 31°30' E 121°23'2 9.9
2017-Jan-23 06:15N 31°29' E 121°25'140.2
2017-Jan-23 06:14N 31°29' E 121°23'1420.1
2017-Jan-23 05:33N 31°40' E 121°13'51840.9
2017-Jan-23 05:33N 31°37' E 121°18'4025536612.6
2017-Jan-23 05:33S 27°27' E 153°06'4007277416.3
2017-Jan-23 05:32N 31°25' E 121°31'8238.2
2017-Jan-23 05:30N 31°30' E 121°24'1267.6
2017-Jan-23 05:30N 31°30' E 121°23'2115.1
2017-Jan-23 05:29N 31°29' E 121°25'122614.0
2017-Jan-23 05:29N 31°20' E 121°33'13146.8
2017-Jan-23 05:23N 31°29' E 121°23'1 0.8
2017-Jan-23 04:33N 31°30' E 121°24'4015481839.6
2017-Jan-23 04:33S 27°27' E 153°06'40161204844.7
2017-Jan-23 04:33N 31°30' E 121°23'1120.4
2017-Jan-23 04:32N 31°29' E 121°23'14940.7
2017-Jan-23 04:31N 31°40' E 121°13'5106.9
2017-Jan-23 04:29N 31°37' E 121°18'10171.3
2017-Jan-23 04:25N 31°29' E 121°25'029.3
2017-Jan-23 04:25N 31°30' E 121°24'13398.8
2017-Jan-23 04:23N 31°20' E 121°33'2632.2
2017-Jan-23 03:33N 31°40' E 121°13'4029391996.6
2017-Jan-23 03:33S 27°27' E 153°06'4015760717.8
2017-Jan-23 03:32N 31°30' E 121°24'12048.4
2017-Jan-23 03:32N 31°30' E 121°24'130.8
2017-Jan-23 03:31N 31°29' E 121°23'1452.3
2017-Jan-23 03:31N 31°30' E 121°23'245.5
2017-Jan-23 03:29N 31°29' E 121°24'10130.4
2017-Jan-23 03:24N 31°37' E 121°18'171209.2
2017-Jan-23 03:24N 31°25' E 121°32'547.2
2017-Jan-23 03:17N 31°20' E 121°33'1419.4
2017-Jan-23 02:34N 31°30' E 121°23'1450097.9
2017-Jan-23 02:34N 31°20' E 121°33'224192.7
2017-Jan-23 02:33N 31°37' E 121°18'4025762579.8
2017-Jan-23 02:33S 27°27' E 153°06'40161445855.5
2017-Jan-23 02:33N 31°30' E 121°23'151.9
2017-Jan-23 02:31N 31°29' E 121°23'116.4
2017-Jan-23 02:29N 31°30' E 121°24'181.9
2017-Jan-23 02:28N 31°30' E 121°23'122342.9
2017-Jan-23 02:28N 31°40' E 121°13'9323.8
2017-Jan-23 02:26N 31°45' E 121°05'31274.0
2017-Jan-23 02:19N 31°25' E 121°32'311198.6
2017-Jan-23 02:18N 31°20' E 120°57'2331.6
2017-Jan-23 01:33N 31°33' E 121°19'54400.1
2017-Jan-23 01:33N 31°30' E 121°24'254716.8
2017-Jan-23 01:33N 31°20' E 120°57'40192067020.7
2017-Jan-23 01:33S 27°27' E 153°06'4029185952.8
2017-Jan-23 01:32N 31°40' E 121°13'58226.6
2017-Jan-23 01:32N 31°37' E 121°18'9491.7
2017-Jan-23 01:30N 31°29' E 121°23'15325.0
2017-Jan-23 01:28N 31°41' E 121°12'282732.8
2017-Jan-23 01:27N 31°20' E 121°33'586.6
2017-Jan-23 01:23N 31°24' E 121°31'9833.4
2017-Jan-23 01:23N 31°30' E 121°23'1032.6
2017-Jan-23 01:05N 31°23' E 121°30'2854.1
2017-Jan-23 00:33N 31°20' E 120°57'2623259.5
2017-Jan-23 00:33N 31°44' E 121°07'113761.7
2017-Jan-23 00:33N 31°36' E 121°17'93668.5
2017-Jan-23 00:33N 31°29' E 121°23'93116.6
2017-Jan-23 00:33N 31°36' E 121°17'2177274.2
2017-Jan-23 00:33N 31°20' E 121°33'400214406492.1
2017-Jan-23 00:33S 27°27' E 153°06'4009437330.0
2017-Jan-23 00:32N 31°25' E 121°29'711723.7
2017-Jan-23 00:32N 31°30' E 121°24'81727.3
2017-Jan-23 00:32N 31°24' E 121°31'21836.1
2017-Jan-23 00:30N 31°40' E 121°13'1222173.5
2017-Jan-23 00:30N 31°30' E 121°23'2 9.5
2017-Jan-23 00:20N 31°29' E 121°24'264.0
2017-Jan-23 00:18N 31°30' E 121°23'2 2.3
2017-Jan-22 23:33N 31°29' E 121°24'192.1
2017-Jan-22 23:33N 31°30' E 121°24'40151445413.9
2017-Jan-22 23:33S 27°27' E 153°06'40291450272.1
2017-Jan-22 23:33N 31°39' E 121°13'47936.2
2017-Jan-22 23:33N 31°37' E 121°18'85435.3
2017-Jan-22 23:33N 31°31' E 121°23'258241.4
2017-Jan-22 23:32N 31°20' E 120°57'24596.7
2017-Jan-22 23:30N 31°40' E 121°12'1283.7
2017-Jan-22 23:30N 31°40' E 121°13'21368.1
2017-Jan-22 23:26N 31°24' E 121°31'7310.7
2017-Jan-22 23:25N 31°29' E 121°24'224.2
2017-Jan-22 23:21N 31°30' E 121°23'141362.2
2017-Jan-22 23:20N 31°20' E 121°33'13667.4
2017-Jan-22 23:19N 31°30' E 121°24'6 8.4
2017-Jan-22 22:33N 31°35' E 121°19'91803.4
2017-Jan-22 22:33N 31°28' E 121°25'12162.2
2017-Jan-22 22:33N 31°29' E 121°27'56468.0
2017-Jan-22 22:33N 31°24' E 121°31'40071109698.2
2017-Jan-22 22:33S 27°27' E 153°06'40161606475.3
2017-Jan-22 22:33N 31°30' E 121°23'142482.5
2017-Jan-22 22:32N 31°20' E 121°33'2215784.2
2017-Jan-22 22:32N 31°37' E 121°18'254742.1
2017-Jan-22 22:32N 31°20' E 120°57'25905.3
2017-Jan-22 22:30N 31°30' E 121°24'143065.0
2017-Jan-22 22:30N 31°40' E 121°13'131198.7
2017-Jan-22 22:29N 31°30' E 121°24'1 6.9
2017-Jan-22 22:21N 31°30' E 121°23'2 9.6
2017-Jan-22 22:11N 31°29' E 121°25'812.6
2017-Jan-22 21:33N 31°24' E 121°31'40073605932.3
2017-Jan-22 21:33S 27°27' E 153°06'4002423737.5
2017-Jan-22 21:32N 31°20' E 121°33'131001.5
2017-Jan-22 21:31N 31°30' E 121°24'8574.9
2017-Jan-22 21:31N 31°24' E 121°31'173402.0
2017-Jan-22 21:30N 31°37' E 121°18'101027.5
2017-Jan-22 21:30N 31°29' E 121°25'22885.0
2017-Jan-22 21:30N 31°30' E 121°23'1147.5
2017-Jan-22 21:29N 31°30' E 121°24'169869.1
2017-Jan-22 21:29N 31°41' E 121°10'16322.6
2017-Jan-22 21:26N 31°30' E 121°24'25210.6
2017-Jan-22 21:19N 31°20' E 120°57'242377.2
2017-Jan-22 21:18N 31°30' E 121°23'3303.6
2017-Jan-22 21:18N 31°28' E 121°25'2634.4
2017-Jan-22 20:33N 31°20' E 120°57'4019602881.0
2017-Jan-22 20:33S 27°27' E 153°06'4015438035.4
2017-Jan-22 20:32N 31°30' E 121°24'2678.5
2017-Jan-22 20:32N 31°28' E 121°25'2270.6
2017-Jan-22 20:32N 31°30' E 121°24'0 9.5
2017-Jan-22 20:29N 31°29' E 121°25'12313.0
2017-Jan-22 20:26N 31°20' E 121°33'221838.2
2017-Jan-22 20:26N 31°37' E 121°18'9439.0
2017-Jan-22 20:24N 31°30' E 121°24'120.2
2017-Jan-22 20:21N 31°30' E 121°23'450.2
2017-Jan-22 20:16N 31°28' E 121°27'2737.4
2017-Jan-22 19:33N 31°20' E 120°57'4019723462.5
2017-Jan-22 19:33S 27°27' E 153°06'4002389379.2
2017-Jan-22 19:32N 31°20' E 121°33'148481.6
2017-Jan-22 19:32N 31°30' E 121°22'31469.9
2017-Jan-22 19:32N 31°28' E 121°25'2207.8
2017-Jan-22 19:31N 31°30' E 121°24'165.9
2017-Jan-22 19:31N 31°29' E 121°25'101247.0
2017-Jan-22 19:30N 31°37' E 121°18'911131.7
2017-Jan-22 19:30N 31°30' E 121°24'0 3.6
2017-Jan-22 19:24N 31°30' E 121°24'124.0
2017-Jan-22 19:21N 31°30' E 121°23'0 2.3
2017-Jan-22 19:17N 31°30' E 121°23'6 8.6
2017-Jan-22 18:33N 31°35' E 121°18'4022425897.9
2017-Jan-22 18:33S 27°27' E 153°06'4013147423.0
2017-Jan-22 18:31N 31°28' E 121°25'26239.8
2017-Jan-22 18:25N 31°20' E 120°57'25776.8
2017-Jan-22 18:23N 31°30' E 121°23'163.3
2017-Jan-22 18:22N 31°30' E 121°24'9159.0
2017-Jan-22 18:18N 31°37' E 121°18'9293.8
2017-Jan-22 18:16N 31°30' E 121°24'129.2
2017-Jan-22 18:15N 31°29' E 121°25'0 5.9
2017-Jan-22 18:10N 31°30' E 121°24'1373.6
2017-Jan-22 18:10N 31°30' E 121°23'2 2.8
2017-Jan-22 17:33N 31°29' E 121°25'4015451640.5
2017-Jan-22 17:33S 27°27' E 153°06'40254829554.2
2017-Jan-22 17:33N 31°37' E 121°18'81339.3
2017-Jan-22 17:32N 31°30' E 121°23'114065.9
2017-Jan-22 17:32N 31°39' E 121°14'13225.0
2017-Jan-22 17:29N 31°30' E 121°24'133511.5
2017-Jan-22 17:29N 31°20' E 121°33'13816.6
2017-Jan-22 17:28N 31°30' E 121°24'251052.8
2017-Jan-22 17:26N 31°20' E 120°57'25735.5
2017-Jan-22 17:24N 31°30' E 121°24'298.2
2017-Jan-22 17:23N 31°28' E 121°25'365.9
2017-Jan-22 17:20N 31°30' E 121°23'810.4
2017-Jan-22 16:33N 31°37' E 121°18'40251034914.0
2017-Jan-22 16:33S 27°27' E 153°06'4014209430.9
2017-Jan-22 16:32N 31°29' E 121°25'182420.0
2017-Jan-22 16:31N 31°42' E 121°10'161927.2
2017-Jan-22 16:31N 31°30' E 121°23'1196.2
2017-Jan-22 16:30N 31°30' E 121°24'120.4
2017-Jan-22 16:29N 31°30' E 121°24'1322824.5
2017-Jan-22 16:29N 31°20' E 121°33'13291.1
2017-Jan-22 16:26N 31°30' E 121°24'1 9.6
2017-Jan-22 16:18N 31°30' E 121°23'40165292.1
2017-Jan-22 15:33S 27°27' E 153°06'4025724436.7
2017-Jan-22 15:32N 31°37' E 121°18'9725.6
2017-Jan-22 15:32N 31°30' E 121°24'1345758.0
2017-Jan-22 15:32N 31°20' E 121°33'134676.7
2017-Jan-22 15:31N 31°30' E 121°24'017.4
2017-Jan-22 15:30N 31°30' E 121°24'193.3
2017-Jan-22 15:30N 31°30' E 121°23'2179.2
2017-Jan-22 15:29N 31°29' E 121°25'26278.8
2017-Jan-22 15:24N 31°20' E 120°57'25843.9
2017-Jan-22 15:22N 31°29' E 121°24'1 0.6
2017-Jan-22 14:33N 31°30' E 121°24'11223.8
2017-Jan-22 14:33N 31°30' E 121°23'4016850492.9
2017-Jan-22 14:33S 27°27' E 153°06'4015314246.3
2017-Jan-22 14:32N 31°30' E 121°24'131953.4
2017-Jan-22 14:32N 31°20' E 121°33'121198.9
2017-Jan-22 14:31N 31°29' E 121°24'172227.2
2017-Jan-22 14:31N 31°41' E 121°10'7368.9
2017-Jan-22 14:29N 31°37' E 121°18'91962.5
2017-Jan-22 14:29N 31°30' E 121°24'1 8.6
2017-Jan-22 14:23N 31°29' E 121°25'26489.9
2017-Jan-22 14:20N 31°20' E 120°57'2532.1
2017-Jan-22 13:33N 31°37' E 121°18'4025629953.7
2017-Jan-22 13:33S 27°27' E 153°06'4016249284.4
2017-Jan-22 13:32N 31°30' E 121°23'143336.8
2017-Jan-22 13:32N 31°20' E 121°33'128615.1
2017-Jan-22 13:32N 31°29' E 121°25'126.4
2017-Jan-22 13:30N 31°30' E 121°24'039.5
2017-Jan-22 13:29N 31°29' E 121°24'171028.2
2017-Jan-22 13:28N 31°41' E 121°10'1688.9
2017-Jan-22 13:17N 31°30' E 121°24'0 4.2
2017-Jan-22 13:12N 31°30' E 121°24'40156088.6
2017-Jan-22 12:33S 27°27' E 153°06'4025139317.1
2017-Jan-22 12:31N 31°37' E 121°18'8295.4
2017-Jan-22 12:29N 31°42' E 121°10'1168.8
2017-Jan-22 12:29N 31°41' E 121°10'16575.6
2017-Jan-22 12:27N 31°30' E 121°24'011.6
2017-Jan-22 12:26N 31°30' E 121°24'9710.7
2017-Jan-22 12:25N 31°24' E 121°32'83808.3
2017-Jan-22 12:25N 31°30' E 121°24'073.6
2017-Jan-22 12:24N 31°29' E 121°24'0124.5
2017-Jan-22 12:24N 31°29' E 121°25'17542.1
2017-Jan-22 12:22N 31°41' E 121°10'29145.2
2017-Jan-22 12:10N 31°20' E 121°33'40026440.3
2017-Jan-22 11:33S 27°27' E 153°06'4026603832.7
2017-Jan-22 11:32N 31°37' E 121°16'101328.8
2017-Jan-22 11:32N 31°30' E 121°24'199.1
2017-Jan-22 11:31N 31°30' E 121°23'242.0
2017-Jan-22 11:29N 31°29' E 121°24'12946.0
2017-Jan-22 11:28N 31°20' E 121°33'23629.2
2017-Jan-22 11:26N 31°37' E 121°16'2245.9
2017-Jan-22 11:25N 31°37' E 121°18'12259.7
2017-Jan-22 11:23N 31°28' E 121°26'318.9
2017-Jan-22 11:14N 31°30' E 121°24'1690.7
2017-Jan-22 11:03N 31°41' E 121°10'1836.4
2017-Jan-22 10:33N 31°28' E 121°25'4013336005.5
2017-Jan-22 10:33S 27°27' E 153°06'40171112538.4
2017-Jan-22 10:33N 31°31' E 121°21'21039.4
2017-Jan-22 10:32N 31°30' E 121°24'3612.0
2017-Jan-22 10:32N 31°32' E 121°21'5869.8
2017-Jan-22 10:32N 31°29' E 121°25'1720647.5
2017-Jan-22 10:32N 31°41' E 121°10'112091.6
2017-Jan-22 10:31N 31°33' E 121°20'51009.3
2017-Jan-22 10:31N 31°30' E 121°24'9407.1
2017-Jan-22 10:30N 31°37' E 121°18'8138.8
2017-Jan-22 10:26N 31°30' E 121°23'2 8.4
2017-Jan-22 10:15N 31°29' E 121°24'12157.4
2017-Jan-22 10:10N 31°20' E 121°33'1321.5
2017-Jan-22 09:33N 31°31' E 121°25'150.6
2017-Jan-22 09:32N 31°29' E 121°25'101522.3
2017-Jan-22 09:31N 31°37' E 121°16'111940.9
2017-Jan-22 09:31N 31°28' E 121°25'4013187636.2
2017-Jan-22 09:30S 27°27' E 153°06'40251207393.3
2017-Jan-22 09:30N 31°37' E 121°18'9245.2
2017-Jan-22 09:27N 31°30' E 121°24'1388.0
2017-Jan-22 09:27N 31°29' E 121°25'17568.8
2017-Jan-22 09:25N 31°41' E 121°11'151568.8
2017-Jan-22 09:25N 31°30' E 121°23'14240.0
2017-Jan-22 09:21N 31°20' E 121°33'13140.5
2017-Jan-22 09:16N 31°30' E 121°24'2393.2
2017-Jan-22 09:15N 31°29' E 121°25'40145633.3
2017-Jan-22 08:33S 27°27' E 153°06'40322419015.7
2017-Jan-22 08:33N 31°41' E 121°11'152495.1
2017-Jan-22 08:32N 31°30' E 121°23'3114.3
2017-Jan-22 08:31N 31°28' E 121°25'128.0
2017-Jan-22 08:29N 31°29' E 121°25'1126.9
2017-Jan-22 08:28N 31°30' E 121°24'91043.6
2017-Jan-22 08:28N 31°37' E 121°18'4764.5
2017-Jan-22 08:27N 31°39' E 121°13'131101.7
2017-Jan-22 08:27N 31°30' E 121°24'0 9.1
2017-Jan-22 08:24N 31°29' E 121°25'5185.7
2017-Jan-22 08:22N 31°27' E 121°30'83903.9
2017-Jan-22 08:22N 31°20' E 121°33'1134.2
2017-Jan-22 08:03N 31°28' E 121°25'713.8
2017-Jan-22 07:33N 31°33' E 121°19'4020851300.8
2017-Jan-22 07:33S 27°27' E 153°06'4015170061.3
2017-Jan-22 07:31N 31°30' E 121°24'177.5
2017-Jan-22 07:31N 31°30' E 121°23'396.5
2017-Jan-22 07:29N 31°28' E 121°25'112809.7
2017-Jan-22 07:29N 31°37' E 121°18'22823.7
2017-Jan-22 07:27N 31°20' E 121°33'12339.0
2017-Jan-22 07:25N 31°29' E 121°25'14334.9
2017-Jan-22 07:23N 31°39' E 121°13'15333.3
2017-Jan-22 07:20N 31°28' E 121°25'1 5.1
2017-Jan-22 07:04N 31°29' E 121°25'1223.8
2017-Jan-22 06:33N 31°20' E 121°33'122007.0
2017-Jan-22 06:33N 31°29' E 121°25'135715.4
2017-Jan-22 06:33N 31°38' E 121°14'4230.3
2017-Jan-22 06:32N 31°37' E 121°18'9528.4
2017-Jan-22 06:31N 31°30' E 121°24'1148.4
2017-Jan-22 06:30N 31°29' E 121°25'14743.6
2017-Jan-22 06:29N 31°39' E 121°13'3107.5
2017-Jan-22 06:27N 31°41' E 121°11'15168.9
2017-Jan-22 06:22N 31°30' E 121°23'3 3.4
2017-Jan-22 05:33N 31°28' E 121°25'401314447863.3
2017-Jan-22 05:33S 27°27' E 153°06'4015481836.2
2017-Jan-22 05:32N 31°30' E 121°24'156.9
2017-Jan-22 05:31N 31°29' E 121°25'2035572.3
2017-Jan-22 05:31N 31°42' E 121°08'18709.5
2017-Jan-22 05:29N 31°30' E 121°23'2 7.1
2017-Jan-22 05:16N 31°29' E 121°25'10571.2
2017-Jan-22 05:15N 31°37' E 121°18'7157.4
2017-Jan-22 05:12N 31°41' E 121°11'1726.8
2017-Jan-22 04:33N 31°29' E 121°25'180.2
2017-Jan-22 04:33N 31°28' E 121°25'360.9
2017-Jan-22 04:30N 31°30' E 121°23'4016803226.6
2017-Jan-22 04:30S 27°27' E 153°06'4025178871.8
2017-Jan-22 04:28N 31°37' E 121°18'974.0
2017-Jan-22 04:21N 31°30' E 121°24'1680.0
2017-Jan-22 04:09N 31°41' E 121°11'18243.5
2017-Jan-22 04:05N 31°28' E 121°25'1 1.9
2017-Jan-22 03:33N 31°29' E 121°25'40141204258.2
2017-Jan-22 03:33S 27°27' E 153°06'4013222274.6
2017-Jan-22 03:32N 31°28' E 121°25'384.6
2017-Jan-22 03:30N 31°30' E 121°23'1 6.2
2017-Jan-22 03:22N 31°30' E 121°24'9155.8
2017-Jan-22 03:19N 31°37' E 121°18'8610.9
2017-Jan-22 03:18N 31°30' E 121°23'335.6
2017-Jan-22 03:13N 31°28' E 121°25'11216.3
2017-Jan-22 03:10N 31°20' E 121°33'0 0.0
2017-Jan-22 02:33N 31°20' E 121°33'298075.5
2017-Jan-22 02:33N 31°41' E 121°10'40323628580.2
2017-Jan-22 02:33S 27°27' E 153°06'4014138954.8
2017-Jan-22 02:31N 31°29' E 121°25'154550.6
2017-Jan-22 02:31N 31°40' E 121°13'141363.3
2017-Jan-22 02:30N 31°30' E 121°24'9656.3
2017-Jan-22 02:29N 31°37' E 121°18'114914.7
2017-Jan-22 02:29N 31°28' E 121°25'120.0
2017-Jan-22 02:25N 31°29' E 121°24'228.7
2017-Jan-22 02:22N 31°30' E 121°23'40164891.2
2017-Jan-22 01:33S 27°27' E 153°06'4015155436.0
2017-Jan-22 01:31N 31°30' E 121°24'16209.7
2017-Jan-22 01:27N 31°41' E 121°10'8253.5
2017-Jan-22 01:25N 31°37' E 121°18'10194.6
2017-Jan-22 01:22N 31°29' E 121°24'235.1
2017-Jan-22 01:19N 31°30' E 121°23'323.3
2017-Jan-22 01:12N 31°28' E 121°25'162.7
2017-Jan-22 01:11N 31°29' E 121°25'0 0.0
2017-Jan-22 00:33N 31°29' E 121°25'0136.4
2017-Jan-22 00:33N 31°29' E 121°24'40157226482.9
2017-Jan-22 00:33S 27°27' E 153°06'4025101320.6
2017-Jan-22 00:30N 31°37' E 121°18'8664.1
2017-Jan-22 00:30N 31°30' E 121°23'14104.3
2017-Jan-22 00:22N 31°20' E 121°33'111046.2
2017-Jan-22 00:21N 31°28' E 121°25'242.6
2017-Jan-22 00:18N 31°30' E 121°24'16160.0
2017-Jan-22 00:12N 31°41' E 121°10'40326142.3
2017-Jan-21 23:33S 27°27' E 153°06'4032853783.1
2017-Jan-21 23:32N 31°41' E 121°10'8371.5
2017-Jan-21 23:31N 31°37' E 121°18'221979.2
2017-Jan-21 23:31N 31°20' E 121°33'12426.7
2017-Jan-21 23:29N 31°29' E 121°25'27357.9
2017-Jan-21 23:29N 31°30' E 121°23'141125.5
2017-Jan-21 23:28N 31°41' E 121°11'16118.4
2017-Jan-21 23:20N 31°29' E 121°24'1 9.8
2017-Jan-21 23:12N 31°28' E 121°25'0 3.6
2017-Jan-21 23:10N 31°28' E 121°25'1830.2
2017-Jan-21 22:33N 31°41' E 121°10'827415.2
2017-Jan-21 22:33N 31°36' E 121°17'4024353345.1
2017-Jan-21 22:33S 27°27' E 153°06'401314448003.7
2017-Jan-21 22:33N 31°28' E 121°25'185.7
2017-Jan-21 22:32N 31°29' E 121°25'019.3
2017-Jan-21 22:31N 31°29' E 121°24'2380.6
2017-Jan-21 22:30N 31°30' E 121°23'148.7
2017-Jan-21 22:29N 31°30' E 121°24'9216.0
2017-Jan-21 22:27N 31°37' E 121°18'897.7
2017-Jan-21 22:22N 31°30' E 121°23'3566.3
2017-Jan-21 22:21N 31°28' E 121°25'1113.7
2017-Jan-21 21:33N 31°20' E 121°33'14535.0
2017-Jan-21 21:32N 31°30' E 121°23'15522.0
2017-Jan-21 21:30N 31°41' E 121°10'4032558232.0
2017-Jan-21 21:30S 27°27' E 153°06'4016212624.9
2017-Jan-21 21:29N 31°30' E 121°23'139.2
2017-Jan-21 21:27N 31°30' E 121°24'117.2
2017-Jan-21 21:25N 31°29' E 121°24'10586.1
2017-Jan-21 21:24N 31°37' E 121°18'11346.3
2017-Jan-21 21:22N 31°28' E 121°25'1 7.6
2017-Jan-21 21:14N 31°29' E 121°25'071.2
2017-Jan-21 21:14N 31°29' E 121°25'2 2.8
2017-Jan-21 20:33N 31°30' E 121°23'4016361453.6
2017-Jan-21 20:33S 27°27' E 153°06'40157227495.4
2017-Jan-21 20:33N 31°30' E 121°24'034.5
2017-Jan-21 20:32N 31°30' E 121°24'268.3
2017-Jan-21 20:31N 31°28' E 121°25'114973.7
2017-Jan-21 20:30N 31°20' E 121°33'222469.5
2017-Jan-21 20:30N 31°37' E 121°18'106873.7
2017-Jan-21 20:30N 31°30' E 121°24'17594.2
2017-Jan-21 20:28N 31°41' E 121°11'1761.5
2017-Jan-21 20:11N 31°29' E 121°25'254.3
2017-Jan-21 20:09N 31°30' E 121°23'40166653.6
2017-Jan-21 19:33S 27°27' E 153°06'40167229065.0
2017-Jan-21 19:33N 31°30' E 121°23'0 9.1
2017-Jan-21 19:32N 31°31' E 121°23'1715381.2
2017-Jan-21 19:32N 31°42' E 121°08'186481.7
2017-Jan-21 19:32N 31°30' E 121°24'94043.8
2017-Jan-21 19:31N 31°37' E 121°18'10504.0
2017-Jan-21 19:30N 31°29' E 121°25'1134.4
2017-Jan-21 19:30N 31°28' E 121°25'11274.6
2017-Jan-21 19:27N 31°20' E 121°33'12200.7
2017-Jan-21 19:24N 31°30' E 121°24'1214.8
2017-Jan-21 18:33N 31°20' E 121°33'144556.5
2017-Jan-21 18:33N 31°31' E 121°23'4016481943.2
2017-Jan-21 18:33S 27°27' E 153°06'4015294953.3
2017-Jan-21 18:32N 31°30' E 121°24'143.6
2017-Jan-21 18:31N 31°29' E 121°25'1278.2
2017-Jan-21 18:31N 31°30' E 121°24'1174.0
2017-Jan-21 18:31N 31°30' E 121°23'262.2
2017-Jan-21 18:29N 31°29' E 121°25'10401.9
2017-Jan-21 18:28N 31°37' E 121°18'117867.0
2017-Jan-21 18:27N 31°28' E 121°25'20482.4
2017-Jan-21 18:25N 31°42' E 121°08'40334629.9
2017-Jan-21 17:33S 27°27' E 153°06'40252897723.4
2017-Jan-21 17:33N 31°37' E 121°18'8482.0
2017-Jan-21 17:32N 31°30' E 121°23'016.7
2017-Jan-21 17:31N 31°31' E 121°23'3861.2
2017-Jan-21 17:31N 31°28' E 121°25'2111.3
2017-Jan-21 17:30N 31°30' E 121°24'14451.4
2017-Jan-21 17:30N 31°29' E 121°25'12213.4
2017-Jan-21 17:27N 31°20' E 121°33'314600.2
2017-Jan-21 17:26N 31°42' E 121°08'191094.2
2017-Jan-21 17:25N 31°29' E 121°25'019.1
2017-Jan-21 17:25N 31°30' E 121°24'1 0.8
2017-Jan-21 16:33N 31°30' E 121°24'13308.7
2017-Jan-21 16:33N 31°31' E 121°23'8242.3
2017-Jan-21 16:31N 31°37' E 121°18'1034509.8
2017-Jan-21 16:31N 31°30' E 121°24'188285.8
2017-Jan-21 16:31N 31°42' E 121°08'312693.2
2017-Jan-21 16:30N 31°20' E 121°33'4002379132.6
2017-Jan-21 16:30S 27°27' E 153°06'4016278042.9
2017-Jan-21 16:29N 31°30' E 121°23'231.0
2017-Jan-21 16:26N 31°29' E 121°25'0 7.3
2017-Jan-21 16:22N 31°29' E 121°25'601106.3
2017-Jan-21 16:19N 32°01' E 120°26'7193.8
2017-Jan-21 15:33N 31°20' E 121°33'4002360176.9
2017-Jan-21 15:33S 27°27' E 153°06'4013155355.9
2017-Jan-21 15:31N 31°28' E 121°25'174.5
2017-Jan-21 15:30N 31°30' E 121°24'10538.4
2017-Jan-21 15:29N 31°37' E 121°18'8446.7
2017-Jan-21 15:28N 31°31' E 121°23'2163.0
2017-Jan-21 15:27N 31°29' E 121°25'285.7
2017-Jan-21 15:26N 31°30' E 121°23'1 7.9
2017-Jan-21 15:19N 31°30' E 121°24'1 3.5
2017-Jan-21 15:04N 31°30' E 121°23'1427.3
2017-Jan-21 14:33N 31°20' E 121°33'4002379132.1
2017-Jan-21 14:33S 27°27' E 153°06'4013628174.9
2017-Jan-21 14:32N 31°28' E 121°25'1138.4
2017-Jan-21 14:32N 31°30' E 121°24'5712091.6
2017-Jan-21 14:31N 31°59' E 120°27'5666643.0
2017-Jan-21 14:31N 31°30' E 121°23'2769.7
2017-Jan-21 14:31N 31°29' E 121°25'292.0
2017-Jan-21 14:30N 31°30' E 121°23'172.1
2017-Jan-21 14:29N 31°30' E 121°24'1110.8
2017-Jan-21 14:29N 31°31' E 121°23'857.2
2017-Jan-21 14:20N 31°37' E 121°18'40255082.0
2017-Jan-21 13:33S 27°27' E 153°06'4016328608.2
2017-Jan-21 13:32N 31°31' E 121°23'257.2
2017-Jan-21 13:30N 31°30' E 121°24'10337.8
2017-Jan-21 13:29N 31°37' E 121°18'91217.8
2017-Jan-21 13:28N 31°30' E 121°23'13897.4
2017-Jan-21 13:27N 31°20' E 121°33'13450.2
2017-Jan-21 13:26N 31°30' E 121°24'147.5
2017-Jan-21 13:24N 31°29' E 121°25'139.7
2017-Jan-21 13:23N 31°28' E 121°25'20489.1
2017-Jan-21 13:20N 31°42' E 121°08'26190.5
2017-Jan-21 13:12N 31°23' E 121°30'40066137.4
2017-Jan-21 12:33S 27°27' E 153°06'4033337659.3
2017-Jan-21 12:32N 31°42' E 121°08'14687.9
2017-Jan-21 12:31N 31°32' E 121°20'6275.8
2017-Jan-21 12:29N 31°28' E 121°25'112460.9
2017-Jan-21 12:29N 31°37' E 121°18'84118.6
2017-Jan-21 12:29N 31°31' E 121°23'2121.6
2017-Jan-21 12:28N 31°30' E 121°24'0 3.9
2017-Jan-21 12:26N 31°29' E 121°24'1 9.3
2017-Jan-21 12:21N 31°30' E 121°24'1 4.2
2017-Jan-21 12:08N 31°30' E 121°23'3 4.9
2017-Jan-21 11:33N 31°28' E 121°25'107393.2
2017-Jan-21 11:33N 31°36' E 121°17'40242069376.0
2017-Jan-21 11:33S 27°27' E 153°06'40253622231.8
2017-Jan-21 11:33N 31°37' E 121°18'91288.9
2017-Jan-21 11:32N 31°30' E 121°24'18595.4
2017-Jan-21 11:30N 31°42' E 121°08'171772.0
2017-Jan-21 11:30N 31°31' E 121°23'253.4
2017-Jan-21 11:28N 31°30' E 121°24'139.5
2017-Jan-21 11:27N 31°29' E 121°25'8159.3
2017-Jan-21 11:24N 31°23' E 121°30'2382.5
2017-Jan-21 11:08N 31°40' E 121°13'40306855.5
2017-Jan-21 10:33S 27°27' E 153°06'4035605237.5
2017-Jan-21 10:32N 31°43' E 121°08'20364.0
2017-Jan-21 10:29N 31°29' E 121°25'101129.3
2017-Jan-21 10:28N 31°37' E 121°18'111578.5
2017-Jan-21 10:28N 31°28' E 121°25'1745.6
2017-Jan-21 10:28N 31°30' E 121°24'109272.5
2017-Jan-21 10:28N 31°37' E 121°16'8380.9
2017-Jan-21 10:26N 31°42' E 121°08'2613576.2
2017-Jan-21 10:26N 31°23' E 121°30'23135.3
2017-Jan-21 10:16N 31°40' E 121°12'141109.9
2017-Jan-21 10:15N 31°30' E 121°24'1100.8
2017-Jan-21 10:15N 31°30' E 121°23'3 5.0
2017-Jan-21 09:33N 31°33' E 121°21'172517.1
2017-Jan-21 09:33N 31°20' E 121°33'4002533572.5
2017-Jan-21 09:33S 27°27' E 153°06'4013307399.7
2017-Jan-21 09:32N 31°28' E 121°25'16435.5
2017-Jan-21 09:30N 31°40' E 121°12'143931.5
2017-Jan-21 09:29N 31°30' E 121°24'102195.8
2017-Jan-21 09:29N 31°37' E 121°16'111.5
2017-Jan-21 09:22N 31°37' E 121°18'8904.4
2017-Jan-21 09:22N 31°31' E 121°23'17280.7
2017-Jan-21 09:18N 31°42' E 121°08'1824.3
2017-Jan-21 08:34N 31°30' E 121°24'4015272725.5
2017-Jan-21 08:33S 27°27' E 153°06'4026329406.5
2017-Jan-21 08:32N 31°38' E 121°16'2115.6
2017-Jan-21 08:31N 31°37' E 121°18'9610.9
2017-Jan-21 08:30N 31°42' E 121°08'178654.3
2017-Jan-21 08:30N 31°31' E 121°23'2450.9
2017-Jan-21 08:30N 31°30' E 121°24'190.8
2017-Jan-21 08:29N 31°30' E 121°24'4389.8
2017-Jan-21 08:29N 31°33' E 121°21'4744932.0
2017-Jan-21 08:23N 24°12' E 118°04'4665703.8
2017-Jan-21 08:18N 31°20' E 121°33'11287.6
2017-Jan-21 08:16N 31°28' E 121°26'1 7.1
2017-Jan-21 08:07N 31°29' E 121°25'1 2.0
2017-Jan-21 07:33N 31°30' E 121°24'125.0
2017-Jan-21 07:30N 31°29' E 121°25'173.7
2017-Jan-21 07:29N 31°30' E 121°26'3246.2
2017-Jan-21 07:28N 31°30' E 121°23'233.6
2017-Jan-21 07:25N 31°30' E 121°24'103134.1
2017-Jan-21 07:25N 31°37' E 121°18'173588.6
2017-Jan-21 07:25N 31°25' E 121°31'1371.4
2017-Jan-21 07:14N 31°33' E 121°19'4102.6
2017-Jan-21 07:12N 31°37' E 121°18'9374.8
2017-Jan-21 07:10N 31°30' E 121°24'40156413.1
2017-Jan-21 06:33S 27°27' E 153°06'4026499726.2
2017-Jan-21 06:32N 31°37' E 121°16'91648.0
2017-Jan-21 06:32N 31°31' E 121°23'286.7
2017-Jan-21 06:31N 31°30' E 121°24'92194.0
2017-Jan-21 06:31N 31°37' E 121°18'221806.5
2017-Jan-21 06:30N 31°20' E 121°33'13746.0
2017-Jan-21 06:29N 31°30' E 121°24'9951.7
2017-Jan-21 06:28N 31°37' E 121°18'1889.5
2017-Jan-21 06:16N 31°23' E 121°30'949.5
2017-Jan-21 06:06N 31°30' E 121°24'173704.4
2017-Jan-21 06:05N 31°42' E 121°09'263719.1
2017-Jan-21 06:05N 31°25' E 121°31'713.5
2017-Jan-21 05:33N 31°29' E 121°25'4014656876.5
2017-Jan-21 05:33S 27°27' E 153°06'4024226362.7
2017-Jan-21 05:32N 31°37' E 121°18'865.3
2017-Jan-21 05:25N 31°30' E 121°23'010.7
2017-Jan-21 05:23N 31°31' E 121°23'2114.7
2017-Jan-21 05:22N 31°30' E 121°24'104311.6
2017-Jan-21 05:22N 31°37' E 121°18'9445.4
2017-Jan-21 05:21N 31°30' E 121°24'171215.5
2017-Jan-21 05:20N 31°42' E 121°10'17258.8
2017-Jan-21 05:16N 31°30' E 121°24'0 0.5
2017-Jan-21 04:32N 31°30' E 121°24'4015112931.6
2017-Jan-21 04:30S 27°27' E 153°06'40141204247.5
2017-Jan-21 04:29N 31°29' E 121°25'12186.4
2017-Jan-21 04:26N 31°20' E 121°33'12198.8
2017-Jan-21 04:22N 31°29' E 121°24'164.7
2017-Jan-21 04:21N 31°30' E 121°24'140.2
2017-Jan-21 04:20N 31°31' E 121°23'8986.2
2017-Jan-21 04:19N 31°37' E 121°18'034.2
2017-Jan-21 04:19N 31°37' E 121°18'860.7
2017-Jan-21 04:10N 31°42' E 121°10'4063.6
2017-Jan-21 03:33N 31°58' E 120°27'4067665500.7
2017-Jan-21 03:33S 27°27' E 153°06'40151111763.6
2017-Jan-21 03:32N 31°30' E 121°24'1200.7
2017-Jan-21 03:32N 31°30' E 121°24'17487.0
2017-Jan-21 03:30N 31°42' E 121°10'91354.7
2017-Jan-21 03:30N 31°37' E 121°18'125.2
2017-Jan-21 03:28N 31°37' E 121°18'18298.9
2017-Jan-21 03:25N 31°23' E 121°30'1820.7
2017-Jan-21 02:33N 31°37' E 121°18'1815924.6
2017-Jan-21 02:33N 31°23' E 121°30'4006320506.5
2017-Jan-21 02:33S 27°27' E 153°06'40152891089.0
2017-Jan-21 02:33N 31°30' E 121°24'172648.0
2017-Jan-21 02:32N 31°42' E 121°10'9921.1
2017-Jan-21 02:32N 31°37' E 121°18'482548.4
2017-Jan-21 02:31N 31°58' E 120°27'684079.6
2017-Jan-21 02:30N 31°20' E 121°33'13204.3
2017-Jan-21 02:26N 31°30' E 121°24'144.1
2017-Jan-21 02:25N 31°30' E 121°24'147.1
2017-Jan-21 02:24N 31°29' E 121°25'217.0
2017-Jan-21 02:17N 31°31' E 121°23'2 2.9
2017-Jan-21 01:33N 31°29' E 121°25'4014802849.0
2017-Jan-21 01:33S 27°27' E 153°06'4024579475.3
2017-Jan-21 01:32N 31°37' E 121°18'8409.2
2017-Jan-21 01:31N 31°30' E 121°24'9648.5
2017-Jan-21 01:30N 31°37' E 121°18'102172.3
2017-Jan-21 01:30N 31°30' E 121°24'121867.7
2017-Jan-21 01:30N 31°20' E 121°33'1346997.8
2017-Jan-21 01:29N 31°30' E 121°24'93140.9
2017-Jan-21 01:29N 31°23' E 121°30'10847.4
2017-Jan-21 01:29N 31°31' E 121°23'551539.9
2017-Jan-21 01:27N 31°58' E 120°27'405704.6
2017-Jan-21 01:26N 31°42' E 121°10'301383.7
2017-Jan-21 01:25N 31°19' E 121°34'691539.4
2017-Jan-21 01:22N 31°58' E 120°26'40684932.1
2017-Jan-21 00:33S 27°27' E 153°06'4015903485.9
2017-Jan-21 00:32N 31°30' E 121°24'171560.2
2017-Jan-21 00:32N 31°42' E 121°10'18596.6
2017-Jan-21 00:30N 31°29' E 121°25'21498.0
2017-Jan-21 00:30N 31°31' E 121°23'142400.1
2017-Jan-21 00:29N 31°20' E 121°33'221846.0
2017-Jan-21 00:29N 31°37' E 121°18'101321.9
2017-Jan-21 00:28N 31°30' E 121°24'123.0
2017-Jan-21 00:27N 31°30' E 121°24'8149.4
2017-Jan-21 00:23N 31°37' E 121°18'9125.1
2017-Jan-21 00:19N 31°29' E 121°24'2 9.3
2017-Jan-21 00:08N 31°30' E 121°23'40166842.6
2017-Jan-20 23:33S 27°27' E 153°06'4016556109.4
2017-Jan-20 23:32N 31°31' E 121°23'016.7
2017-Jan-20 23:31N 31°30' E 121°23'11640.8
2017-Jan-20 23:31N 31°30' E 121°24'910804.0
2017-Jan-20 23:31N 31°37' E 121°18'181829.0
2017-Jan-20 23:31N 31°23' E 121°30'8910.6
2017-Jan-20 23:30N 31°29' E 121°24'1567.4
2017-Jan-20 23:30N 31°30' E 121°24'8110.4
2017-Jan-20 23:26N 31°37' E 121°18'9479.0
2017-Jan-20 23:24N 31°30' E 121°24'13699.0
2017-Jan-20 23:23N 31°20' E 121°33'12353.7
2017-Jan-20 23:21N 31°29' E 121°25'18367.7
2017-Jan-20 23:18N 31°42' E 121°10'1722.3
2017-Jan-20 22:33N 31°30' E 121°24'4016688371.8
2017-Jan-20 22:33S 27°27' E 153°06'4015481845.5
2017-Jan-20 22:32N 31°30' E 121°24'1146.9
2017-Jan-20 22:32N 31°30' E 121°24'270.2
2017-Jan-20 22:31N 31°30' E 121°23'16613.2
2017-Jan-20 22:29N 31°42' E 121°10'82475.5
2017-Jan-20 22:29N 31°37' E 121°18'123.2
2017-Jan-20 22:27N 31°37' E 121°18'1066.1
2017-Jan-20 22:19N 31°29' E 121°25'216.9
2017-Jan-20 22:11N 31°31' E 121°23'40166283.7
2017-Jan-20 21:33S 27°27' E 153°06'4016126829.2
2017-Jan-20 21:31N 31°30' E 121°23'015.0
2017-Jan-20 21:30N 31°31' E 121°23'1114.0
2017-Jan-20 21:29N 31°30' E 121°24'173796.4
2017-Jan-20 21:29N 31°42' E 121°10'182184.4
2017-Jan-20 21:29N 31°29' E 121°24'102903.8
2017-Jan-20 21:28N 31°37' E 121°18'120.0
2017-Jan-20 21:26N 31°37' E 121°18'971.2
2017-Jan-20 21:19N 31°30' E 121°24'13133.9
2017-Jan-20 21:13N 31°20' E 121°33'1277.0
2017-Jan-20 21:04N 31°29' E 121°25'1 2.3
2017-Jan-20 20:33N 31°30' E 121°24'4015401533.3
2017-Jan-20 20:33S 27°27' E 153°06'4025206979.2
2017-Jan-20 20:31N 31°37' E 121°18'8213.3
2017-Jan-20 20:29N 31°31' E 121°23'7671.2
2017-Jan-20 20:29N 31°37' E 121°18'9329.2
2017-Jan-20 20:27N 31°30' E 121°24'1368.3
2017-Jan-20 20:27N 31°30' E 121°24'17147.0
2017-Jan-20 20:20N 31°42' E 121°10'262630.9
2017-Jan-20 20:19N 31°23' E 121°30'8373.3
2017-Jan-20 20:18N 31°29' E 121°25'40145291.7
2017-Jan-20 19:33S 27°27' E 153°06'4015307513.6
2017-Jan-20 19:32N 31°30' E 121°24'92697.8
2017-Jan-20 19:32N 31°37' E 121°18'83770.7
2017-Jan-20 19:31N 31°30' E 121°24'9506.9
2017-Jan-20 19:30N 31°23' E 121°30'91265.1
2017-Jan-20 19:30N 31°30' E 121°24'11397.5
2017-Jan-20 19:30N 31°29' E 121°25'10951.1
2017-Jan-20 19:29N 31°37' E 121°18'8442.8
2017-Jan-20 19:28N 31°42' E 121°10'16394.5
2017-Jan-20 19:26N 31°30' E 121°23'1496.0
2017-Jan-20 19:17N 31°20' E 121°33'40025395.8
2017-Jan-20 18:33S 27°27' E 153°06'40152409247.2
2017-Jan-20 18:32N 31°30' E 121°24'131963.9
2017-Jan-20 18:32N 31°20' E 121°33'123411.1
2017-Jan-20 18:32N 31°29' E 121°25'0115.8
2017-Jan-20 18:32N 31°30' E 121°24'1148.8
2017-Jan-20 18:32N 31°29' E 121°25'10816.4
2017-Jan-20 18:31N 31°37' E 121°18'74486.1
2017-Jan-20 18:31N 31°31' E 121°23'102478.0
2017-Jan-20 18:31N 31°23' E 121°30'18251.4
2017-Jan-20 18:26N 31°37' E 121°18'8165.7
2017-Jan-20 18:23N 31°42' E 121°10'17100.4
2017-Jan-20 18:13N 31°30' E 121°24'1725.4
2017-Jan-20 17:33N 31°42' E 121°10'4033302438.4
2017-Jan-20 17:33S 27°27' E 153°06'40151204421.8
2017-Jan-20 17:32N 31°30' E 121°24'10286.8
2017-Jan-20 17:30N 31°37' E 121°18'1113.5
2017-Jan-20 17:30N 31°37' E 121°18'71495.4
2017-Jan-20 17:30N 31°31' E 121°23'298.2
2017-Jan-20 17:28N 31°29' E 121°25'12306.2
2017-Jan-20 17:26N 31°20' E 121°33'13619.5
2017-Jan-20 17:25N 31°30' E 121°24'1 3.6
2017-Jan-20 17:06N 31°30' E 121°23'40167125.8
2017-Jan-20 16:33S 27°27' E 153°06'40251609861.2
2017-Jan-20 16:32N 31°37' E 121°18'82064.6
2017-Jan-20 16:32N 31°31' E 121°23'167163.9
2017-Jan-20 16:32N 31°42' E 121°10'3017940.9
2017-Jan-20 16:32N 31°20' E 121°33'12613.1
2017-Jan-20 16:31N 31°29' E 121°24'8694.6
2017-Jan-20 16:30N 31°23' E 121°30'172368.5
2017-Jan-20 16:30N 31°37' E 121°18'81207.3
2017-Jan-20 16:29N 31°30' E 121°24'116.5
2017-Jan-20 16:26N 31°29' E 121°25'119.7
2017-Jan-20 16:24N 31°30' E 121°24'111.6
2017-Jan-20 16:18N 31°29' E 121°25'1 0.8
2017-Jan-20 15:33N 31°30' E 121°24'4015390617.6
2017-Jan-20 15:33S 27°27' E 153°06'4024438979.4
2017-Jan-20 15:32N 31°37' E 121°18'91366.8
2017-Jan-20 15:32N 31°29' E 121°25'101834.0
2017-Jan-20 15:31N 31°37' E 121°18'910749.8
2017-Jan-20 15:31N 31°30' E 121°24'185.6
2017-Jan-20 15:30N 31°29' E 121°25'21274.8
2017-Jan-20 15:30N 31°31' E 121°23'16786.6
2017-Jan-20 15:29N 31°42' E 121°10'461.0
2017-Jan-20 15:25N 31°39' E 121°13'212820.0
2017-Jan-20 15:24N 31°23' E 121°30'9809.1
2017-Jan-20 15:24N 31°30' E 121°24'1214.8
2017-Jan-20 14:33N 31°39' E 121°13'135295.1
2017-Jan-20 14:33N 31°29' E 121°25'4015628375.2
2017-Jan-20 14:33S 27°27' E 153°06'40064807623.5
2017-Jan-20 14:33N 31°23' E 121°30'173420.2
2017-Jan-20 14:32N 31°37' E 121°18'7426.7
2017-Jan-20 14:31N 31°31' E 121°23'2577.2
2017-Jan-20 14:31N 31°29' E 121°25'2243.6
2017-Jan-20 14:30N 31°30' E 121°23'2165.9
2017-Jan-20 14:30N 31°30' E 121°24'135.4
2017-Jan-20 14:29N 31°30' E 121°24'91243.6
2017-Jan-20 14:28N 31°37' E 121°18'9238.3
2017-Jan-20 14:26N 31°30' E 121°24'171128.3
2017-Jan-20 14:25N 31°42' E 121°10'8 9.5
2017-Jan-20 13:33N 31°37' E 121°18'4025536625.6
2017-Jan-20 13:33S 27°27' E 153°06'40151606175.5
2017-Jan-20 13:32N 31°30' E 121°24'1311259.8
2017-Jan-20 13:32N 31°39' E 121°13'131815.2
2017-Jan-20 13:32N 31°30' E 121°24'1214936.2
2017-Jan-20 13:32N 31°20' E 121°33'214060.3
2017-Jan-20 13:32N 31°37' E 121°18'8522.1
2017-Jan-20 13:31N 31°30' E 121°23'0 7.5
2017-Jan-20 13:29N 31°31' E 121°23'164.9
2017-Jan-20 13:28N 31°30' E 121°24'17400.2
2017-Jan-20 13:25N 31°42' E 121°10'41233.6
2017-Jan-20 13:15N 31°59' E 120°26'58728.5
2017-Jan-20 13:10N 31°29' E 121°25'40146422.8
2017-Jan-20 12:33S 27°27' E 153°06'4015170062.5
2017-Jan-20 12:31N 31°30' E 121°24'053.9
2017-Jan-20 12:31N 31°30' E 121°24'17649.1
2017-Jan-20 12:29N 31°42' E 121°10'82120.2
2017-Jan-20 12:29N 31°37' E 121°18'101840.5
2017-Jan-20 12:29N 31°29' E 121°24'019.1
2017-Jan-20 12:28N 31°29' E 121°24'13225.5
2017-Jan-20 12:25N 31°39' E 121°13'12629.0
2017-Jan-20 12:24N 31°31' E 121°23'7218.4
2017-Jan-20 12:22N 31°37' E 121°18'1 0.9
2017-Jan-20 11:33N 31°37' E 121°18'4025362224.8
2017-Jan-20 11:33S 27°27' E 153°06'4033439920.1
2017-Jan-20 11:32N 31°42' E 121°10'306759.3
2017-Jan-20 11:32N 31°20' E 121°33'132057.2
2017-Jan-20 11:31N 31°30' E 121°24'8377.7
2017-Jan-20 11:30N 31°37' E 121°18'81360.8
2017-Jan-20 11:30N 31°31' E 121°23'2130.1
2017-Jan-20 11:29N 31°29' E 121°24'095.3
2017-Jan-20 11:29N 31°30' E 121°24'57741.1
2017-Jan-20 11:24N 31°59' E 120°26'57374.2
2017-Jan-20 11:15N 31°30' E 121°24'0 0.0
2017-Jan-20 10:33N 31°30' E 121°24'9888.5
2017-Jan-20 10:33N 31°37' E 121°18'1011627.1
2017-Jan-20 10:33N 31°29' E 121°24'187055.4
2017-Jan-20 10:33N 31°42' E 121°10'40332903469.4
2017-Jan-20 10:33S 27°27' E 153°06'4014143084.3
2017-Jan-20 10:31N 31°29' E 121°25'1142.0
2017-Jan-20 10:30N 31°30' E 121°24'123.2
2017-Jan-20 10:29N 31°30' E 121°24'22781.8
2017-Jan-20 10:29N 31°31' E 121°23'8319.4
2017-Jan-20 10:27N 31°37' E 121°18'49315.5
2017-Jan-20 10:18N 31°59' E 120°26'692732.5
2017-Jan-20 10:17N 31°20' E 121°33'14280.1
2017-Jan-20 10:14N 31°30' E 121°23'40165879.9
2017-Jan-20 09:33S 27°27' E 153°06'4024237490.7
2017-Jan-20 09:32N 31°37' E 121°18'7156.7
2017-Jan-20 09:29N 31°31' E 121°23'162.9
2017-Jan-20 09:28N 31°30' E 121°24'9397.2
2017-Jan-20 09:26N 31°37' E 121°18'5728.2
2017-Jan-20 09:26N 31°40' E 121°13'131853.2
2017-Jan-20 09:26N 31°30' E 121°24'161.3
2017-Jan-20 09:25N 31°30' E 121°24'134.1
2017-Jan-20 09:24N 31°29' E 121°25'085.7
2017-Jan-20 09:24N 31°29' E 121°24'12103.3
2017-Jan-20 09:16N 31°20' E 121°33'30581.1
2017-Jan-20 09:13N 31°42' E 121°10'40335940.0
2017-Jan-20 08:33S 27°27' E 153°06'4015498379.7
2017-Jan-20 08:32N 31°29' E 121°24'125.8
2017-Jan-20 08:30N 31°30' E 121°24'17426.9
2017-Jan-20 08:28N 31°42' E 121°10'4212.0
2017-Jan-20 08:27N 31°40' E 121°13'142958.4
2017-Jan-20 08:27N 31°30' E 121°24'9630.9
2017-Jan-20 08:26N 31°37' E 121°18'8505.2
2017-Jan-20 08:25N 31°31' E 121°23'166.7
2017-Jan-20 08:24N 31°30' E 121°24'8117.9
2017-Jan-20 08:20N 31°37' E 121°18'2283.6
2017-Jan-20 08:04N 31°20' E 121°33'1223.4
2017-Jan-20 07:33N 31°29' E 121°25'4014963470.9
2017-Jan-20 07:33S 27°27' E 153°06'40161112217.5
2017-Jan-20 07:32N 31°31' E 121°23'1135.5
2017-Jan-20 07:32N 31°30' E 121°24'1112.6
2017-Jan-20 07:32N 31°29' E 121°24'9850.9
2017-Jan-20 07:31N 31°37' E 121°18'9496.9
2017-Jan-20 07:30N 31°42' E 121°10'8689.4
2017-Jan-20 07:29N 31°37' E 121°18'515.4
2017-Jan-20 07:11N 31°40' E 121°13'14252.2
2017-Jan-20 07:08N 31°29' E 121°25'1424.4
2017-Jan-20 06:33N 31°40' E 121°13'1425349.3
2017-Jan-20 06:33N 31°30' E 121°24'1036642.3
2017-Jan-20 06:33N 31°38' E 121°17'40253622716.6
2017-Jan-20 06:33S 27°27' E 153°06'4015760815.3
2017-Jan-20 06:32N 31°30' E 121°24'1124.2
2017-Jan-20 06:32N 31°31' E 121°23'1166.7
2017-Jan-20 06:31N 31°29' E 121°24'9314.2
2017-Jan-20 06:30N 31°37' E 121°18'9160.1
2017-Jan-20 06:26N 31°29' E 121°25'126.8
2017-Jan-20 06:24N 31°29' E 121°23'13460.9
2017-Jan-20 06:22N 31°20' E 121°33'307700.0
2017-Jan-20 06:22N 31°42' E 121°10'33454.4
2017-Jan-20 06:18N 31°16' E 121°33'1621.6
2017-Jan-20 05:33N 31°29' E 121°23'186.0
2017-Jan-20 05:33N 31°29' E 121°25'40151605802.4
2017-Jan-20 05:33S 27°27' E 153°06'4029659297.5
2017-Jan-20 05:32N 31°40' E 121°13'271706.0
2017-Jan-20 05:31N 31°20' E 121°33'142522.6
2017-Jan-20 05:31N 31°31' E 121°23'156.1
2017-Jan-20 05:30N 31°30' E 121°24'1710075.8
2017-Jan-20 05:30N 31°41' E 121°10'171490.8
2017-Jan-20 05:29N 31°30' E 121°24'101645.8
2017-Jan-20 05:29N 31°38' E 121°18'8184.8
2017-Jan-20 05:26N 31°42' E 121°10'17934.3
2017-Jan-20 05:25N 31°29' E 121°24'1415.9
2017-Jan-20 04:33N 31°40' E 121°13'1315103.6
2017-Jan-20 04:33N 31°30' E 121°23'91484.1
2017-Jan-20 04:33N 31°38' E 121°18'40252070073.4
2017-Jan-20 04:33S 27°27' E 153°06'4015602308.3
2017-Jan-20 04:32N 31°30' E 121°24'13859.0
2017-Jan-20 04:31N 31°20' E 121°33'309800.0
2017-Jan-20 04:31N 31°42' E 121°10'121167.8
2017-Jan-20 04:30N 31°33' E 121°19'6665.1
2017-Jan-20 04:30N 31°30' E 121°24'274.7
2017-Jan-20 04:29N 31°31' E 121°23'146.2
2017-Jan-20 04:27N 31°29' E 121°24'0 1.7
2017-Jan-20 04:23N 31°29' E 121°23'1 1.2
2017-Jan-20 03:33N 31°30' E 121°24'17965.3
2017-Jan-20 03:32N 31°42' E 121°10'8192.3
2017-Jan-20 03:30N 31°38' E 121°18'40254830199.0
2017-Jan-20 03:30S 27°27' E 153°06'4016152196.1
2017-Jan-20 03:28N 31°31' E 121°23'13704.8
2017-Jan-20 03:27N 31°40' E 121°13'14165.1
2017-Jan-20 03:22N 31°29' E 121°25'144.6
2017-Jan-20 03:20N 31°29' E 121°23'046.9
2017-Jan-20 03:20N 31°29' E 121°24'112.0
2017-Jan-20 03:16N 31°30' E 121°24'1013.9
2017-Jan-20 02:33N 31°38' E 121°18'9433.8
2017-Jan-20 02:32N 31°31' E 121°23'022.5
2017-Jan-20 02:31N 31°30' E 121°23'272.3
2017-Jan-20 02:30N 31°30' E 121°24'181910.3
2017-Jan-20 02:29N 31°42' E 121°10'172253.5
2017-Jan-20 02:29N 31°30' E 121°24'4015112934.1
2017-Jan-20 02:27S 27°27' E 153°06'4015182968.2
2017-Jan-20 02:25N 31°29' E 121°23'0 1.5
2017-Jan-20 02:19N 31°29' E 121°24'14168.3
2017-Jan-20 02:14N 31°40' E 121°13'27159.6
2017-Jan-20 02:04N 31°20' E 121°33'1325.4
2017-Jan-20 01:33N 31°29' E 121°23'170.0
2017-Jan-20 01:33N 31°29' E 121°24'40152890581.7
2017-Jan-20 01:33S 27°27' E 153°06'40151806929.1
2017-Jan-20 01:32N 31°30' E 121°24'131791.0
2017-Jan-20 01:32N 31°40' E 121°13'133471.3
2017-Jan-20 01:32N 31°31' E 121°23'16692.2
2017-Jan-20 01:30N 31°42' E 121°10'8196.4
2017-Jan-20 01:28N 31°38' E 121°18'23464.2
2017-Jan-20 01:25N 31°20' E 121°33'1214.3
2017-Jan-20 00:33N 31°29' E 121°24'102417.5
2017-Jan-20 00:33N 31°38' E 121°18'40251811322.3
2017-Jan-20 00:33S 27°27' E 153°06'4015160616.8
2017-Jan-20 00:31N 31°30' E 121°24'118.0
2017-Jan-20 00:28N 31°29' E 121°23'137.0
2017-Jan-20 00:26N 31°31' E 121°23'11083.1
2017-Jan-20 00:26N 31°29' E 121°23'18559.7
2017-Jan-20 00:24N 31°12' E 121°29'343864.1
2017-Jan-20 00:23N 31°42' E 121°10'1652.9
2017-Jan-20 00:05N 31°30' E 121°23'1731.6
2017-Jan-19 23:33N 31°15' E 121°31'163242.5
2017-Jan-19 23:33N 31°30' E 121°24'4015760809.3
2017-Jan-19 23:32S 27°27' E 153°06'4025439104.4
2017-Jan-19 23:32N 31°38' E 121°18'107061.2
2017-Jan-19 23:32N 31°29' E 121°23'13827.5
2017-Jan-19 23:31N 31°20' E 121°33'307196.4
2017-Jan-19 23:31N 31°42' E 121°10'17695.8
2017-Jan-19 23:29N 31°29' E 121°23'1136.7
2017-Jan-19 23:29N 31°31' E 121°23'233.9
2017-Jan-19 23:26N 31°29' E 121°24'1480.1
2017-Jan-19 23:15N 31°40' E 121°13'40295641.7
2017-Jan-19 22:33S 27°27' E 153°06'4029604368.3
2017-Jan-19 22:32N 31°40' E 121°13'125602.5
2017-Jan-19 22:32N 31°31' E 121°23'2507.1
2017-Jan-19 22:32N 31°30' E 121°24'102391.8
2017-Jan-19 22:32N 31°38' E 121°18'10907.4
2017-Jan-19 22:31N 31°29' E 121°24'181290.4
2017-Jan-19 22:30N 31°42' E 121°10'173820.0
2017-Jan-19 22:30N 31°29' E 121°23'0 4.5
2017-Jan-19 22:28N 31°29' E 121°23'134225.3
2017-Jan-19 22:28N 31°20' E 121°33'13884.2
2017-Jan-19 22:27N 31°30' E 121°24'1718.8
2017-Jan-19 21:33N 31°42' E 121°10'17794.4
2017-Jan-19 21:32N 31°30' E 121°24'144.4
2017-Jan-19 21:31N 31°29' E 121°23'4015198006.4
2017-Jan-19 21:30S 27°27' E 153°06'4025322012.4
2017-Jan-19 21:29N 31°38' E 121°18'93732.3
2017-Jan-19 21:29N 31°30' E 121°24'13302.0
2017-Jan-19 21:26N 31°40' E 121°13'122982.6
2017-Jan-19 21:26N 31°31' E 121°23'14214.2
2017-Jan-19 21:22N 31°20' E 121°33'1341.3
2017-Jan-19 21:04N 31°29' E 121°24'1834.4
2017-Jan-19 20:33N 31°42' E 121°10'176957.0
2017-Jan-19 20:33N 31°30' E 121°24'4015578136.7
2017-Jan-19 20:32S 27°27' E 153°06'4017761049.4
2017-Jan-19 20:32N 31°31' E 121°22'181.0
2017-Jan-19 20:32N 31°31' E 121°23'82350.3
2017-Jan-19 20:32N 31°38' E 121°18'10588.1
2017-Jan-19 20:31N 31°29' E 121°23'115.5
2017-Jan-19 20:27N 31°30' E 121°24'125.2
2017-Jan-19 20:25N 31°29' E 121°24'128.7
2017-Jan-19 20:23N 31°29' E 121°23'14255.7
2017-Jan-19 20:20N 31°40' E 121°13'911.7
2017-Jan-19 19:33N 31°33' E 121°20'41142.8
2017-Jan-19 19:33N 31°30' E 121°24'4015963699.4
2017-Jan-19 19:33S 27°27' E 153°06'40151313917.0
2017-Jan-19 19:32N 31°29' E 121°24'2160.2
2017-Jan-19 19:32N 31°31' E 121°23'1374.7
2017-Jan-19 19:32N 31°29' E 121°23'104348.7
2017-Jan-19 19:31N 31°38' E 121°18'447.6
2017-Jan-19 19:26N 31°40' E 121°13'14713.8
2017-Jan-19 19:25N 31°29' E 121°23'17219.5
2017-Jan-19 19:20N 31°42' E 121°10'1721.8
2017-Jan-19 18:33N 31°29' E 121°23'4015267668.1
2017-Jan-19 18:33S 27°27' E 153°06'40257244322.5
2017-Jan-19 18:33N 31°37' E 121°17'9363.0
2017-Jan-19 18:31N 31°29' E 121°23'129.3
2017-Jan-19 18:29N 31°29' E 121°24'143622.5
2017-Jan-19 18:29N 31°40' E 121°13'133029.1
2017-Jan-19 18:29N 31°30' E 121°24'17382.7
2017-Jan-19 18:26N 31°42' E 121°10'1653.2
2017-Jan-19 18:08N 31°31' E 121°23'14189.8
2017-Jan-19 18:04N 31°20' E 121°33'1326.0
2017-Jan-19 17:34N 31°30' E 121°24'161946.3
2017-Jan-19 17:33N 31°41' E 121°10'2825038.2
2017-Jan-19 17:33N 31°21' E 121°32'132393.4
2017-Jan-19 17:33N 31°31' E 121°23'40161445873.1
2017-Jan-19 17:32S 27°27' E 153°06'4033226829.8
2017-Jan-19 17:31N 31°42' E 121°10'177712.2
2017-Jan-19 17:31N 31°29' E 121°24'1412375.3
2017-Jan-19 17:31N 31°40' E 121°13'1474.7
2017-Jan-19 17:20N 31°30' E 121°24'112.3
2017-Jan-19 17:15N 31°29' E 121°23'1 1.7
2017-Jan-19 16:33N 31°31' E 121°23'106953.1
2017-Jan-19 16:33N 31°24' E 121°31'4007360590.9
2017-Jan-19 16:32S 27°27' E 153°06'4029426623.4
2017-Jan-19 16:32N 31°40' E 121°13'1425349.3
2017-Jan-19 16:32N 31°30' E 121°24'11679.5
2017-Jan-19 16:32N 31°29' E 121°23'158.5
2017-Jan-19 16:31N 31°30' E 121°24'17177.9
2017-Jan-19 16:25N 31°42' E 121°10'184885.7
2017-Jan-19 16:25N 31°29' E 121°25'124.9
2017-Jan-19 16:23N 31°30' E 121°24'2 2.2
2017-Jan-19 15:33N 31°29' E 121°25'40141806155.3
2017-Jan-19 15:33S 27°27' E 153°06'4016344249.6
2017-Jan-19 15:32N 31°30' E 121°23'2154.7
2017-Jan-19 15:31N 31°30' E 121°24'18927.3
2017-Jan-19 15:30N 31°42' E 121°10'173042.2
2017-Jan-19 15:30N 31°30' E 121°24'13384.5
2017-Jan-19 15:28N 31°40' E 121°13'1376.9
2017-Jan-19 15:18N 31°31' E 121°23'1 7.1
2017-Jan-19 15:10N 31°30' E 121°24'1727.3
2017-Jan-19 14:33N 31°42' E 121°10'121468.6
2017-Jan-19 14:33N 31°33' E 121°19'42473.9
2017-Jan-19 14:33N 31°30' E 121°23'4016722928.3
2017-Jan-19 14:33S 27°27' E 153°06'4015321179.1
2017-Jan-19 14:32N 31°30' E 121°24'116.1
2017-Jan-19 14:29N 31°30' E 121°24'034.6
2017-Jan-19 14:29N 31°30' E 121°24'13503.0
2017-Jan-19 14:27N 31°40' E 121°13'13358.3
2017-Jan-19 14:25N 31°31' E 121°23'1 1.0
2017-Jan-19 13:33N 31°30' E 121°24'133092.9
2017-Jan-19 13:33N 31°39' E 121°13'4028402847.7
2017-Jan-19 13:33S 27°27' E 153°06'4029853238.2
2017-Jan-19 13:32N 31°40' E 121°13'13727.3
2017-Jan-19 13:31N 31°30' E 121°23'160.4
2017-Jan-19 13:30N 31°30' E 121°24'1107.6
2017-Jan-19 13:30N 31°30' E 121°24'2 4.2
2017-Jan-19 13:07N 31°31' E 121°23'1 1.5
2017-Jan-19 12:33N 31°30' E 121°24'135367.2
2017-Jan-19 12:33N 31°40' E 121°13'4029296016.6
2017-Jan-19 12:32S 27°27' E 153°06'4015150576.5
2017-Jan-19 12:31N 31°30' E 121°24'137.6
2017-Jan-19 12:30N 31°30' E 121°24'259.5
2017-Jan-19 12:28N 31°30' E 121°23'010.9
2017-Jan-19 12:27N 31°31' E 121°23'2 1.7
2017-Jan-19 11:33N 31°30' E 121°24'162.3
2017-Jan-19 11:33N 31°30' E 121°24'4015903482.0
2017-Jan-19 11:33S 27°27' E 153°06'4029467908.5
2017-Jan-19 11:32N 31°40' E 121°13'13661.5
2017-Jan-19 11:31N 31°30' E 121°24'114.3
2017-Jan-19 11:27N 31°30' E 121°23'16448.6
2017-Jan-19 11:25N 31°42' E 121°10'16131.7
2017-Jan-19 11:17N 31°31' E 121°23'1 1.1
2017-Jan-19 10:33N 31°30' E 121°24'4015301161.0
2017-Jan-19 10:32S 27°27' E 153°06'4015321188.7
2017-Jan-19 10:32N 31°30' E 121°24'0 0.0
2017-Jan-19 10:30N 31°30' E 121°24'178.9
2017-Jan-19 10:29N 31°30' E 121°24'132670.7
2017-Jan-19 10:29N 31°40' E 121°13'4109.0
2017-Jan-19 10:27N 31°42' E 121°10'161151.2
2017-Jan-19 10:26N 31°30' E 121°23'17301.5
2017-Jan-19 10:23N 31°15' E 121°31'1619.5
2017-Jan-19 09:33N 31°30' E 121°24'401514455527.5
2017-Jan-19 09:33S 27°27' E 153°06'40152409293.7
2017-Jan-19 09:33N 31°30' E 121°24'135.7
2017-Jan-19 09:31N 31°30' E 121°23'241.6
2017-Jan-19 09:29N 31°30' E 121°24'14540.4
2017-Jan-19 09:27N 31°40' E 121°13'457.3
2017-Jan-19 09:23N 31°42' E 121°10'33857.1
2017-Jan-19 09:21N 31°15' E 121°31'17495.6
2017-Jan-19 09:19N 31°31' E 121°23'19123.6
2017-Jan-19 09:10N 31°44' E 121°07'40366601.4
2017-Jan-19 08:33S 27°27' E 153°06'4033806512.8
2017-Jan-19 08:33N 31°42' E 121°10'17527.9
2017-Jan-19 08:31N 31°30' E 121°24'13923.5
2017-Jan-19 08:30N 31°40' E 121°13'13621.9
2017-Jan-19 08:28N 31°30' E 121°24'168.6
2017-Jan-19 08:28N 31°31' E 121°23'291.2
2017-Jan-19 08:27N 31°30' E 121°24'0 0.0
2017-Jan-19 08:26N 31°30' E 121°24'216.3
2017-Jan-19 08:20N 31°30' E 121°23'2089.2
2017-Jan-19 08:07N 31°11' E 121°28'32652.0
2017-Jan-19 08:04N 31°40' E 121°12'611.8
2017-Jan-19 07:33N 31°36' E 121°17'4024517356.2
2017-Jan-19 07:33S 27°27' E 153°06'40153613361.8
2017-Jan-19 07:33N 31°30' E 121°24'11139.4
2017-Jan-19 07:28N 31°37' E 121°16'275779.4
2017-Jan-19 07:28N 31°13' E 121°30'191096.9
2017-Jan-19 07:27N 31°30' E 121°23'144.5
2017-Jan-19 07:26N 31°30' E 121°24'13113.5
2017-Jan-19 07:19N 31°40' E 121°13'1215.6
2017-Jan-19 06:33N 31°31' E 121°23'27581.9
2017-Jan-19 06:33N 31°33' E 121°21'4019688993.3
2017-Jan-19 06:33S 27°27' E 153°06'4015602307.3
2017-Jan-19 06:32N 31°30' E 121°24'155.8
2017-Jan-19 06:32N 31°30' E 121°24'172021.8
2017-Jan-19 06:31N 31°42' E 121°10'16675.2
2017-Jan-19 06:30N 31°31' E 121°23'0 3.1
2017-Jan-19 06:25N 31°30' E 121°23'175.7
2017-Jan-19 06:24N 31°30' E 121°24'0 5.2
2017-Jan-19 06:19N 31°30' E 121°24'14960.1
2017-Jan-19 06:18N 31°40' E 121°13'40295368.2
2017-Jan-19 05:33S 27°27' E 153°06'4032468288.0
2017-Jan-19 05:32N 31°42' E 121°10'183002.6
2017-Jan-19 05:32N 31°30' E 121°24'3232.0
2017-Jan-19 05:31N 31°31' E 121°22'1414.7
2017-Jan-19 05:31N 31°30' E 121°23'1377.4
2017-Jan-19 05:31N 31°30' E 121°24'3875.4
2017-Jan-19 05:31N 31°29' E 121°27'3164.2
2017-Jan-19 05:29N 31°30' E 121°24'2164.1
2017-Jan-19 05:29N 31°28' E 121°26'358.7
2017-Jan-19 05:26N 31°31' E 121°23'8 9.5
2017-Jan-19 04:33N 31°25' E 121°31'40084809783.6
2017-Jan-19 04:33S 27°27' E 153°06'40221608940.9
2017-Jan-19 04:33N 31°35' E 121°18'6502.2
2017-Jan-19 04:32N 31°30' E 121°23'3170.0
2017-Jan-19 04:31N 31°28' E 121°26'19631.0
2017-Jan-19 04:29N 31°42' E 121°10'1712165.6
2017-Jan-19 04:29N 31°30' E 121°24'132.5
2017-Jan-19 04:28N 31°30' E 121°24'2104.1
2017-Jan-19 04:27N 31°31' E 121°23'150.3
2017-Jan-19 04:26N 31°30' E 121°24'40154541.5
2017-Jan-19 03:33S 27°27' E 153°06'4015516266.0
2017-Jan-19 03:32N 31°30' E 121°24'123070.3
2017-Jan-19 03:32N 31°23' E 121°35'13590.6
2017-Jan-19 03:31N 31°31' E 121°23'21105.6
2017-Jan-19 03:31N 31°29' E 121°24'1107.9
2017-Jan-19 03:30N 31°30' E 121°24'134037.5
2017-Jan-19 03:30N 31°40' E 121°13'3292.9
2017-Jan-19 03:29N 31°42' E 121°10'152606.6
2017-Jan-19 03:29N 31°31' E 121°22'12316.1
2017-Jan-19 03:27N 31°39' E 121°13'14444.4
2017-Jan-19 03:25N 31°30' E 121°24'5394928.3
2017-Jan-19 03:18N 22°34' E 120°15'538242315.2
2017-Jan-19 03:18N 31°28' E 121°26'1318.0
2017-Jan-19 02:33N 31°22' E 121°39'133020.1
2017-Jan-19 02:33N 31°28' E 121°26'2010291.4
2017-Jan-19 02:33N 31°43' E 121°09'40341037194.2
2017-Jan-19 02:33S 27°27' E 153°06'4016272805.4
2017-Jan-19 02:32N 31°31' E 121°23'13778.0
2017-Jan-19 02:31N 31°40' E 121°13'13160.4
2017-Jan-19 02:26N 31°30' E 121°24'017.5
2017-Jan-19 02:25N 31°30' E 121°24'146.7
2017-Jan-19 02:24N 31°30' E 121°24'53919403.7
2017-Jan-19 02:22N 22°34' E 120°14'5452063.4
2017-Jan-19 02:06N 31°36' E 121°17'129.2
2017-Jan-19 02:04N 31°37' E 121°16'2651.7
2017-Jan-19 01:34N 31°21' E 121°41'4000306370.8
2017-Jan-19 01:33S 27°27' E 153°06'4028557747.8
2017-Jan-19 01:32N 31°39' E 121°13'1214082.8
2017-Jan-19 01:32N 31°31' E 121°23'171092.2
2017-Jan-19 01:31N 31°42' E 121°09'5165.3
2017-Jan-19 01:29N 31°39' E 121°13'134530.8
2017-Jan-19 01:29N 31°30' E 121°24'2378.1
2017-Jan-19 01:29N 31°28' E 121°26'150.4
2017-Jan-19 01:27N 31°30' E 121°24'128.6
2017-Jan-19 01:26N 31°30' E 121°24'13120.7
2017-Jan-19 01:19N 31°40' E 121°13'1418.2
2017-Jan-19 00:33N 31°30' E 121°24'401514453003.8
2017-Jan-19 00:33S 27°27' E 153°06'40167229314.4
2017-Jan-19 00:33N 31°31' E 121°23'13429.6
2017-Jan-19 00:31N 31°40' E 121°13'301455.1
2017-Jan-19 00:30N 31°21' E 121°41'17180.8
2017-Jan-19 00:24N 31°30' E 121°24'181294.3
2017-Jan-19 00:23N 31°42' E 121°09'20452.8
2017-Jan-19 00:21N 31°28' E 121°26'211.1
2017-Jan-19 00:09N 31°30' E 121°24'40156603.6
2017-Jan-18 23:33S 27°27' E 153°06'401575288.5
2017-Jan-18 23:30N 31°30' E 121°24'114.9
2017-Jan-18 23:25N 31°31' E 121°23'131750.0
2017-Jan-18 23:25N 31°23' E 121°35'11292.8
2017-Jan-18 23:23N 31°30' E 121°24'110.2
2017-Jan-18 23:19N 31°30' E 121°24'18342.4
2017-Jan-18 23:16N 31°42' E 121°09'5167.8
2017-Jan-18 23:14N 31°40' E 121°13'40295797.4
2017-Jan-18 22:33S 27°27' E 153°06'4006225345.1
2017-Jan-18 22:32N 31°23' E 121°30'9187.1
2017-Jan-18 22:29N 31°30' E 121°24'035.0
2017-Jan-18 22:28N 31°30' E 121°24'1252.5
2017-Jan-18 22:28N 31°31' E 121°23'3738.9
2017-Jan-18 22:28N 31°28' E 121°26'16140.2
2017-Jan-18 22:21N 31°40' E 121°13'133139.0
2017-Jan-18 22:21N 31°46' E 120°60'271889.3
2017-Jan-18 22:20N 31°30' E 121°24'19371.6
2017-Jan-18 22:17N 31°43' E 121°09'34193.9
2017-Jan-18 22:07N 31°15' E 121°31'2137.4
2017-Jan-18 21:33N 31°33' E 121°19'6885.9
2017-Jan-18 21:33N 31°30' E 121°24'401514453613.2
2017-Jan-18 21:33S 27°27' E 153°06'4013262689.9
2017-Jan-18 21:32N 31°28' E 121°26'248.5
2017-Jan-18 21:29N 31°30' E 121°24'13566.8
2017-Jan-18 21:28N 31°40' E 121°13'13623.7
2017-Jan-18 21:26N 31°30' E 121°24'1865.6
2017-Jan-18 21:10N 31°43' E 121°09'1829.2
2017-Jan-18 20:33N 31°30' E 121°24'101563.5
2017-Jan-18 20:33N 31°37' E 121°16'10205.9
2017-Jan-18 20:30N 31°30' E 121°24'1352.1
2017-Jan-18 20:30N 31°30' E 121°24'401514455761.4
2017-Jan-18 20:30S 27°27' E 153°06'403389633.3
2017-Jan-18 20:27N 31°43' E 121°09'0 4.5
2017-Jan-18 20:24N 31°42' E 121°08'20129.6
2017-Jan-18 20:15N 31°28' E 121°26'1687.5
2017-Jan-18 20:04N 31°40' E 121°13'40297715.4
2017-Jan-18 19:33S 27°27' E 153°06'4028906313.3
2017-Jan-18 19:32N 31°39' E 121°14'126335.3
2017-Jan-18 19:32N 31°30' E 121°24'143655.9
2017-Jan-18 19:32N 31°40' E 121°12'141707.8
2017-Jan-18 19:32N 31°30' E 121°24'13312.6
2017-Jan-18 19:29N 31°40' E 121°13'5315.2
2017-Jan-18 19:28N 31°42' E 121°09'18175.2
2017-Jan-18 19:22N 31°30' E 121°24'2429.0
2017-Jan-18 19:22N 31°28' E 121°26'910.8
2017-Jan-18 18:33N 31°35' E 121°19'4022381054.6
2017-Jan-18 18:33S 27°27' E 153°06'4016535406.0
2017-Jan-18 18:32N 31°30' E 121°24'1108.4
2017-Jan-18 18:32N 31°30' E 121°24'18800.9
2017-Jan-18 18:31N 31°42' E 121°09'171605.7
2017-Jan-18 18:30N 31°31' E 121°23'155.5
2017-Jan-18 18:29N 31°30' E 121°24'239.1
2017-Jan-18 18:26N 31°28' E 121°26'1547.3
2017-Jan-18 18:06N 31°40' E 121°13'1221.9
2017-Jan-18 17:33N 31°31' E 121°22'40172410026.5
2017-Jan-18 17:33S 27°27' E 153°06'403385414.7
2017-Jan-18 17:30N 31°42' E 121°09'197419.3
2017-Jan-18 17:30N 31°30' E 121°24'2102.4
2017-Jan-18 17:29N 31°31' E 121°23'1518.0
2017-Jan-18 17:29N 31°30' E 121°24'0 2.1
2017-Jan-18 17:18N 31°30' E 121°24'13190.0
2017-Jan-18 17:14N 31°40' E 121°13'1594.8
2017-Jan-18 17:04N 31°29' E 121°26'40147636.8
2017-Jan-18 16:33S 27°27' E 153°06'4015233113.9
2017-Jan-18 16:32N 31°30' E 121°24'128.6
2017-Jan-18 16:30N 31°30' E 121°24'123.5
2017-Jan-18 16:27N 31°29' E 121°25'144.1
2017-Jan-18 16:25N 31°30' E 121°24'1 9.8
2017-Jan-18 16:19N 31°31' E 121°23'17308.8
2017-Jan-18 16:15N 31°42' E 121°09'1825.7
2017-Jan-18 15:33N 31°30' E 121°24'4015295009.3
2017-Jan-18 15:33S 27°27' E 153°06'401554343.7
2017-Jan-18 15:28N 31°30' E 121°24'18261.4
2017-Jan-18 15:24N 31°42' E 121°09'193710.5
2017-Jan-18 15:24N 31°30' E 121°24'14143.6
2017-Jan-18 15:18N 31°40' E 121°13'15386.9
2017-Jan-18 15:16N 31°29' E 121°25'228.0
2017-Jan-18 15:11N 31°31' E 121°23'2 2.5
2017-Jan-18 14:33N 31°30' E 121°24'4015802957.4
2017-Jan-18 14:33S 27°27' E 153°06'40154818558.0
2017-Jan-18 14:33N 31°30' E 121°24'182227.0
2017-Jan-18 14:32N 31°42' E 121°09'17421.7
2017-Jan-18 14:30N 31°31' E 121°23'2632.7
2017-Jan-18 14:30N 31°29' E 121°25'1289.4
2017-Jan-18 14:29N 31°30' E 121°24'13699.4
2017-Jan-18 14:28N 31°40' E 121°13'1415.3
2017-Jan-18 13:33N 31°30' E 121°24'118.1
2017-Jan-18 13:31N 31°30' E 121°24'4015262828.7
2017-Jan-18 13:30S 27°27' E 153°06'401434325.8
2017-Jan-18 13:23N 31°29' E 121°25'15243.7
2017-Jan-18 13:19N 31°40' E 121°13'27813.5
2017-Jan-18 13:17N 31°19' E 121°34'14671.7
2017-Jan-18 13:16N 31°31' E 121°23'17279.1
2017-Jan-18 13:12N 31°42' E 121°09'1725.9
2017-Jan-18 12:33N 31°31' E 121°23'40167229371.6
2017-Jan-18 12:33S 27°27' E 153°06'40153613289.0
2017-Jan-18 12:33N 31°30' E 121°24'1 9.3
2017-Jan-18 12:28N 31°30' E 121°24'0 8.4
2017-Jan-18 12:26N 31°30' E 121°24'174.6
2017-Jan-18 12:25N 31°29' E 121°25'12151.7
2017-Jan-18 12:20N 31°19' E 121°34'31522.1
2017-Jan-18 12:16N 31°42' E 121°09'1926.1
2017-Jan-18 11:33N 31°30' E 121°24'4015321177.3
2017-Jan-18 11:33S 27°27' E 153°06'4034764244.8
2017-Jan-18 11:32N 31°42' E 121°09'181618.6
2017-Jan-18 11:32N 31°30' E 121°24'158.2
2017-Jan-18 11:31N 31°31' E 121°23'144.6
2017-Jan-18 11:29N 31°30' E 121°24'117.2
2017-Jan-18 11:25N 31°29' E 121°25'1675.0
2017-Jan-18 11:12N 31°14' E 121°30'39986151.4
2017-Jan-18 10:33S 27°27' E 153°06'4015328489.5
2017-Jan-18 10:32N 31°30' E 121°24'14121.9
2017-Jan-18 10:25N 31°40' E 121°13'13650.3
2017-Jan-18 10:24N 31°30' E 121°24'035.4
2017-Jan-18 10:23N 31°30' E 121°24'138.2
2017-Jan-18 10:22N 31°31' E 121°23'14163.0
2017-Jan-18 10:16N 31°19' E 121°34'3497.4
2017-Jan-18 10:16N 31°21' E 121°30'9470.8
2017-Jan-18 10:15N 31°29' E 121°25'1217.7
2017-Jan-18 09:33N 31°19' E 121°34'4001480178.8
2017-Jan-18 09:33S 27°27' E 153°06'4006320473.8
2017-Jan-18 09:32N 31°24' E 121°32'106934.7
2017-Jan-18 09:32N 31°30' E 121°24'121.9
2017-Jan-18 09:28N 31°29' E 121°25'110.6
2017-Jan-18 09:24N 31°30' E 121°24'125.4
2017-Jan-18 09:22N 31°30' E 121°24'0 0.0
2017-Jan-18 08:33N 31°30' E 121°24'4015516275.9
2017-Jan-18 08:33S 27°27' E 153°06'4003423858.3
2017-Jan-18 08:32N 31°22' E 121°35'121447.5
2017-Jan-18 08:32N 31°30' E 121°24'122.4
2017-Jan-18 08:30N 31°30' E 121°24'136.6
2017-Jan-18 08:28N 31°29' E 121°25'15262.5
2017-Jan-18 08:24N 31°40' E 121°13'40294691.2
2017-Jan-18 07:33S 27°27' E 153°06'4016307575.6
2017-Jan-18 07:32N 31°30' E 121°24'13761.4
2017-Jan-18 07:31N 31°39' E 121°13'144950.9
2017-Jan-18 07:31N 31°30' E 121°24'12546.0
2017-Jan-18 07:29N 31°22' E 121°36'2672.7
2017-Jan-18 07:08N 31°40' E 121°13'2645.3
2017-Jan-18 06:33N 31°22' E 121°35'4003360301.8
2017-Jan-18 06:33S 27°27' E 153°06'4025337004.7
2017-Jan-18 06:32N 31°37' E 121°16'101167.2
2017-Jan-18 06:31N 31°30' E 121°24'91789.4
2017-Jan-18 06:31N 31°37' E 121°17'1049.3
2017-Jan-18 06:20N 31°30' E 121°24'121.3
2017-Jan-18 06:18N 31°30' E 121°24'115.4
2017-Jan-18 06:13N 31°29' E 121°25'4 6.0
2017-Jan-18 05:33N 31°32' E 121°22'3407.7
2017-Jan-18 05:33N 31°30' E 121°24'4015602221.4
2017-Jan-18 05:33S 27°27' E 153°06'4003554313.9
2017-Jan-18 05:32N 31°22' E 121°35'145059.4
2017-Jan-18 05:32N 31°32' E 121°23'240.5
2017-Jan-18 05:29N 31°30' E 121°24'148.2
2017-Jan-18 05:28N 31°29' E 121°25'119.2
2017-Jan-18 05:23N 31°30' E 121°24'40154755.1
2017-Jan-18 04:33S 27°27' E 153°06'40142890194.5
2017-Jan-18 04:33N 31°29' E 121°25'1258.4
2017-Jan-18 04:32N 31°30' E 121°24'41491.3
2017-Jan-18 04:32N 31°28' E 121°28'3189.0
2017-Jan-18 04:31N 31°30' E 121°24'1 9.0
2017-Jan-18 04:26N 31°29' E 121°25'2556.9
2017-Jan-18 04:26N 31°31' E 121°23'664.9
2017-Jan-18 04:20N 31°27' E 121°29'758.1
2017-Jan-18 04:12N 31°22' E 121°36'40036029.7
2017-Jan-18 03:33S 27°27' E 153°06'359061258.2
2017-Jan-18 03:29N 22°34' E 120°13'5411829.6
2017-Jan-18 03:11N 31°32' E 121°20'5201.9
2017-Jan-18 03:10N 31°29' E 121°25'363.9
2017-Jan-18 03:07N 31°31' E 121°22'5 9.0
2017-Jan-18 02:33N 31°35' E 121°18'74126.5
2017-Jan-18 02:33N 31°30' E 121°24'51161.6
2017-Jan-18 02:33N 31°33' E 121°20'402072718.7
2017-Jan-18 02:30S 27°27' E 153°06'40157226539.7
2017-Jan-18 02:30N 31°30' E 121°24'1616.3
2017-Jan-18 01:32N 31°14' E 121°29'2515007.2
2017-Jan-18 01:32N 31°37' E 121°16'103828.3
2017-Jan-18 01:32N 31°30' E 121°24'121117.1
2017-Jan-18 01:31N 31°39' E 121°14'131014.2
2017-Jan-18 01:30N 31°30' E 121°24'401568823.8
2017-Jan-18 01:27S 27°27' E 153°06'401421995.5
2017-Jan-18 01:16N 31°29' E 121°25'1 1.0
2017-Jan-18 00:33N 31°30' E 121°24'152005.9
2017-Jan-18 00:33N 31°40' E 121°12'40301813457.7
2017-Jan-18 00:33S 27°27' E 153°06'35901436028.9
2017-Jan-18 00:32N 22°35' E 120°15'5398181.2
2017-Jan-18 00:29N 31°30' E 121°24'129.2
2017-Jan-18 00:26N 31°29' E 121°25'40144524.5
2017-Jan-17 23:33S 27°27' E 153°06'4014656868.2
2017-Jan-17 23:32N 31°29' E 121°25'120.4
2017-Jan-17 23:28N 31°30' E 121°24'1 3.5
2017-Jan-17 23:19N 31°30' E 121°24'40155227.2
2017-Jan-17 22:33S 27°27' E 153°06'401599010.1
2017-Jan-17 22:30N 31°30' E 121°24'110.7
2017-Jan-17 22:27N 31°30' E 121°24'18116.1
2017-Jan-17 22:17N 31°42' E 121°09'1824.8
2017-Jan-17 21:33N 31°30' E 121°24'4015516193.2
2017-Jan-17 21:33S 27°27' E 153°06'4028185902.4
2017-Jan-17 21:31N 31°39' E 121°14'12108.1
2017-Jan-17 21:24N 31°30' E 121°24'5 6.1
2017-Jan-17 20:33N 31°34' E 121°20'4021295397.3
2017-Jan-17 20:33S 27°27' E 153°06'4015187707.7
2017-Jan-17 20:31N 31°30' E 121°24'12144.6
2017-Jan-17 20:31N 31°30' E 121°24'1 6.3
2017-Jan-17 20:19N 31°29' E 121°25'40145245.6
2017-Jan-17 19:33S 27°27' E 153°06'40131111374.6
2017-Jan-17 19:32N 31°29' E 121°27'233.5
2017-Jan-17 19:29N 31°30' E 121°24'116.9
2017-Jan-17 19:27N 31°30' E 121°24'128.8
2017-Jan-17 19:24N 31°29' E 121°25'251771.5
2017-Jan-17 19:23N 31°19' E 120°58'40184778.9
2017-Jan-17 18:33S 27°27' E 153°06'4015107875.7
2017-Jan-17 18:30N 31°30' E 121°24'153.6
2017-Jan-17 18:30N 31°30' E 121°24'1660.3
2017-Jan-17 18:14N 31°14' E 121°30'1724.9
2017-Jan-17 17:33N 31°30' E 121°24'4015289105.9
2017-Jan-17 17:33S 27°27' E 153°06'401548828.3
2017-Jan-17 17:28N 31°30' E 121°24'1617.4
2017-Jan-17 16:33N 31°14' E 121°29'399963421.8
2017-Jan-17 16:30S 27°27' E 153°06'4015289059.7
2017-Jan-17 16:29N 31°30' E 121°24'1 2.3
2017-Jan-17 16:09N 31°29' E 121°25'1 1.3
2017-Jan-17 15:33N 31°30' E 121°24'4015321177.4
2017-Jan-17 15:33S 27°27' E 153°06'4015174157.6
2017-Jan-17 15:31N 31°30' E 121°24'1 7.3
2017-Jan-17 15:21N 31°29' E 121°25'40145012.5
2017-Jan-17 14:33S 27°27' E 153°06'4014760571.8
2017-Jan-17 14:32N 31°29' E 121°25'121.7
2017-Jan-17 14:30N 31°29' E 121°24'144.7
2017-Jan-17 14:29N 31°30' E 121°24'1 0.6
2017-Jan-17 13:33N 31°30' E 121°24'40151204417.0
2017-Jan-17 13:33S 27°27' E 153°06'401434002.3
2017-Jan-17 13:26N 31°29' E 121°25'1267.3
2017-Jan-17 13:25N 31°30' E 121°24'0 0.0
2017-Jan-17 12:33N 31°30' E 121°24'4015370646.0
2017-Jan-17 12:33S 27°27' E 153°06'401916405.1
2017-Jan-17 12:18N 31°32' E 121°20'560.0
2017-Jan-17 12:13N 31°29' E 121°25'40146033.9
2017-Jan-17 11:33S 27°27' E 153°06'4014110314.3
2017-Jan-17 11:30N 31°29' E 121°25'126.8
2017-Jan-17 11:29N 31°30' E 121°24'1105.2
2017-Jan-17 11:28N 31°30' E 121°24'40154309.7
2017-Jan-17 10:33S 27°27' E 153°06'401573375.0
2017-Jan-17 10:29N 31°30' E 121°24'110.5
2017-Jan-17 10:26N 31°30' E 121°24'128.3
2017-Jan-17 10:25N 31°29' E 121°25'40144628.9
2017-Jan-17 09:33S 27°27' E 153°06'4015178465.4
2017-Jan-17 09:31N 31°30' E 121°24'1 8.4
2017-Jan-17 09:22N 31°29' E 121°25'1 1.0
2017-Jan-17 08:33N 31°30' E 121°24'40153613377.7
2017-Jan-17 08:33S 27°27' E 153°06'401997750.1
2017-Jan-17 08:30N 31°32' E 121°20'5270.5
2017-Jan-17 08:29N 31°29' E 121°25'1131.0
2017-Jan-17 08:28N 31°30' E 121°24'40154310.0
2017-Jan-17 07:33S 27°27' E 153°06'4015283404.6
2017-Jan-17 07:32N 31°30' E 121°24'1 2.1
2017-Jan-17 07:14N 31°30' E 121°24'155.8
2017-Jan-17 07:13N 31°29' E 121°25'17203.5
2017-Jan-17 07:08N 31°41' E 121°11'1628.0
2017-Jan-17 06:34N 31°30' E 121°24'12947.8
2017-Jan-17 06:33N 31°38' E 121°15'40271449615.1
2017-Jan-17 06:33S 27°27' E 153°06'40152065094.5
2017-Jan-17 06:32N 31°30' E 121°24'123.3
2017-Jan-17 06:29N 31°29' E 121°25'5 5.7
2017-Jan-17 05:33N 31°33' E 121°21'40207235455.8
2017-Jan-17 05:33S 27°27' E 153°06'4015283401.1
2017-Jan-17 05:32N 31°30' E 121°24'149.7
2017-Jan-17 05:31N 31°29' E 121°25'1 5.2
2017-Jan-17 05:15N 31°30' E 121°24'449.5
2017-Jan-17 05:10N 31°32' E 121°20'40196416.6
2017-Jan-17 04:33S 27°27' E 153°06'4015963540.4
2017-Jan-17 04:32N 31°30' E 121°24'116.4
2017-Jan-17 04:30N 31°30' E 121°24'449.4
2017-Jan-17 04:25N 31°32' E 121°20'6194.2
2017-Jan-17 04:23N 31°29' E 121°25'0 0.1
2017-Jan-17 03:33N 31°29' E 121°25'401414451119.4
2017-Jan-17 03:33S 27°27' E 153°06'401954601.1
2017-Jan-17 03:28N 31°32' E 121°20'4266.5
2017-Jan-17 03:27N 31°30' E 121°24'195.6
2017-Jan-17 03:27N 31°30' E 121°24'414372538.6
2017-Jan-17 03:27N 38°23' E 121°02'2 2.8
2017-Jan-17 02:33N 38°24' E 120°60'4392272605.9
2017-Jan-17 02:33S 27°27' E 153°06'4015656965.4
2017-Jan-17 02:32N 31°30' E 121°24'118.8
2017-Jan-17 02:30N 31°30' E 121°24'4116.0
2017-Jan-17 02:28N 31°32' E 121°20'686.9
2017-Jan-17 02:24N 31°29' E 121°25'536633.6
2017-Jan-17 01:34N 22°37' E 120°16'53633265.2
2017-Jan-17 01:33N 31°29' E 121°25'40147225479.9
2017-Jan-17 01:33S 27°27' E 153°06'402349257.8
2017-Jan-17 01:28N 31°35' E 121°18'8182.6
2017-Jan-17 01:25N 31°30' E 121°24'1 9.4
2017-Jan-17 01:21N 31°30' E 121°24'40154950.3
2017-Jan-17 00:33S 27°27' E 153°06'401538139.6
2017-Jan-17 00:26N 31°30' E 121°24'53947358.9
2017-Jan-17 00:26N 22°34' E 120°13'5392168.3
2017-Jan-17 00:11N 31°30' E 121°24'123.6
2017-Jan-17 00:09N 31°29' E 121°25'40146149.4
2017-Jan-16 23:30S 27°27' E 153°06'4015963682.5
2017-Jan-16 23:29N 31°30' E 121°24'111.1
2017-Jan-16 23:26N 31°30' E 121°24'112.4
2017-Jan-16 23:22N 31°29' E 121°25'1 1.3
2017-Jan-16 22:33N 31°29' E 121°24'4015277943.1
2017-Jan-16 22:32S 27°27' E 153°06'401489204.8
2017-Jan-16 22:30N 31°29' E 121°25'126.9
2017-Jan-16 22:27N 31°30' E 121°24'118.2
2017-Jan-16 22:25N 31°30' E 121°24'1 0.8
2017-Jan-16 21:33N 31°30' E 121°24'40151606165.6
2017-Jan-16 21:33S 27°27' E 153°06'4014109480.0
2017-Jan-16 21:30N 31°29' E 121°25'10902.1
2017-Jan-16 21:30N 31°24' E 121°35'111080.2
2017-Jan-16 21:29N 31°30' E 121°24'353.3
2017-Jan-16 21:26N 31°31' E 121°21'40184529.9
2017-Jan-16 20:33S 27°27' E 153°06'4019723497.3
2017-Jan-16 20:32N 31°32' E 121°20'15581.9
2017-Jan-16 20:31N 31°24' E 121°35'10303.4
2017-Jan-16 20:29N 31°29' E 121°25'1109.0
2017-Jan-16 20:28N 31°30' E 121°24'120.4
2017-Jan-16 20:26N 31°30' E 121°24'4202108.6
2017-Jan-16 20:15N 38°29' E 120°54'43996281.7
2017-Jan-16 19:33S 27°27' E 153°06'4021425751.8
2017-Jan-16 19:32N 31°34' E 121°19'171305.8
2017-Jan-16 19:31N 31°24' E 121°35'10977.6
2017-Jan-16 19:31N 31°29' E 121°25'175.7
2017-Jan-16 19:30N 31°30' E 121°24'142.9
2017-Jan-16 19:29N 31°30' E 121°24'4197357.3
2017-Jan-16 19:25N 38°28' E 120°55'419478.8
2017-Jan-16 18:33N 31°30' E 121°24'417500816.1
2017-Jan-16 18:33N 38°27' E 120°57'4395879053.9
2017-Jan-16 18:32S 27°27' E 153°06'4005252945.8
2017-Jan-16 18:32N 31°24' E 121°35'1165.6
2017-Jan-16 18:22N 31°30' E 121°24'16146.4
2017-Jan-16 18:15N 31°41' E 121°11'2735.9
2017-Jan-16 17:31N 31°24' E 121°35'223592.5
2017-Jan-16 17:31N 31°38' E 121°15'4027230098.9
2017-Jan-16 17:30S 27°27' E 153°06'399994709.4
2017-Jan-16 17:27N 31°15' E 121°31'16100.7
2017-Jan-16 17:18N 31°30' E 121°24'0 2.4
2017-Jan-16 17:07N 31°29' E 121°25'119.7
2017-Jan-16 17:04N 31°30' E 121°24'1121.9
2017-Jan-16 16:33N 31°24' E 121°35'4005351650.0
2017-Jan-16 16:33S 27°27' E 153°06'401781244.6
2017-Jan-16 16:30N 31°31' E 121°22'398.9
2017-Jan-16 16:28N 31°30' E 121°24'1 7.1
2017-Jan-16 16:23N 31°30' E 121°24'4654730.8
2017-Jan-16 16:17N 24°18' E 118°10'4676345.4
2017-Jan-16 16:13N 31°33' E 121°20'3 4.4
2017-Jan-16 15:33N 31°35' E 121°17'192241.4
2017-Jan-16 15:32N 31°24' E 121°35'11330.4
2017-Jan-16 15:30N 31°30' E 121°24'162.3
2017-Jan-16 15:30N 31°30' E 121°24'4015760692.5
2017-Jan-16 15:29S 27°27' E 153°06'401750209.3
2017-Jan-16 15:25N 31°31' E 121°24'1415.9
2017-Jan-16 14:31N 31°41' E 121°11'2631677.1
2017-Jan-16 14:31N 31°24' E 121°35'4005208951.4
2017-Jan-16 14:29S 27°27' E 153°06'401510729.8
2017-Jan-16 14:07N 31°30' E 121°24'40156975.3
2017-Jan-16 13:32S 27°27' E 153°06'4005248575.2
2017-Jan-16 13:32N 31°24' E 121°35'1138.8
2017-Jan-16 13:14N 31°30' E 121°24'160.9
2017-Jan-16 13:14N 31°30' E 121°24'71006.8
2017-Jan-16 13:13N 31°25' E 121°31'40085860.6
2017-Jan-16 12:32S 27°27' E 153°06'4005192236.4
2017-Jan-16 12:31N 31°24' E 121°35'1055.9
2017-Jan-16 12:20N 31°30' E 121°24'810.1
2017-Jan-16 11:33N 31°25' E 121°32'4007343458.4
2017-Jan-16 11:32S 27°27' E 153°06'4015425089.5
2017-Jan-16 11:32N 31°30' E 121°24'16761.4
2017-Jan-16 11:31N 31°16' E 121°33'16320.5
2017-Jan-16 11:28N 31°30' E 121°24'40154368.5
2017-Jan-16 10:32S 27°27' E 153°06'401575287.7
2017-Jan-16 10:29N 31°30' E 121°24'114.2
2017-Jan-16 10:27N 31°30' E 121°24'218.5
2017-Jan-16 10:21N 31°30' E 121°23'5 6.7
2017-Jan-16 09:33N 31°34' E 121°18'4022353127.0
2017-Jan-16 09:32S 27°27' E 153°06'40151111953.5
2017-Jan-16 09:32N 31°30' E 121°24'128.6
2017-Jan-16 09:31N 31°30' E 121°24'40154110.7
2017-Jan-16 08:32S 27°27' E 153°06'401520161.3
2017-Jan-16 08:20N 31°30' E 121°24'0 0.1
2017-Jan-16 07:33N 31°30' E 121°24'4016277996.5
2017-Jan-16 07:33S 27°27' E 153°06'4015481779.2
2017-Jan-16 07:32N 31°30' E 121°24'58444.8
2017-Jan-16 07:24N 31°58' E 120°25'40684723.0
2017-Jan-16 06:32S 27°27' E 153°06'4015144534.7
2017-Jan-16 06:31N 31°30' E 121°24'58769.3
2017-Jan-16 06:26N 31°58' E 120°25'46138.1
2017-Jan-16 06:06N 31°38' E 121°14'610.8
2017-Jan-16 05:33N 31°35' E 121°19'524657.3
2017-Jan-16 05:33N 31°58' E 120°25'4068861469.1
2017-Jan-16 05:32S 27°27' E 153°06'4015145994.9
2017-Jan-16 05:31N 31°30' E 121°24'1391.2
2017-Jan-16 05:22N 31°39' E 121°13'4091403.3
2017-Jan-16 05:04N 38°28' E 120°56'391756.4
2017-Jan-16 04:33N 31°58' E 120°25'406861276.4
2017-Jan-16 04:29S 27°27' E 153°06'4396134128.6
2017-Jan-16 04:27N 38°28' E 120°57'4197079.5
2017-Jan-16 04:24N 31°30' E 121°24'0 0.1
2017-Jan-16 03:33N 31°30' E 121°24'4015555876.2
2017-Jan-16 03:32S 27°27' E 153°06'40152065059.8
2017-Jan-16 03:32N 31°30' E 121°24'572023.0
2017-Jan-16 03:31N 31°58' E 120°25'3904329.8
2017-Jan-16 03:25N 38°27' E 120°55'4333098.5
2017-Jan-16 03:17N 31°15' E 121°31'5253210.3
2017-Jan-16 03:07N 22°34' E 120°13'9531701.0
2017-Jan-16 02:33N 38°27' E 120°53'41860214.2
2017-Jan-16 02:33N 31°30' E 121°24'4015466230.9
2017-Jan-16 02:32S 27°27' E 153°06'4068108482.1
2017-Jan-16 02:30N 31°58' E 120°25'5633669.7
2017-Jan-16 02:21N 22°35' E 120°13'563711.0
2017-Jan-16 01:33N 31°58' E 120°25'39053960.3
2017-Jan-16 01:33N 38°27' E 120°51'4398395840.1
2017-Jan-16 01:32S 27°27' E 153°06'401558763.2
2017-Jan-16 01:28N 31°30' E 121°24'174.0
2017-Jan-16 01:28N 31°30' E 121°24'15285.1
2017-Jan-16 01:25N 31°23' E 121°40'2064.9
2017-Jan-16 01:06N 31°33' E 121°19'40207236.0
2017-Jan-16 00:32S 27°27' E 153°06'4015133824.3
2017-Jan-16 00:31N 31°30' E 121°24'1517959.3
2017-Jan-16 00:31N 31°23' E 121°40'11372.9
2017-Jan-16 00:29N 31°15' E 121°31'4352262.0
2017-Jan-16 00:17N 38°28' E 120°48'4192791.3
2017-Jan-16 00:08N 31°30' E 121°24'1627.8
2017-Jan-15 23:33N 31°15' E 121°31'3999306293.7
2017-Jan-15 23:32S 27°27' E 153°06'401586030.1
2017-Jan-15 23:30N 31°30' E 121°24'188.8
2017-Jan-15 23:29N 31°30' E 121°24'16575.8
2017-Jan-15 23:28N 31°23' E 121°40'4641120.7
2017-Jan-15 23:03N 24°18' E 118°10'476945.3
2017-Jan-15 22:32N 31°59' E 120°27'406814644444.6
2017-Jan-15 22:32S 27°27' E 153°06'4015155409.5
2017-Jan-15 22:31N 31°29' E 121°24'15882.8
2017-Jan-15 22:30N 31°23' E 121°40'165130.3
2017-Jan-15 22:30N 31°30' E 121°24'921.4
2017-Jan-15 22:05N 31°23' E 121°30'917.1
2017-Jan-15 21:33N 31°23' E 121°40'4002266783.7
2017-Jan-15 21:32S 27°27' E 153°06'399984185.8
2017-Jan-15 21:30N 31°15' E 121°31'16560.8
2017-Jan-15 21:28N 31°29' E 121°24'1 4.2
2017-Jan-15 21:18N 31°30' E 121°24'1621.8
2017-Jan-15 20:33N 31°15' E 121°31'3999293790.7
2017-Jan-15 20:32S 27°27' E 153°06'4015437981.2
2017-Jan-15 20:32N 31°30' E 121°24'15364.3
2017-Jan-15 20:29N 31°23' E 121°40'0 0.0
2017-Jan-15 19:33N 31°23' E 121°40'4002496766.9
2017-Jan-15 19:32S 27°27' E 153°06'399970914.7
2017-Jan-15 19:29N 31°15' E 121°31'1112.2
2017-Jan-15 18:33N 31°23' E 121°40'272565.6
2017-Jan-15 18:33N 31°39' E 121°14'4028557672.9
2017-Jan-15 18:32S 27°27' E 153°06'401656690.1
2017-Jan-15 18:28N 31°30' E 121°24'1 6.2
2017-Jan-15 18:22N 31°30' E 121°24'4372813.5
2017-Jan-15 18:12N 38°46' E 121°27'6 9.9
2017-Jan-15 17:33N 38°47' E 121°35'43357702.8
2017-Jan-15 17:33N 31°34' E 121°20'4021657995.6
2017-Jan-15 17:32S 27°27' E 153°06'40022058059.6
2017-Jan-15 17:32N 31°23' E 121°40'421173.0
2017-Jan-15 17:30N 31°47' E 120°59'40123286.2
2017-Jan-15 17:29N 38°28' E 120°57'418449.7
2017-Jan-15 16:33N 31°30' E 121°25'151157.0
2017-Jan-15 16:33N 31°23' E 121°40'37133977.5
2017-Jan-15 16:33N 31°45' E 121°05'40382076540.5
2017-Jan-15 16:32S 27°27' E 153°06'401536498.2
2017-Jan-15 16:26N 31°30' E 121°24'1820.3
2017-Jan-15 15:33N 31°42' E 121°09'189256.3
2017-Jan-15 15:33N 31°30' E 121°24'4015760688.4
2017-Jan-15 15:32S 27°27' E 153°06'4014352489.2
2017-Jan-15 15:32N 31°29' E 121°24'15282.5
2017-Jan-15 15:29N 31°23' E 121°40'8167.3
2017-Jan-15 15:26N 31°24' E 121°31'963.4
2017-Jan-15 15:18N 31°15' E 121°31'16105.0
2017-Jan-15 15:08N 31°30' E 121°24'813.6
2017-Jan-15 14:33N 31°36' E 121°17'51567.0
2017-Jan-15 14:33N 31°39' E 121°14'131725.4
2017-Jan-15 14:33N 31°30' E 121°24'4015903319.9
2017-Jan-15 14:32S 27°27' E 153°06'4002240106.6
2017-Jan-15 14:31N 31°23' E 121°40'16415.0
2017-Jan-15 14:29N 31°30' E 121°24'4177.8
2017-Jan-15 14:28N 31°28' E 121°27'511.7
2017-Jan-15 14:04N 31°25' E 121°31'1020.6
2017-Jan-15 13:34N 31°31' E 121°22'72668.9
2017-Jan-15 13:33N 31°36' E 121°17'106901.2
2017-Jan-15 13:33N 31°29' E 121°25'1180.2
2017-Jan-15 13:33N 31°30' E 121°24'162970.6
2017-Jan-15 13:33N 31°23' E 121°40'40021800792.6
2017-Jan-15 13:32S 27°27' E 153°06'3999306293.3
2017-Jan-15 13:32N 31°15' E 121°31'16157.2
2017-Jan-15 13:26N 31°30' E 121°24'40154515.2
2017-Jan-15 12:32S 27°27' E 153°06'40202894171.6
2017-Jan-15 12:32N 31°33' E 121°20'186.5
2017-Jan-15 12:32N 31°32' E 121°21'540.5
2017-Jan-15 12:24N 31°36' E 121°17'241712.3
2017-Jan-15 12:23N 31°23' E 121°40'11362.9
2017-Jan-15 12:21N 31°15' E 121°31'0 6.1
2017-Jan-15 12:17N 31°15' E 121°32'39995339.3
2017-Jan-15 11:32S 27°27' E 153°06'4029483492.7
2017-Jan-15 11:32N 31°39' E 121°13'2925836.1
2017-Jan-15 11:32N 31°23' E 121°40'14820.7
2017-Jan-15 11:31N 31°30' E 121°26'15121.5
2017-Jan-15 11:23N 31°15' E 121°31'463.5
2017-Jan-15 11:19N 31°12' E 121°29'1934229.5
2017-Jan-15 11:19N 31°30' E 121°24'1 9.2
2017-Jan-15 11:15N 31°30' E 121°24'5 7.9
2017-Jan-15 10:33N 31°26' E 121°30'4009424531.1
2017-Jan-15 10:32S 27°27' E 153°06'4015253609.8
2017-Jan-15 10:31N 31°30' E 121°24'16458.9
2017-Jan-15 10:29N 31°23' E 121°40'152992.7
2017-Jan-15 10:29N 31°30' E 121°24'16246.0
2017-Jan-15 10:25N 31°15' E 121°31'1113.1
2017-Jan-15 09:33N 31°23' E 121°40'163527.1
2017-Jan-15 09:33N 31°30' E 121°24'4015301160.4
2017-Jan-15 09:32S 27°27' E 153°06'401544334.5
2017-Jan-15 09:27N 31°29' E 121°24'15169.7
2017-Jan-15 09:22N 31°40' E 121°12'2734.0
2017-Jan-15 08:33N 31°20' E 121°33'21698.8
2017-Jan-15 08:32N 31°36' E 121°17'4024110579.4
2017-Jan-15 08:29S 27°27' E 153°06'401619857.1
2017-Jan-15 08:17N 31°30' E 121°24'1 1.1
2017-Jan-15 07:33N 31°30' E 121°23'43860656.7
2017-Jan-15 07:33N 38°48' E 121°44'448403365.8
2017-Jan-15 07:33N 31°20' E 121°33'4002758291.8
2017-Jan-15 07:32S 27°27' E 153°06'403211158.2
2017-Jan-15 07:11N 31°42' E 121°10'550883.4
2017-Jan-15 06:33N 22°34' E 120°16'976702736.4
2017-Jan-15 06:33N 38°48' E 121°34'439868543.4
2017-Jan-15 06:29S 27°27' E 153°06'40142408507.8
2017-Jan-15 06:29N 31°29' E 121°24'12279.9
2017-Jan-15 06:27N 31°20' E 121°33'13115.3
2017-Jan-15 06:20N 31°30' E 121°24'144.6
2017-Jan-15 06:19N 31°30' E 121°24'42112726.3
2017-Jan-15 06:17N 38°30' E 120°55'4133860.1
2017-Jan-15 06:11N 31°37' E 121°17'412656.0
2017-Jan-15 05:33N 38°29' E 120°57'421378815.9
2017-Jan-15 05:33N 31°29' E 121°24'4014498312.9
2017-Jan-15 05:32S 27°27' E 153°06'4002228689.3
2017-Jan-15 05:31N 31°20' E 121°33'181552.7
2017-Jan-15 05:31N 31°34' E 121°20'10165.8
2017-Jan-15 05:27N 31°40' E 121°12'15370.5
2017-Jan-15 05:25N 31°30' E 121°24'40154589.9
2017-Jan-15 04:32S 27°27' E 153°06'401460975.0
2017-Jan-15 04:28N 31°29' E 121°24'9860.5
2017-Jan-15 04:28N 31°36' E 121°18'8125.8
2017-Jan-15 04:24N 31°30' E 121°24'12287.6
2017-Jan-15 04:21N 31°20' E 121°33'1620.0
2017-Jan-15 03:33N 31°32' E 121°22'3186.3
2017-Jan-15 03:32N 31°30' E 121°24'401614455961.5
2017-Jan-15 03:32S 27°27' E 153°06'4007147213.4
2017-Jan-15 03:31N 31°25' E 121°31'7168.5
2017-Jan-15 03:28N 31°29' E 121°24'12463.4
2017-Jan-15 03:27N 31°20' E 121°33'12150.0
2017-Jan-15 03:22N 31°29' E 121°24'1 1.0
2017-Jan-15 02:33N 31°29' E 121°24'121420.1
2017-Jan-15 02:32N 31°20' E 121°33'4584594.9
2017-Jan-15 02:26N 24°18' E 118°10'4701541.9
2017-Jan-15 02:08N 31°41' E 121°10'2947.5
2017-Jan-15 01:32N 31°20' E 121°33'52917482.0
2017-Jan-15 01:30N 22°35' E 120°15'359060684.3
2017-Jan-15 01:26S 27°27' E 153°06'401515313.3
2017-Jan-15 01:11N 31°30' E 121°24'33410.0
2017-Jan-15 01:06N 31°09' E 121°53'520965.3
2017-Jan-15 00:33N 22°36' E 120°15'3591184655.3
2017-Jan-15 00:32S 27°27' E 153°06'4003141277.3
2017-Jan-15 00:31N 31°20' E 121°33'123135.3
2017-Jan-15 00:30N 31°30' E 121°24'271079.4
2017-Jan-15 00:29N 31°13' E 121°48'26290.2
2017-Jan-15 00:24N 31°29' E 121°24'1 4.3
2017-Jan-15 00:10N 31°30' E 121°25'914.8
2017-Jan-14 23:33N 31°24' E 121°33'8961.6
2017-Jan-14 23:33N 31°20' E 121°40'3999327158.7
2017-Jan-14 23:32S 27°27' E 153°06'401561251.9
2017-Jan-14 23:28N 31°30' E 121°24'2132.9
2017-Jan-14 23:27N 31°29' E 121°25'1010.6
2017-Jan-14 22:33N 31°24' E 121°35'4005244356.2
2017-Jan-14 22:32S 27°27' E 153°06'4013158763.3
2017-Jan-14 22:31N 31°28' E 121°25'219.6
2017-Jan-14 22:24N 31°30' E 121°24'119.9
2017-Jan-14 22:22N 31°29' E 121°24'115.6
2017-Jan-14 22:19N 31°29' E 121°24'1774.1
2017-Jan-14 22:05N 31°41' E 121°10'2751.3
2017-Jan-14 21:33N 31°24' E 121°35'400558368.5
2017-Jan-14 21:29S 27°27' E 153°06'4014141676.9
2017-Jan-14 21:28N 31°29' E 121°24'186.6
2017-Jan-14 21:27N 31°28' E 121°25'256.1
2017-Jan-14 21:24N 31°30' E 121°24'161000.5
2017-Jan-14 21:24N 31°41' E 121°10'2732.5
2017-Jan-14 20:33N 31°24' E 121°35'11747.5
2017-Jan-14 20:32N 31°29' E 121°24'40141111643.0
2017-Jan-14 20:32S 27°27' E 153°06'401520049.6
2017-Jan-14 20:20N 31°30' E 121°24'10221.7
2017-Jan-14 20:18N 31°37' E 121°16'10151.1
2017-Jan-14 20:14N 31°30' E 121°24'1623.1
2017-Jan-14 19:33N 31°21' E 121°40'309851.1
2017-Jan-14 19:33N 31°40' E 121°12'4030580258.5
2017-Jan-14 19:32S 27°27' E 153°06'4014222325.3
2017-Jan-14 19:31N 31°29' E 121°24'1740.2
2017-Jan-14 19:31N 31°30' E 121°24'1 5.6
2017-Jan-14 19:24N 31°30' E 121°24'1821.1
2017-Jan-14 18:33N 31°20' E 121°41'  
Track history (hours):
 
Tides and Currents Weather Stations Pressure Air Temp Water Temp Dewpoint Dewpoint Depression Visibility Wind Speed Wind Dir Waves Ship Positions

Callsign 000000 (name unknown)

Last reported at 2017-Jan-24 18:33 UTC. Time now 2017-Jan-24 19:28 UTC.
Position S 27°27' E 153°06'.

Type: Fishing. MMSI: 200007452.

Date/timePositionNaut miles runAvg speedWind from/ knotsBaromVisibWave heightAir tempDewpointWater temp
2017-Jan-24 18:33S 27°27' E 153°06'4015466296.2
2017-Jan-24 18:33N 31°30' E 121°24'11340.5
2017-Jan-24 18:31N 31°24' E 121°34'1067.8
2017-Jan-24 18:22N 31°30' E 121°24'0 6.5
2017-Jan-24 18:19N 31°30' E 121°24'13119.3
2017-Jan-24 18:12N 31°20' E 121°33'1320.0
2017-Jan-24 17:33N 31°30' E 121°24'40151032463.9
2017-Jan-24 17:33S 27°27' E 153°06'4001576213.7
2017-Jan-24 17:33N 31°19' E 121°34'13444.0
2017-Jan-24 17:31N 31°30' E 121°24'131359.5
2017-Jan-24 17:30N 31°20' E 121°33'141694.2
2017-Jan-24 17:30N 31°30' E 121°23'12730.6
2017-Jan-24 17:29N 31°24' E 121°34'10431.5
2017-Jan-24 17:27N 31°30' E 121°24'40154441.9
2017-Jan-24 16:33S 27°27' E 153°06'4005147131.6
2017-Jan-24 16:31N 31°24' E 121°34'916109.4
2017-Jan-24 16:31N 31°28' E 121°25'280.3
2017-Jan-24 16:30N 31°30' E 121°24'0461.6
2017-Jan-24 16:30N 31°30' E 121°24'121.7
2017-Jan-24 16:28N 31°30' E 121°24'1 3.9
2017-Jan-24 16:06N 31°30' E 121°23'40167395.8
2017-Jan-24 15:33S 27°27' E 153°06'4005163852.2
2017-Jan-24 15:32N 31°24' E 121°34'5281.0
2017-Jan-24 15:31N 31°19' E 121°33'131256.6
2017-Jan-24 15:30N 31°30' E 121°24'016.9
2017-Jan-24 15:29N 31°30' E 121°24'026.4
2017-Jan-24 15:28N 31°30' E 121°24'118.0
2017-Jan-24 15:25N 31°30' E 121°23'234.8
2017-Jan-24 15:22N 31°30' E 121°24'40154907.7
2017-Jan-24 14:33S 27°27' E 153°06'4015760789.9
2017-Jan-24 14:33N 31°30' E 121°24'1179.6
2017-Jan-24 14:32N 31°30' E 121°23'14357.9
2017-Jan-24 14:30N 31°19' E 121°33'13276.6
2017-Jan-24 14:27N 31°30' E 121°24'10408.9
2017-Jan-24 14:26N 31°24' E 121°34'311648.0
2017-Jan-24 14:25N 31°44' E 121°07'20252.5
2017-Jan-24 14:20N 31°30' E 121°24'1 9.4
2017-Jan-24 14:15N 31°29' E 121°24'40155726.2
2017-Jan-24 13:33S 27°27' E 153°06'4030468011.9
2017-Jan-24 13:33N 31°40' E 121°12'13694.2
2017-Jan-24 13:31N 31°30' E 121°23'197.8
2017-Jan-24 13:30N 31°30' E 121°24'131788.2
2017-Jan-24 13:30N 31°19' E 121°33'132955.2
2017-Jan-24 13:30N 31°30' E 121°24'11597.2
2017-Jan-24 13:29N 31°24' E 121°34'11251.9
2017-Jan-24 13:26N 31°30' E 121°24'40154537.2
2017-Jan-24 12:33S 27°27' E 153°06'4015390689.2
2017-Jan-24 12:32N 31°30' E 121°24'131.9
2017-Jan-24 12:31N 31°30' E 121°23'916246.9
2017-Jan-24 12:31N 31°38' E 121°17'201872.4
2017-Jan-24 12:30N 31°24' E 121°34'102655.5
2017-Jan-24 12:30N 31°30' E 121°24'020.7
2017-Jan-24 12:29N 31°30' E 121°24'13379.0
2017-Jan-24 12:27N 31°20' E 121°33'40024479.6
2017-Jan-24 11:33S 27°27' E 153°06'4015277935.2
2017-Jan-24 11:32N 31°29' E 121°25'135.0
2017-Jan-24 11:31N 31°30' E 121°24'1185.6
2017-Jan-24 11:31N 31°30' E 121°25'101986.3
2017-Jan-24 11:30N 31°38' E 121°17'10450.3
2017-Jan-24 11:29N 31°30' E 121°24'103433.5
2017-Jan-24 11:29N 31°24' E 121°34'1233.3
2017-Jan-24 11:08N 31°30' E 121°23'40166947.8
2017-Jan-24 10:33S 27°27' E 153°06'4005351679.9
2017-Jan-24 10:32N 31°24' E 121°34'10609.0
2017-Jan-24 10:31N 31°30' E 121°24'011.9
2017-Jan-24 10:30N 31°30' E 121°24'1150.8
2017-Jan-24 10:29N 31°30' E 121°25'017.5
2017-Jan-24 10:28N 31°29' E 121°25'0 0.4
2017-Jan-24 09:33N 31°30' E 121°25'4015535317.6
2017-Jan-24 09:33S 27°27' E 153°06'4026426253.6
2017-Jan-24 09:32N 31°38' E 121°17'201596.8
2017-Jan-24 09:32N 31°24' E 121°35'11283.2
2017-Jan-24 09:29N 31°30' E 121°24'11722.5
2017-Jan-24 09:28N 31°21' E 121°32'1188.2
2017-Jan-24 09:21N 31°30' E 121°24'932.7
2017-Jan-24 09:05N 31°23' E 121°30'40067430.5
2017-Jan-24 08:33S 27°27' E 153°06'400571028.2
2017-Jan-24 08:30N 31°24' E 121°35'53496202.1
2017-Jan-24 08:29N 22°35' E 120°13'535128498.5
2017-Jan-24 08:29N 31°26' E 121°29'6245.5
2017-Jan-24 08:28N 31°30' E 121°25'115.8
2017-Jan-24 08:25N 31°30' E 121°24'10296.9
2017-Jan-24 08:23N 31°38' E 121°17'10839.3
2017-Jan-24 08:22N 31°30' E 121°24'40154868.5
2017-Jan-24 07:33S 27°27' E 153°06'40151806593.0
2017-Jan-24 07:33N 31°29' E 121°25'2279.0
2017-Jan-24 07:32N 31°31' E 121°22'9614.8
2017-Jan-24 07:32N 31°38' E 121°17'101055.1
2017-Jan-24 07:31N 31°30' E 121°24'0 6.9
2017-Jan-24 07:28N 31°30' E 121°24'11214.1
2017-Jan-24 07:25N 31°24' E 121°35'1053.1
2017-Jan-24 07:14N 31°30' E 121°25'1115.7
2017-Jan-24 06:34N 31°38' E 121°17'4026467505.7
2017-Jan-24 06:33S 27°27' E 153°06'4015283433.9
2017-Jan-24 06:32N 31°30' E 121°24'1220.0
2017-Jan-24 06:32N 31°31' E 121°22'123684.6
2017-Jan-24 06:32N 31°24' E 121°35'11326.8
2017-Jan-24 06:30N 31°30' E 121°24'110.2
2017-Jan-24 06:27N 31°29' E 121°25'2 5.0
2017-Jan-24 06:06N 31°30' E 121°23'1119.6
2017-Jan-24 05:33N 31°24' E 121°33'40061442034.6
2017-Jan-24 05:33S 27°27' E 153°06'40157226927.2
2017-Jan-24 05:33N 31°30' E 121°24'11868.7
2017-Jan-24 05:32N 31°38' E 121°17'11898.0
2017-Jan-24 05:31N 31°29' E 121°24'0 8.2
2017-Jan-24 05:29N 31°30' E 121°24'145.1
2017-Jan-24 05:28N 31°30' E 121°24'0 9.5
2017-Jan-24 05:26N 31°30' E 121°24'40154534.1
2017-Jan-24 04:33S 27°27' E 153°06'4002464715.7
2017-Jan-24 04:32N 31°20' E 121°33'141159.2
2017-Jan-24 04:32N 31°30' E 121°23'2504.5
2017-Jan-24 04:32N 31°30' E 121°24'1445.0
2017-Jan-24 04:31N 31°30' E 121°24'52855.4
2017-Jan-24 04:31N 31°27' E 121°28'560.9
2017-Jan-24 04:27N 31°30' E 121°24'8204.5
2017-Jan-24 04:24N 31°24' E 121°31'861.6
2017-Jan-24 04:17N 31°30' E 121°24'1 1.0
2017-Jan-24 03:33N 31°30' E 121°24'1667.2
2017-Jan-24 03:33N 31°29' E 121°25'40141806519.4
2017-Jan-24 03:33S 27°27' E 153°06'4026414101.3
2017-Jan-24 03:32N 31°38' E 121°17'101037.1
2017-Jan-24 03:32N 31°30' E 121°24'1113.7
2017-Jan-24 03:31N 31°30' E 121°23'2213.8
2017-Jan-24 03:31N 31°30' E 121°24'13586.9
2017-Jan-24 03:29N 31°19' E 121°33'1414.6
2017-Jan-24 02:33N 31°30' E 121°23'4016516302.3
2017-Jan-24 02:33S 27°27' E 153°06'40301036273.3
2017-Jan-24 02:33N 31°40' E 121°12'286201.7
2017-Jan-24 02:32N 31°19' E 121°33'13966.3
2017-Jan-24 02:32N 31°30' E 121°24'014.6
2017-Jan-24 02:30N 31°30' E 121°24'1332.2
2017-Jan-24 02:30N 31°30' E 121°23'9343.0
2017-Jan-24 02:28N 31°38' E 121°17'10120.9
2017-Jan-24 02:23N 31°30' E 121°24'40154788.2
2017-Jan-24 01:33S 27°27' E 153°06'40151111912.4
2017-Jan-24 01:33N 31°30' E 121°24'117.9
2017-Jan-24 01:31N 31°30' E 121°23'10251.6
2017-Jan-24 01:28N 31°38' E 121°17'9479.7
2017-Jan-24 01:27N 31°30' E 121°23'141066.8
2017-Jan-24 01:26N 31°19' E 121°33'13704.7
2017-Jan-24 01:25N 31°30' E 121°24'149.4
2017-Jan-24 01:25N 31°30' E 121°24'911.1
2017-Jan-24 00:33N 31°37' E 121°18'4025603719.4
2017-Jan-24 00:33S 27°27' E 153°06'4015628470.8
2017-Jan-24 00:33N 31°30' E 121°23'017.7
2017-Jan-24 00:31N 31°30' E 121°24'033.9
2017-Jan-24 00:31N 31°30' E 121°23'120.1
2017-Jan-24 00:29N 31°30' E 121°24'13319.4
2017-Jan-24 00:26N 31°19' E 121°33'13284.1
2017-Jan-24 00:24N 31°30' E 121°24'216.5
2017-Jan-24 00:18N 31°30' E 121°23'40165343.2
2017-Jan-23 23:33S 27°27' E 153°06'40192893727.7
2017-Jan-23 23:33N 31°32' E 121°20'453.2
2017-Jan-23 23:28N 31°29' E 121°24'13414.9
2017-Jan-23 23:26N 31°20' E 121°33'22706.9
2017-Jan-23 23:24N 31°37' E 121°18'9350.2
2017-Jan-23 23:23N 31°30' E 121°24'0 3.6
2017-Jan-23 23:18N 31°30' E 121°24'144.2
2017-Jan-23 23:18N 31°30' E 121°24'0 5.2
2017-Jan-23 23:14N 31°29' E 121°24'1 1.0
2017-Jan-23 22:33N 31°30' E 121°24'103697.7
2017-Jan-23 22:33N 31°37' E 121°15'114861.9
2017-Jan-23 22:33N 31°30' E 121°25'40152064824.7
2017-Jan-23 22:33S 27°27' E 153°06'4015219008.5
2017-Jan-23 22:32N 31°30' E 121°24'91068.8
2017-Jan-23 22:31N 31°37' E 121°18'9135.1
2017-Jan-23 22:27N 31°29' E 121°24'167.0
2017-Jan-23 22:26N 31°29' E 121°25'40154512.2
2017-Jan-23 21:33S 27°27' E 153°06'4015328489.5
2017-Jan-23 21:32N 31°30' E 121°25'196.6
2017-Jan-23 21:32N 31°30' E 121°24'143.4
2017-Jan-23 21:31N 31°29' E 121°25'122987.0
2017-Jan-23 21:30N 31°38' E 121°14'1210835.9
2017-Jan-23 21:30N 31°29' E 121°24'93094.3
2017-Jan-23 21:30N 31°37' E 121°18'9404.3
2017-Jan-23 21:29N 31°30' E 121°24'112.0
2017-Jan-23 21:23N 31°30' E 121°23'1 1.5
2017-Jan-23 20:33N 31°30' E 121°24'40151806785.4
2017-Jan-23 20:33S 27°27' E 153°06'4027966511.5
2017-Jan-23 20:33N 31°38' E 121°14'122803.5
2017-Jan-23 20:32N 31°30' E 121°24'132.7
2017-Jan-23 20:31N 31°30' E 121°25'020.1
2017-Jan-23 20:30N 31°29' E 121°25'10872.9
2017-Jan-23 20:30N 31°37' E 121°18'9382.4
2017-Jan-23 20:28N 31°29' E 121°24'910.4
2017-Jan-23 19:33N 31°37' E 121°18'4025467373.9
2017-Jan-23 19:33S 27°27' E 153°06'40151445507.9
2017-Jan-23 19:33N 31°30' E 121°24'1323.9
2017-Jan-23 19:33N 31°29' E 121°24'124816.0
2017-Jan-23 19:32N 31°38' E 121°14'12199.2
2017-Jan-23 19:29N 31°30' E 121°24'011.1
2017-Jan-23 19:27N 31°30' E 121°25'0233.3
2017-Jan-23 19:27N 31°29' E 121°25'40154471.7
2017-Jan-23 18:33S 27°27' E 153°06'4027188282.3
2017-Jan-23 18:32N 31°38' E 121°14'3437.9
2017-Jan-23 18:31N 31°37' E 121°18'91042.4
2017-Jan-23 18:31N 31°30' E 121°24'1 3.7
2017-Jan-23 18:19N 31°29' E 121°24'155.0
2017-Jan-23 18:18N 31°30' E 121°25'0583.2
2017-Jan-23 18:18N 31°29' E 121°25'0 7.3
2017-Jan-23 18:14N 31°30' E 121°24'1 9.5
2017-Jan-23 18:06N 31°30' E 121°23'40167250.9
2017-Jan-23 17:33S 27°27' E 153°06'401597658.2
2017-Jan-23 17:30N 31°29' E 121°24'168.2
2017-Jan-23 17:30N 31°30' E 121°24'186.2
2017-Jan-23 17:29N 31°29' E 121°25'010.0
2017-Jan-23 17:26N 31°30' E 121°24'933185.5
2017-Jan-23 17:26N 31°37' E 121°18'9555.1
2017-Jan-23 17:25N 31°30' E 121°24'40154604.6
2017-Jan-23 16:33S 27°27' E 153°06'4015170043.2
2017-Jan-23 16:32N 31°30' E 121°24'9281.3
2017-Jan-23 16:30N 31°37' E 121°18'92029.4
2017-Jan-23 16:29N 31°30' E 121°24'010.5
2017-Jan-23 16:28N 31°30' E 121°24'114.8
2017-Jan-23 16:25N 31°29' E 121°24'40154656.4
2017-Jan-23 15:33S 27°27' E 153°06'4015657065.5
2017-Jan-23 15:32N 31°30' E 121°24'12733.6
2017-Jan-23 15:32N 31°38' E 121°14'1214458.6
2017-Jan-23 15:31N 31°29' E 121°24'1113.9
2017-Jan-23 15:31N 31°30' E 121°24'0220.3
2017-Jan-23 15:31N 31°29' E 121°24'1034916.4
2017-Jan-23 15:31N 31°37' E 121°18'8555.4
2017-Jan-23 15:30N 31°30' E 121°23'1308.5
2017-Jan-23 15:30N 31°30' E 121°24'0 0.3
2017-Jan-23 14:33N 31°30' E 121°24'4015657068.1
2017-Jan-23 14:33S 27°27' E 153°06'4025295698.5
2017-Jan-23 14:32N 31°37' E 121°18'8294.5
2017-Jan-23 14:30N 31°30' E 121°23'1202.9
2017-Jan-23 14:30N 31°29' E 121°24'141.3
2017-Jan-23 14:29N 31°30' E 121°24'024.0
2017-Jan-23 14:28N 31°30' E 121°24'121637.0
2017-Jan-23 14:27N 31°38' E 121°14'251259.5
2017-Jan-23 14:26N 31°20' E 121°33'40024526.1
2017-Jan-23 13:33S 27°27' E 153°06'4015109501.5
2017-Jan-23 13:31N 31°30' E 121°24'21111.6
2017-Jan-23 13:31N 31°30' E 121°23'198.2
2017-Jan-23 13:30N 31°30' E 121°24'96630.0
2017-Jan-23 13:30N 31°37' E 121°18'3111.7
2017-Jan-23 13:28N 31°38' E 121°14'12352.8
2017-Jan-23 13:26N 31°29' E 121°24'120.6
2017-Jan-23 13:24N 31°30' E 121°24'1 0.7
2017-Jan-23 12:33N 31°30' E 121°24'4015850235.3
2017-Jan-23 12:33S 27°27' E 153°06'4027483259.6
2017-Jan-23 12:32N 31°38' E 121°14'125971.5
2017-Jan-23 12:32N 31°30' E 121°24'9308.6
2017-Jan-23 12:31N 31°37' E 121°18'84191.8
2017-Jan-23 12:30N 31°30' E 121°23'130.3
2017-Jan-23 12:28N 31°29' E 121°24'112.2
2017-Jan-23 12:24N 31°30' E 121°24'1 3.4
2017-Jan-23 12:15N 31°29' E 121°24'12380.3
2017-Jan-23 12:13N 31°38' E 121°14'2 3.1
2017-Jan-23 11:33N 31°40' E 121°13'40292900897.7
2017-Jan-23 11:33S 27°27' E 153°06'40311813839.4
2017-Jan-23 11:33N 31°41' E 121°11'161937.3
2017-Jan-23 11:32N 31°29' E 121°24'113.4
2017-Jan-23 11:29N 31°30' E 121°24'92155.5
2017-Jan-23 11:29N 31°37' E 121°18'9471.0
2017-Jan-23 11:28N 31°30' E 121°24'0 4.2
2017-Jan-23 11:23N 31°30' E 121°24'1416.4
2017-Jan-23 10:33N 31°40' E 121°13'4029453266.3
2017-Jan-23 10:33S 27°27' E 153°06'4015336109.3
2017-Jan-23 10:32N 31°29' E 121°25'10195.0
2017-Jan-23 10:29N 31°37' E 121°18'91141.3
2017-Jan-23 10:29N 31°30' E 121°24'117.8
2017-Jan-23 10:26N 31°29' E 121°24'166.3
2017-Jan-23 10:25N 31°30' E 121°24'1 7.9
2017-Jan-23 10:20N 31°30' E 121°25'1 0.9
2017-Jan-23 09:33N 31°30' E 121°24'4015425154.3
2017-Jan-23 09:33S 27°27' E 153°06'4029725214.5
2017-Jan-23 09:33N 31°40' E 121°13'142467.5
2017-Jan-23 09:32N 31°29' E 121°24'194.2
2017-Jan-23 09:32N 31°29' E 121°25'104985.6
2017-Jan-23 09:32N 31°37' E 121°18'9140.9
2017-Jan-23 09:28N 31°30' E 121°25'012.8
2017-Jan-23 09:26N 31°30' E 121°24'1 0.9
2017-Jan-23 08:34N 31°29' E 121°24'4015390625.1
2017-Jan-23 08:33S 27°27' E 153°06'4029725199.9
2017-Jan-23 08:33N 31°40' E 121°13'5145.1
2017-Jan-23 08:31N 31°37' E 121°18'9640.7
2017-Jan-23 08:30N 31°30' E 121°25'6122.0
2017-Jan-23 08:27N 31°25' E 121°29'7129.3
2017-Jan-23 08:24N 31°30' E 121°23'11486.0
2017-Jan-23 08:23N 31°30' E 121°24'128.4
2017-Jan-23 08:22N 31°30' E 121°23'1 1.1
2017-Jan-23 07:33N 31°30' E 121°24'1442.2
2017-Jan-23 07:33N 31°29' E 121°24'40151605922.9
2017-Jan-23 07:33S 27°27' E 153°06'4016370733.3
2017-Jan-23 07:32N 31°30' E 121°22'8692.1
2017-Jan-23 07:32N 31°37' E 121°18'10119.6
2017-Jan-23 07:27N 31°29' E 121°25'0 7.1
2017-Jan-23 07:24N 31°30' E 121°24'145518.0
2017-Jan-23 07:24N 31°40' E 121°13'40294752.3
2017-Jan-23 06:33S 27°27' E 153°06'4029353757.9
2017-Jan-23 06:32N 31°40' E 121°13'262714.3
2017-Jan-23 06:32N 31°20' E 121°33'134711.9
2017-Jan-23 06:31N 31°30' E 121°24'4243.6
2017-Jan-23 06:31N 31°28' E 121°27'3432.9
2017-Jan-23 06:30N 31°30' E 121°24'9335.3
2017-Jan-23 06:28N 31°37' E 121°18'8147.3
2017-Jan-23 06:25N 31°30' E 121°23'2 9.9
2017-Jan-23 06:15N 31°29' E 121°25'140.2
2017-Jan-23 06:14N 31°29' E 121°23'1420.1
2017-Jan-23 05:33N 31°40' E 121°13'51840.9
2017-Jan-23 05:33N 31°37' E 121°18'4025536612.6
2017-Jan-23 05:33S 27°27' E 153°06'4007277416.3
2017-Jan-23 05:32N 31°25' E 121°31'8238.2
2017-Jan-23 05:30N 31°30' E 121°24'1267.6
2017-Jan-23 05:30N 31°30' E 121°23'2115.1
2017-Jan-23 05:29N 31°29' E 121°25'122614.0
2017-Jan-23 05:29N 31°20' E 121°33'13146.8
2017-Jan-23 05:23N 31°29' E 121°23'1 0.8
2017-Jan-23 04:33N 31°30' E 121°24'4015481839.6
2017-Jan-23 04:33S 27°27' E 153°06'40161204844.7
2017-Jan-23 04:33N 31°30' E 121°23'1120.4
2017-Jan-23 04:32N 31°29' E 121°23'14940.7
2017-Jan-23 04:31N 31°40' E 121°13'5106.9
2017-Jan-23 04:29N 31°37' E 121°18'10171.3
2017-Jan-23 04:25N 31°29' E 121°25'029.3
2017-Jan-23 04:25N 31°30' E 121°24'13398.8
2017-Jan-23 04:23N 31°20' E 121°33'2632.2
2017-Jan-23 03:33N 31°40' E 121°13'4029391996.6
2017-Jan-23 03:33S 27°27' E 153°06'4015760717.8
2017-Jan-23 03:32N 31°30' E 121°24'12048.4
2017-Jan-23 03:32N 31°30' E 121°24'130.8
2017-Jan-23 03:31N 31°29' E 121°23'1452.3
2017-Jan-23 03:31N 31°30' E 121°23'245.5
2017-Jan-23 03:29N 31°29' E 121°24'10130.4
2017-Jan-23 03:24N 31°37' E 121°18'171209.2
2017-Jan-23 03:24N 31°25' E 121°32'547.2
2017-Jan-23 03:17N 31°20' E 121°33'1419.4
2017-Jan-23 02:34N 31°30' E 121°23'1450097.9
2017-Jan-23 02:34N 31°20' E 121°33'224192.7
2017-Jan-23 02:33N 31°37' E 121°18'4025762579.8
2017-Jan-23 02:33S 27°27' E 153°06'40161445855.5
2017-Jan-23 02:33N 31°30' E 121°23'151.9
2017-Jan-23 02:31N 31°29' E 121°23'116.4
2017-Jan-23 02:29N 31°30' E 121°24'181.9
2017-Jan-23 02:28N 31°30' E 121°23'122342.9
2017-Jan-23 02:28N 31°40' E 121°13'9323.8
2017-Jan-23 02:26N 31°45' E 121°05'31274.0
2017-Jan-23 02:19N 31°25' E 121°32'311198.6
2017-Jan-23 02:18N 31°20' E 120°57'2331.6
2017-Jan-23 01:33N 31°33' E 121°19'54400.1
2017-Jan-23 01:33N 31°30' E 121°24'254716.8
2017-Jan-23 01:33N 31°20' E 120°57'40192067020.7
2017-Jan-23 01:33S 27°27' E 153°06'4029185952.8
2017-Jan-23 01:32N 31°40' E 121°13'58226.6
2017-Jan-23 01:32N 31°37' E 121°18'9491.7
2017-Jan-23 01:30N 31°29' E 121°23'15325.0
2017-Jan-23 01:28N 31°41' E 121°12'282732.8
2017-Jan-23 01:27N 31°20' E 121°33'586.6
2017-Jan-23 01:23N 31°24' E 121°31'9833.4
2017-Jan-23 01:23N 31°30' E 121°23'1032.6
2017-Jan-23 01:05N 31°23' E 121°30'2854.1
2017-Jan-23 00:33N 31°20' E 120°57'2623259.5
2017-Jan-23 00:33N 31°44' E 121°07'113761.7
2017-Jan-23 00:33N 31°36' E 121°17'93668.5
2017-Jan-23 00:33N 31°29' E 121°23'93116.6
2017-Jan-23 00:33N 31°36' E 121°17'2177274.2
2017-Jan-23 00:33N 31°20' E 121°33'400214406492.1
2017-Jan-23 00:33S 27°27' E 153°06'4009437330.0
2017-Jan-23 00:32N 31°25' E 121°29'711723.7
2017-Jan-23 00:32N 31°30' E 121°24'81727.3
2017-Jan-23 00:32N 31°24' E 121°31'21836.1
2017-Jan-23 00:30N 31°40' E 121°13'1222173.5
2017-Jan-23 00:30N 31°30' E 121°23'2 9.5
2017-Jan-23 00:20N 31°29' E 121°24'264.0
2017-Jan-23 00:18N 31°30' E 121°23'2 2.3
2017-Jan-22 23:33N 31°29' E 121°24'192.1
2017-Jan-22 23:33N 31°30' E 121°24'40151445413.9
2017-Jan-22 23:33S 27°27' E 153°06'40291450272.1
2017-Jan-22 23:33N 31°39' E 121°13'47936.2
2017-Jan-22 23:33N 31°37' E 121°18'85435.3
2017-Jan-22 23:33N 31°31' E 121°23'258241.4
2017-Jan-22 23:32N 31°20' E 120°57'24596.7
2017-Jan-22 23:30N 31°40' E 121°12'1283.7
2017-Jan-22 23:30N 31°40' E 121°13'21368.1
2017-Jan-22 23:26N 31°24' E 121°31'7310.7
2017-Jan-22 23:25N 31°29' E 121°24'224.2
2017-Jan-22 23:21N 31°30' E 121°23'141362.2
2017-Jan-22 23:20N 31°20' E 121°33'13667.4
2017-Jan-22 23:19N 31°30' E 121°24'6 8.4
2017-Jan-22 22:33N 31°35' E 121°19'91803.4
2017-Jan-22 22:33N 31°28' E 121°25'12162.2
2017-Jan-22 22:33N 31°29' E 121°27'56468.0
2017-Jan-22 22:33N 31°24' E 121°31'40071109698.2
2017-Jan-22 22:33S 27°27' E 153°06'40161606475.3
2017-Jan-22 22:33N 31°30' E 121°23'142482.5
2017-Jan-22 22:32N 31°20' E 121°33'2215784.2
2017-Jan-22 22:32N 31°37' E 121°18'254742.1
2017-Jan-22 22:32N 31°20' E 120°57'25905.3
2017-Jan-22 22:30N 31°30' E 121°24'143065.0
2017-Jan-22 22:30N 31°40' E 121°13'131198.7
2017-Jan-22 22:29N 31°30' E 121°24'1 6.9
2017-Jan-22 22:21N 31°30' E 121°23'2 9.6
2017-Jan-22 22:11N 31°29' E 121°25'812.6
2017-Jan-22 21:33N 31°24' E 121°31'40073605932.3
2017-Jan-22 21:33S 27°27' E 153°06'4002423737.5
2017-Jan-22 21:32N 31°20' E 121°33'131001.5
2017-Jan-22 21:31N 31°30' E 121°24'8574.9
2017-Jan-22 21:31N 31°24' E 121°31'173402.0
2017-Jan-22 21:30N 31°37' E 121°18'101027.5
2017-Jan-22 21:30N 31°29' E 121°25'22885.0
2017-Jan-22 21:30N 31°30' E 121°23'1147.5
2017-Jan-22 21:29N 31°30' E 121°24'169869.1
2017-Jan-22 21:29N 31°41' E 121°10'16322.6
2017-Jan-22 21:26N 31°30' E 121°24'25210.6
2017-Jan-22 21:19N 31°20' E 120°57'242377.2
2017-Jan-22 21:18N 31°30' E 121°23'3303.6
2017-Jan-22 21:18N 31°28' E 121°25'2634.4
2017-Jan-22 20:33N 31°20' E 120°57'4019602881.0
2017-Jan-22 20:33S 27°27' E 153°06'4015438035.4
2017-Jan-22 20:32N 31°30' E 121°24'2678.5
2017-Jan-22 20:32N 31°28' E 121°25'2270.6
2017-Jan-22 20:32N 31°30' E 121°24'0 9.5
2017-Jan-22 20:29N 31°29' E 121°25'12313.0
2017-Jan-22 20:26N 31°20' E 121°33'221838.2
2017-Jan-22 20:26N 31°37' E 121°18'9439.0
2017-Jan-22 20:24N 31°30' E 121°24'120.2
2017-Jan-22 20:21N 31°30' E 121°23'450.2
2017-Jan-22 20:16N 31°28' E 121°27'2737.4
2017-Jan-22 19:33N 31°20' E 120°57'4019723462.5
2017-Jan-22 19:33S 27°27' E 153°06'4002389379.2
2017-Jan-22 19:32N 31°20' E 121°33'148481.6
2017-Jan-22 19:32N 31°30' E 121°22'31469.9
2017-Jan-22 19:32N 31°28' E 121°25'2207.8
2017-Jan-22 19:31N 31°30' E 121°24'165.9
2017-Jan-22 19:31N 31°29' E 121°25'101247.0
2017-Jan-22 19:30N 31°37' E 121°18'911131.7
2017-Jan-22 19:30N 31°30' E 121°24'0 3.6
2017-Jan-22 19:24N 31°30' E 121°24'124.0
2017-Jan-22 19:21N 31°30' E 121°23'0 2.3
2017-Jan-22 19:17N 31°30' E 121°23'6 8.6
2017-Jan-22 18:33N 31°35' E 121°18'4022425897.9
2017-Jan-22 18:33S 27°27' E 153°06'4013147423.0
2017-Jan-22 18:31N 31°28' E 121°25'26239.8
2017-Jan-22 18:25N 31°20' E 120°57'25776.8
2017-Jan-22 18:23N 31°30' E 121°23'163.3
2017-Jan-22 18:22N 31°30' E 121°24'9159.0
2017-Jan-22 18:18N 31°37' E 121°18'9293.8
2017-Jan-22 18:16N 31°30' E 121°24'129.2
2017-Jan-22 18:15N 31°29' E 121°25'0 5.9
2017-Jan-22 18:10N 31°30' E 121°24'1373.6
2017-Jan-22 18:10N 31°30' E 121°23'2 2.8
2017-Jan-22 17:33N 31°29' E 121°25'4015451640.5
2017-Jan-22 17:33S 27°27' E 153°06'40254829554.2
2017-Jan-22 17:33N 31°37' E 121°18'81339.3
2017-Jan-22 17:32N 31°30' E 121°23'114065.9
2017-Jan-22 17:32N 31°39' E 121°14'13225.0
2017-Jan-22 17:29N 31°30' E 121°24'133511.5
2017-Jan-22 17:29N 31°20' E 121°33'13816.6
2017-Jan-22 17:28N 31°30' E 121°24'251052.8
2017-Jan-22 17:26N 31°20' E 120°57'25735.5
2017-Jan-22 17:24N 31°30' E 121°24'298.2
2017-Jan-22 17:23N 31°28' E 121°25'365.9
2017-Jan-22 17:20N 31°30' E 121°23'810.4
2017-Jan-22 16:33N 31°37' E 121°18'40251034914.0
2017-Jan-22 16:33S 27°27' E 153°06'4014209430.9
2017-Jan-22 16:32N 31°29' E 121°25'182420.0
2017-Jan-22 16:31N 31°42' E 121°10'161927.2
2017-Jan-22 16:31N 31°30' E 121°23'1196.2
2017-Jan-22 16:30N 31°30' E 121°24'120.4
2017-Jan-22 16:29N 31°30' E 121°24'1322824.5
2017-Jan-22 16:29N 31°20' E 121°33'13291.1
2017-Jan-22 16:26N 31°30' E 121°24'1 9.6
2017-Jan-22 16:18N 31°30' E 121°23'40165292.1
2017-Jan-22 15:33S 27°27' E 153°06'4025724436.7
2017-Jan-22 15:32N 31°37' E 121°18'9725.6
2017-Jan-22 15:32N 31°30' E 121°24'1345758.0
2017-Jan-22 15:32N 31°20' E 121°33'134676.7
2017-Jan-22 15:31N 31°30' E 121°24'017.4
2017-Jan-22 15:30N 31°30' E 121°24'193.3
2017-Jan-22 15:30N 31°30' E 121°23'2179.2
2017-Jan-22 15:29N 31°29' E 121°25'26278.8
2017-Jan-22 15:24N 31°20' E 120°57'25843.9
2017-Jan-22 15:22N 31°29' E 121°24'1 0.6
2017-Jan-22 14:33N 31°30' E 121°24'11223.8
2017-Jan-22 14:33N 31°30' E 121°23'4016850492.9
2017-Jan-22 14:33S 27°27' E 153°06'4015314246.3
2017-Jan-22 14:32N 31°30' E 121°24'131953.4
2017-Jan-22 14:32N 31°20' E 121°33'121198.9
2017-Jan-22 14:31N 31°29' E 121°24'172227.2
2017-Jan-22 14:31N 31°41' E 121°10'7368.9
2017-Jan-22 14:29N 31°37' E 121°18'91962.5
2017-Jan-22 14:29N 31°30' E 121°24'1 8.6
2017-Jan-22 14:23N 31°29' E 121°25'26489.9
2017-Jan-22 14:20N 31°20' E 120°57'2532.1
2017-Jan-22 13:33N 31°37' E 121°18'4025629953.7
2017-Jan-22 13:33S 27°27' E 153°06'4016249284.4
2017-Jan-22 13:32N 31°30' E 121°23'143336.8
2017-Jan-22 13:32N 31°20' E 121°33'128615.1
2017-Jan-22 13:32N 31°29' E 121°25'126.4
2017-Jan-22 13:30N 31°30' E 121°24'039.5
2017-Jan-22 13:29N 31°29' E 121°24'171028.2
2017-Jan-22 13:28N 31°41' E 121°10'1688.9
2017-Jan-22 13:17N 31°30' E 121°24'0 4.2
2017-Jan-22 13:12N 31°30' E 121°24'40156088.6
2017-Jan-22 12:33S 27°27' E 153°06'4025139317.1
2017-Jan-22 12:31N 31°37' E 121°18'8295.4
2017-Jan-22 12:29N 31°42' E 121°10'1168.8
2017-Jan-22 12:29N 31°41' E 121°10'16575.6
2017-Jan-22 12:27N 31°30' E 121°24'011.6
2017-Jan-22 12:26N 31°30' E 121°24'9710.7
2017-Jan-22 12:25N 31°24' E 121°32'83808.3
2017-Jan-22 12:25N 31°30' E 121°24'073.6
2017-Jan-22 12:24N 31°29' E 121°24'0124.5
2017-Jan-22 12:24N 31°29' E 121°25'17542.1
2017-Jan-22 12:22N 31°41' E 121°10'29145.2
2017-Jan-22 12:10N 31°20' E 121°33'40026440.3
2017-Jan-22 11:33S 27°27' E 153°06'4026603832.7
2017-Jan-22 11:32N 31°37' E 121°16'101328.8
2017-Jan-22 11:32N 31°30' E 121°24'199.1
2017-Jan-22 11:31N 31°30' E 121°23'242.0
2017-Jan-22 11:29N 31°29' E 121°24'12946.0
2017-Jan-22 11:28N 31°20' E 121°33'23629.2
2017-Jan-22 11:26N 31°37' E 121°16'2245.9
2017-Jan-22 11:25N 31°37' E 121°18'12259.7
2017-Jan-22 11:23N 31°28' E 121°26'318.9
2017-Jan-22 11:14N 31°30' E 121°24'1690.7
2017-Jan-22 11:03N 31°41' E 121°10'1836.4
2017-Jan-22 10:33N 31°28' E 121°25'4013336005.5
2017-Jan-22 10:33S 27°27' E 153°06'40171112538.4
2017-Jan-22 10:33N 31°31' E 121°21'21039.4
2017-Jan-22 10:32N 31°30' E 121°24'3612.0
2017-Jan-22 10:32N 31°32' E 121°21'5869.8
2017-Jan-22 10:32N 31°29' E 121°25'1720647.5
2017-Jan-22 10:32N 31°41' E 121°10'112091.6
2017-Jan-22 10:31N 31°33' E 121°20'51009.3
2017-Jan-22 10:31N 31°30' E 121°24'9407.1
2017-Jan-22 10:30N 31°37' E 121°18'8138.8
2017-Jan-22 10:26N 31°30' E 121°23'2 8.4
2017-Jan-22 10:15N 31°29' E 121°24'12157.4
2017-Jan-22 10:10N 31°20' E 121°33'1321.5
2017-Jan-22 09:33N 31°31' E 121°25'150.6
2017-Jan-22 09:32N 31°29' E 121°25'101522.3
2017-Jan-22 09:31N 31°37' E 121°16'111940.9
2017-Jan-22 09:31N 31°28' E 121°25'4013187636.2
2017-Jan-22 09:30S 27°27' E 153°06'40251207393.3
2017-Jan-22 09:30N 31°37' E 121°18'9245.2
2017-Jan-22 09:27N 31°30' E 121°24'1388.0
2017-Jan-22 09:27N 31°29' E 121°25'17568.8
2017-Jan-22 09:25N 31°41' E 121°11'151568.8
2017-Jan-22 09:25N 31°30' E 121°23'14240.0
2017-Jan-22 09:21N 31°20' E 121°33'13140.5
2017-Jan-22 09:16N 31°30' E 121°24'2393.2
2017-Jan-22 09:15N 31°29' E 121°25'40145633.3
2017-Jan-22 08:33S 27°27' E 153°06'40322419015.7
2017-Jan-22 08:33N 31°41' E 121°11'152495.1
2017-Jan-22 08:32N 31°30' E 121°23'3114.3
2017-Jan-22 08:31N 31°28' E 121°25'128.0
2017-Jan-22 08:29N 31°29' E 121°25'1126.9
2017-Jan-22 08:28N 31°30' E 121°24'91043.6
2017-Jan-22 08:28N 31°37' E 121°18'4764.5
2017-Jan-22 08:27N 31°39' E 121°13'131101.7
2017-Jan-22 08:27N 31°30' E 121°24'0 9.1
2017-Jan-22 08:24N 31°29' E 121°25'5185.7
2017-Jan-22 08:22N 31°27' E 121°30'83903.9
2017-Jan-22 08:22N 31°20' E 121°33'1134.2
2017-Jan-22 08:03N 31°28' E 121°25'713.8
2017-Jan-22 07:33N 31°33' E 121°19'4020851300.8
2017-Jan-22 07:33S 27°27' E 153°06'4015170061.3
2017-Jan-22 07:31N 31°30' E 121°24'177.5
2017-Jan-22 07:31N 31°30' E 121°23'396.5
2017-Jan-22 07:29N 31°28' E 121°25'112809.7
2017-Jan-22 07:29N 31°37' E 121°18'22823.7
2017-Jan-22 07:27N 31°20' E 121°33'12339.0
2017-Jan-22 07:25N 31°29' E 121°25'14334.9
2017-Jan-22 07:23N 31°39' E 121°13'15333.3
2017-Jan-22 07:20N 31°28' E 121°25'1 5.1
2017-Jan-22 07:04N 31°29' E 121°25'1223.8
2017-Jan-22 06:33N 31°20' E 121°33'122007.0
2017-Jan-22 06:33N 31°29' E 121°25'135715.4
2017-Jan-22 06:33N 31°38' E 121°14'4230.3
2017-Jan-22 06:32N 31°37' E 121°18'9528.4
2017-Jan-22 06:31N 31°30' E 121°24'1148.4
2017-Jan-22 06:30N 31°29' E 121°25'14743.6
2017-Jan-22 06:29N 31°39' E 121°13'3107.5
2017-Jan-22 06:27N 31°41' E 121°11'15168.9
2017-Jan-22 06:22N 31°30' E 121°23'3 3.4
2017-Jan-22 05:33N 31°28' E 121°25'401314447863.3
2017-Jan-22 05:33S 27°27' E 153°06'4015481836.2
2017-Jan-22 05:32N 31°30' E 121°24'156.9
2017-Jan-22 05:31N 31°29' E 121°25'2035572.3
2017-Jan-22 05:31N 31°42' E 121°08'18709.5
2017-Jan-22 05:29N 31°30' E 121°23'2 7.1
2017-Jan-22 05:16N 31°29' E 121°25'10571.2
2017-Jan-22 05:15N 31°37' E 121°18'7157.4
2017-Jan-22 05:12N 31°41' E 121°11'1726.8
2017-Jan-22 04:33N 31°29' E 121°25'180.2
2017-Jan-22 04:33N 31°28' E 121°25'360.9
2017-Jan-22 04:30N 31°30' E 121°23'4016803226.6
2017-Jan-22 04:30S 27°27' E 153°06'4025178871.8
2017-Jan-22 04:28N 31°37' E 121°18'974.0
2017-Jan-22 04:21N 31°30' E 121°24'1680.0
2017-Jan-22 04:09N 31°41' E 121°11'18243.5
2017-Jan-22 04:05N 31°28' E 121°25'1 1.9
2017-Jan-22 03:33N 31°29' E 121°25'40141204258.2
2017-Jan-22 03:33S 27°27' E 153°06'4013222274.6
2017-Jan-22 03:32N 31°28' E 121°25'384.6
2017-Jan-22 03:30N 31°30' E 121°23'1 6.2
2017-Jan-22 03:22N 31°30' E 121°24'9155.8
2017-Jan-22 03:19N 31°37' E 121°18'8610.9
2017-Jan-22 03:18N 31°30' E 121°23'335.6
2017-Jan-22 03:13N 31°28' E 121°25'11216.3
2017-Jan-22 03:10N 31°20' E 121°33'0 0.0
2017-Jan-22 02:33N 31°20' E 121°33'298075.5
2017-Jan-22 02:33N 31°41' E 121°10'40323628580.2
2017-Jan-22 02:33S 27°27' E 153°06'4014138954.8
2017-Jan-22 02:31N 31°29' E 121°25'154550.6
2017-Jan-22 02:31N 31°40' E 121°13'141363.3
2017-Jan-22 02:30N 31°30' E 121°24'9656.3
2017-Jan-22 02:29N 31°37' E 121°18'114914.7
2017-Jan-22 02:29N 31°28' E 121°25'120.0
2017-Jan-22 02:25N 31°29' E 121°24'228.7
2017-Jan-22 02:22N 31°30' E 121°23'40164891.2
2017-Jan-22 01:33S 27°27' E 153°06'4015155436.0
2017-Jan-22 01:31N 31°30' E 121°24'16209.7
2017-Jan-22 01:27N 31°41' E 121°10'8253.5
2017-Jan-22 01:25N 31°37' E 121°18'10194.6
2017-Jan-22 01:22N 31°29' E 121°24'235.1
2017-Jan-22 01:19N 31°30' E 121°23'323.3
2017-Jan-22 01:12N 31°28' E 121°25'162.7
2017-Jan-22 01:11N 31°29' E 121°25'0 0.0
2017-Jan-22 00:33N 31°29' E 121°25'0136.4
2017-Jan-22 00:33N 31°29' E 121°24'40157226482.9
2017-Jan-22 00:33S 27°27' E 153°06'4025101320.6
2017-Jan-22 00:30N 31°37' E 121°18'8664.1
2017-Jan-22 00:30N 31°30' E 121°23'14104.3
2017-Jan-22 00:22N 31°20' E 121°33'111046.2
2017-Jan-22 00:21N 31°28' E 121°25'242.6
2017-Jan-22 00:18N 31°30' E 121°24'16160.0
2017-Jan-22 00:12N 31°41' E 121°10'40326142.3
2017-Jan-21 23:33S 27°27' E 153°06'4032853783.1
2017-Jan-21 23:32N 31°41' E 121°10'8371.5
2017-Jan-21 23:31N 31°37' E 121°18'221979.2
2017-Jan-21 23:31N 31°20' E 121°33'12426.7
2017-Jan-21 23:29N 31°29' E 121°25'27357.9
2017-Jan-21 23:29N 31°30' E 121°23'141125.5
2017-Jan-21 23:28N 31°41' E 121°11'16118.4
2017-Jan-21 23:20N 31°29' E 121°24'1 9.8
2017-Jan-21 23:12N 31°28' E 121°25'0 3.6
2017-Jan-21 23:10N 31°28' E 121°25'1830.2
2017-Jan-21 22:33N 31°41' E 121°10'827415.2
2017-Jan-21 22:33N 31°36' E 121°17'4024353345.1
2017-Jan-21 22:33S 27°27' E 153°06'401314448003.7
2017-Jan-21 22:33N 31°28' E 121°25'185.7
2017-Jan-21 22:32N 31°29' E 121°25'019.3
2017-Jan-21 22:31N 31°29' E 121°24'2380.6
2017-Jan-21 22:30N 31°30' E 121°23'148.7
2017-Jan-21 22:29N 31°30' E 121°24'9216.0
2017-Jan-21 22:27N 31°37' E 121°18'897.7
2017-Jan-21 22:22N 31°30' E 121°23'3566.3
2017-Jan-21 22:21N 31°28' E 121°25'1113.7
2017-Jan-21 21:33N 31°20' E 121°33'14535.0
2017-Jan-21 21:32N 31°30' E 121°23'15522.0
2017-Jan-21 21:30N 31°41' E 121°10'4032558232.0
2017-Jan-21 21:30S 27°27' E 153°06'4016212624.9
2017-Jan-21 21:29N 31°30' E 121°23'139.2
2017-Jan-21 21:27N 31°30' E 121°24'117.2
2017-Jan-21 21:25N 31°29' E 121°24'10586.1
2017-Jan-21 21:24N 31°37' E 121°18'11346.3
2017-Jan-21 21:22N 31°28' E 121°25'1 7.6
2017-Jan-21 21:14N 31°29' E 121°25'071.2
2017-Jan-21 21:14N 31°29' E 121°25'2 2.8
2017-Jan-21 20:33N 31°30' E 121°23'4016361453.6
2017-Jan-21 20:33S 27°27' E 153°06'40157227495.4
2017-Jan-21 20:33N 31°30' E 121°24'034.5
2017-Jan-21 20:32N 31°30' E 121°24'268.3
2017-Jan-21 20:31N 31°28' E 121°25'114973.7
2017-Jan-21 20:30N 31°20' E 121°33'222469.5
2017-Jan-21 20:30N 31°37' E 121°18'106873.7
2017-Jan-21 20:30N 31°30' E 121°24'17594.2
2017-Jan-21 20:28N 31°41' E 121°11'1761.5
2017-Jan-21 20:11N 31°29' E 121°25'254.3
2017-Jan-21 20:09N 31°30' E 121°23'40166653.6
2017-Jan-21 19:33S 27°27' E 153°06'40167229065.0
2017-Jan-21 19:33N 31°30' E 121°23'0 9.1
2017-Jan-21 19:32N 31°31' E 121°23'1715381.2
2017-Jan-21 19:32N 31°42' E 121°08'186481.7
2017-Jan-21 19:32N 31°30' E 121°24'94043.8
2017-Jan-21 19:31N 31°37' E 121°18'10504.0
2017-Jan-21 19:30N 31°29' E 121°25'1134.4
2017-Jan-21 19:30N 31°28' E 121°25'11274.6
2017-Jan-21 19:27N 31°20' E 121°33'12200.7
2017-Jan-21 19:24N 31°30' E 121°24'1214.8
2017-Jan-21 18:33N 31°20' E 121°33'144556.5
2017-Jan-21 18:33N 31°31' E 121°23'4016481943.2
2017-Jan-21 18:33S 27°27' E 153°06'4015294953.3
2017-Jan-21 18:32N 31°30' E 121°24'143.6
2017-Jan-21 18:31N 31°29' E 121°25'1278.2
2017-Jan-21 18:31N 31°30' E 121°24'1174.0
2017-Jan-21 18:31N 31°30' E 121°23'262.2
2017-Jan-21 18:29N 31°29' E 121°25'10401.9
2017-Jan-21 18:28N 31°37' E 121°18'117867.0
2017-Jan-21 18:27N 31°28' E 121°25'20482.4
2017-Jan-21 18:25N 31°42' E 121°08'40334629.9
2017-Jan-21 17:33S 27°27' E 153°06'40252897723.4
2017-Jan-21 17:33N 31°37' E 121°18'8482.0
2017-Jan-21 17:32N 31°30' E 121°23'016.7
2017-Jan-21 17:31N 31°31' E 121°23'3861.2
2017-Jan-21 17:31N 31°28' E 121°25'2111.3
2017-Jan-21 17:30N 31°30' E 121°24'14451.4
2017-Jan-21 17:30N 31°29' E 121°25'12213.4
2017-Jan-21 17:27N 31°20' E 121°33'314600.2
2017-Jan-21 17:26N 31°42' E 121°08'191094.2
2017-Jan-21 17:25N 31°29' E 121°25'019.1
2017-Jan-21 17:25N 31°30' E 121°24'1 0.8
2017-Jan-21 16:33N 31°30' E 121°24'13308.7
2017-Jan-21 16:33N 31°31' E 121°23'8242.3
2017-Jan-21 16:31N 31°37' E 121°18'1034509.8
2017-Jan-21 16:31N 31°30' E 121°24'188285.8
2017-Jan-21 16:31N 31°42' E 121°08'312693.2
2017-Jan-21 16:30N 31°20' E 121°33'4002379132.6
2017-Jan-21 16:30S 27°27' E 153°06'4016278042.9
2017-Jan-21 16:29N 31°30' E 121°23'231.0
2017-Jan-21 16:26N 31°29' E 121°25'0 7.3
2017-Jan-21 16:22N 31°29' E 121°25'601106.3
2017-Jan-21 16:19N 32°01' E 120°26'7193.8
2017-Jan-21 15:33N 31°20' E 121°33'4002360176.9
2017-Jan-21 15:33S 27°27' E 153°06'4013155355.9
2017-Jan-21 15:31N 31°28' E 121°25'174.5
2017-Jan-21 15:30N 31°30' E 121°24'10538.4
2017-Jan-21 15:29N 31°37' E 121°18'8446.7
2017-Jan-21 15:28N 31°31' E 121°23'2163.0
2017-Jan-21 15:27N 31°29' E 121°25'285.7
2017-Jan-21 15:26N 31°30' E 121°23'1 7.9
2017-Jan-21 15:19N 31°30' E 121°24'1 3.5
2017-Jan-21 15:04N 31°30' E 121°23'1427.3
2017-Jan-21 14:33N 31°20' E 121°33'4002379132.1
2017-Jan-21 14:33S 27°27' E 153°06'4013628174.9
2017-Jan-21 14:32N 31°28' E 121°25'1138.4
2017-Jan-21 14:32N 31°30' E 121°24'5712091.6
2017-Jan-21 14:31N 31°59' E 120°27'5666643.0
2017-Jan-21 14:31N 31°30' E 121°23'2769.7
2017-Jan-21 14:31N 31°29' E 121°25'292.0
2017-Jan-21 14:30N 31°30' E 121°23'172.1
2017-Jan-21 14:29N 31°30' E 121°24'1110.8
2017-Jan-21 14:29N 31°31' E 121°23'857.2
2017-Jan-21 14:20N 31°37' E 121°18'40255082.0
2017-Jan-21 13:33S 27°27' E 153°06'4016328608.2
2017-Jan-21 13:32N 31°31' E 121°23'257.2
2017-Jan-21 13:30N 31°30' E 121°24'10337.8
2017-Jan-21 13:29N 31°37' E 121°18'91217.8
2017-Jan-21 13:28N 31°30' E 121°23'13897.4
2017-Jan-21 13:27N 31°20' E 121°33'13450.2
2017-Jan-21 13:26N 31°30' E 121°24'147.5
2017-Jan-21 13:24N 31°29' E 121°25'139.7
2017-Jan-21 13:23N 31°28' E 121°25'20489.1
2017-Jan-21 13:20N 31°42' E 121°08'26190.5
2017-Jan-21 13:12N 31°23' E 121°30'40066137.4
2017-Jan-21 12:33S 27°27' E 153°06'4033337659.3
2017-Jan-21 12:32N 31°42' E 121°08'14687.9
2017-Jan-21 12:31N 31°32' E 121°20'6275.8
2017-Jan-21 12:29N 31°28' E 121°25'112460.9
2017-Jan-21 12:29N 31°37' E 121°18'84118.6
2017-Jan-21 12:29N 31°31' E 121°23'2121.6
2017-Jan-21 12:28N 31°30' E 121°24'0 3.9
2017-Jan-21 12:26N 31°29' E 121°24'1 9.3
2017-Jan-21 12:21N 31°30' E 121°24'1 4.2
2017-Jan-21 12:08N 31°30' E 121°23'3 4.9
2017-Jan-21 11:33N 31°28' E 121°25'107393.2
2017-Jan-21 11:33N 31°36' E 121°17'40242069376.0
2017-Jan-21 11:33S 27°27' E 153°06'40253622231.8
2017-Jan-21 11:33N 31°37' E 121°18'91288.9
2017-Jan-21 11:32N 31°30' E 121°24'18595.4
2017-Jan-21 11:30N 31°42' E 121°08'171772.0
2017-Jan-21 11:30N 31°31' E 121°23'253.4
2017-Jan-21 11:28N 31°30' E 121°24'139.5
2017-Jan-21 11:27N 31°29' E 121°25'8159.3
2017-Jan-21 11:24N 31°23' E 121°30'2382.5
2017-Jan-21 11:08N 31°40' E 121°13'40306855.5
2017-Jan-21 10:33S 27°27' E 153°06'4035605237.5
2017-Jan-21 10:32N 31°43' E 121°08'20364.0
2017-Jan-21 10:29N 31°29' E 121°25'101129.3
2017-Jan-21 10:28N 31°37' E 121°18'111578.5
2017-Jan-21 10:28N 31°28' E 121°25'1745.6
2017-Jan-21 10:28N 31°30' E 121°24'109272.5
2017-Jan-21 10:28N 31°37' E 121°16'8380.9
2017-Jan-21 10:26N 31°42' E 121°08'2613576.2
2017-Jan-21 10:26N 31°23' E 121°30'23135.3
2017-Jan-21 10:16N 31°40' E 121°12'141109.9
2017-Jan-21 10:15N 31°30' E 121°24'1100.8
2017-Jan-21 10:15N 31°30' E 121°23'3 5.0
2017-Jan-21 09:33N 31°33' E 121°21'172517.1
2017-Jan-21 09:33N 31°20' E 121°33'4002533572.5
2017-Jan-21 09:33S 27°27' E 153°06'4013307399.7
2017-Jan-21 09:32N 31°28' E 121°25'16435.5
2017-Jan-21 09:30N 31°40' E 121°12'143931.5
2017-Jan-21 09:29N 31°30' E 121°24'102195.8
2017-Jan-21 09:29N 31°37' E 121°16'111.5
2017-Jan-21 09:22N 31°37' E 121°18'8904.4
2017-Jan-21 09:22N 31°31' E 121°23'17280.7
2017-Jan-21 09:18N 31°42' E 121°08'1824.3
2017-Jan-21 08:34N 31°30' E 121°24'4015272725.5
2017-Jan-21 08:33S 27°27' E 153°06'4026329406.5
2017-Jan-21 08:32N 31°38' E 121°16'2115.6
2017-Jan-21 08:31N 31°37' E 121°18'9610.9
2017-Jan-21 08:30N 31°42' E 121°08'178654.3
2017-Jan-21 08:30N 31°31' E 121°23'2450.9
2017-Jan-21 08:30N 31°30' E 121°24'190.8
2017-Jan-21 08:29N 31°30' E 121°24'4389.8
2017-Jan-21 08:29N 31°33' E 121°21'4744932.0
2017-Jan-21 08:23N 24°12' E 118°04'4665703.8
2017-Jan-21 08:18N 31°20' E 121°33'11287.6
2017-Jan-21 08:16N 31°28' E 121°26'1 7.1
2017-Jan-21 08:07N 31°29' E 121°25'1 2.0
2017-Jan-21 07:33N 31°30' E 121°24'125.0
2017-Jan-21 07:30N 31°29' E 121°25'173.7
2017-Jan-21 07:29N 31°30' E 121°26'3246.2
2017-Jan-21 07:28N 31°30' E 121°23'233.6
2017-Jan-21 07:25N 31°30' E 121°24'103134.1
2017-Jan-21 07:25N 31°37' E 121°18'173588.6
2017-Jan-21 07:25N 31°25' E 121°31'1371.4
2017-Jan-21 07:14N 31°33' E 121°19'4102.6
2017-Jan-21 07:12N 31°37' E 121°18'9374.8
2017-Jan-21 07:10N 31°30' E 121°24'40156413.1
2017-Jan-21 06:33S 27°27' E 153°06'4026499726.2
2017-Jan-21 06:32N 31°37' E 121°16'91648.0
2017-Jan-21 06:32N 31°31' E 121°23'286.7
2017-Jan-21 06:31N 31°30' E 121°24'92194.0
2017-Jan-21 06:31N 31°37' E 121°18'221806.5
2017-Jan-21 06:30N 31°20' E 121°33'13746.0
2017-Jan-21 06:29N 31°30' E 121°24'9951.7
2017-Jan-21 06:28N 31°37' E 121°18'1889.5
2017-Jan-21 06:16N 31°23' E 121°30'949.5
2017-Jan-21 06:06N 31°30' E 121°24'173704.4
2017-Jan-21 06:05N 31°42' E 121°09'263719.1
2017-Jan-21 06:05N 31°25' E 121°31'713.5
2017-Jan-21 05:33N 31°29' E 121°25'4014656876.5
2017-Jan-21 05:33S 27°27' E 153°06'4024226362.7
2017-Jan-21 05:32N 31°37' E 121°18'865.3
2017-Jan-21 05:25N 31°30' E 121°23'010.7
2017-Jan-21 05:23N 31°31' E 121°23'2114.7
2017-Jan-21 05:22N 31°30' E 121°24'104311.6
2017-Jan-21 05:22N 31°37' E 121°18'9445.4
2017-Jan-21 05:21N 31°30' E 121°24'171215.5
2017-Jan-21 05:20N 31°42' E 121°10'17258.8
2017-Jan-21 05:16N 31°30' E 121°24'0 0.5
2017-Jan-21 04:32N 31°30' E 121°24'4015112931.6
2017-Jan-21 04:30S 27°27' E 153°06'40141204247.5
2017-Jan-21 04:29N 31°29' E 121°25'12186.4
2017-Jan-21 04:26N 31°20' E 121°33'12198.8
2017-Jan-21 04:22N 31°29' E 121°24'164.7
2017-Jan-21 04:21N 31°30' E 121°24'140.2
2017-Jan-21 04:20N 31°31' E 121°23'8986.2
2017-Jan-21 04:19N 31°37' E 121°18'034.2
2017-Jan-21 04:19N 31°37' E 121°18'860.7
2017-Jan-21 04:10N 31°42' E 121°10'4063.6
2017-Jan-21 03:33N 31°58' E 120°27'4067665500.7
2017-Jan-21 03:33S 27°27' E 153°06'40151111763.6
2017-Jan-21 03:32N 31°30' E 121°24'1200.7
2017-Jan-21 03:32N 31°30' E 121°24'17487.0
2017-Jan-21 03:30N 31°42' E 121°10'91354.7
2017-Jan-21 03:30N 31°37' E 121°18'125.2
2017-Jan-21 03:28N 31°37' E 121°18'18298.9
2017-Jan-21 03:25N 31°23' E 121°30'1820.7
2017-Jan-21 02:33N 31°37' E 121°18'1815924.6
2017-Jan-21 02:33N 31°23' E 121°30'4006320506.5
2017-Jan-21 02:33S 27°27' E 153°06'40152891089.0
2017-Jan-21 02:33N 31°30' E 121°24'172648.0
2017-Jan-21 02:32N 31°42' E 121°10'9921.1
2017-Jan-21 02:32N 31°37' E 121°18'482548.4
2017-Jan-21 02:31N 31°58' E 120°27'684079.6
2017-Jan-21 02:30N 31°20' E 121°33'13204.3
2017-Jan-21 02:26N 31°30' E 121°24'144.1
2017-Jan-21 02:25N 31°30' E 121°24'147.1
2017-Jan-21 02:24N 31°29' E 121°25'217.0
2017-Jan-21 02:17N 31°31' E 121°23'2 2.9
2017-Jan-21 01:33N 31°29' E 121°25'4014802849.0
2017-Jan-21 01:33S 27°27' E 153°06'4024579475.3
2017-Jan-21 01:32N 31°37' E 121°18'8409.2
2017-Jan-21 01:31N 31°30' E 121°24'9648.5
2017-Jan-21 01:30N 31°37' E 121°18'102172.3
2017-Jan-21 01:30N 31°30' E 121°24'121867.7
2017-Jan-21 01:30N 31°20' E 121°33'1346997.8
2017-Jan-21 01:29N 31°30' E 121°24'93140.9
2017-Jan-21 01:29N 31°23' E 121°30'10847.4
2017-Jan-21 01:29N 31°31' E 121°23'551539.9
2017-Jan-21 01:27N 31°58' E 120°27'405704.6
2017-Jan-21 01:26N 31°42' E 121°10'301383.7
2017-Jan-21 01:25N 31°19' E 121°34'691539.4
2017-Jan-21 01:22N 31°58' E 120°26'40684932.1
2017-Jan-21 00:33S 27°27' E 153°06'4015903485.9
2017-Jan-21 00:32N 31°30' E 121°24'171560.2
2017-Jan-21 00:32N 31°42' E 121°10'18596.6
2017-Jan-21 00:30N 31°29' E 121°25'21498.0
2017-Jan-21 00:30N 31°31' E 121°23'142400.1
2017-Jan-21 00:29N 31°20' E 121°33'221846.0
2017-Jan-21 00:29N 31°37' E 121°18'101321.9
2017-Jan-21 00:28N 31°30' E 121°24'123.0
2017-Jan-21 00:27N 31°30' E 121°24'8149.4
2017-Jan-21 00:23N 31°37' E 121°18'9125.1
2017-Jan-21 00:19N 31°29' E 121°24'2 9.3
2017-Jan-21 00:08N 31°30' E 121°23'40166842.6
2017-Jan-20 23:33S 27°27' E 153°06'4016556109.4
2017-Jan-20 23:32N 31°31' E 121°23'016.7
2017-Jan-20 23:31N 31°30' E 121°23'11640.8
2017-Jan-20 23:31N 31°30' E 121°24'910804.0
2017-Jan-20 23:31N 31°37' E 121°18'181829.0
2017-Jan-20 23:31N 31°23' E 121°30'8910.6
2017-Jan-20 23:30N 31°29' E 121°24'1567.4
2017-Jan-20 23:30N 31°30' E 121°24'8110.4
2017-Jan-20 23:26N 31°37' E 121°18'9479.0
2017-Jan-20 23:24N 31°30' E 121°24'13699.0
2017-Jan-20 23:23N 31°20' E 121°33'12353.7
2017-Jan-20 23:21N 31°29' E 121°25'18367.7
2017-Jan-20 23:18N 31°42' E 121°10'1722.3
2017-Jan-20 22:33N 31°30' E 121°24'4016688371.8
2017-Jan-20 22:33S 27°27' E 153°06'4015481845.5
2017-Jan-20 22:32N 31°30' E 121°24'1146.9
2017-Jan-20 22:32N 31°30' E 121°24'270.2
2017-Jan-20 22:31N 31°30' E 121°23'16613.2
2017-Jan-20 22:29N 31°42' E 121°10'82475.5
2017-Jan-20 22:29N 31°37' E 121°18'123.2
2017-Jan-20 22:27N 31°37' E 121°18'1066.1
2017-Jan-20 22:19N 31°29' E 121°25'216.9
2017-Jan-20 22:11N 31°31' E 121°23'40166283.7
2017-Jan-20 21:33S 27°27' E 153°06'4016126829.2
2017-Jan-20 21:31N 31°30' E 121°23'015.0
2017-Jan-20 21:30N 31°31' E 121°23'1114.0
2017-Jan-20 21:29N 31°30' E 121°24'173796.4
2017-Jan-20 21:29N 31°42' E 121°10'182184.4
2017-Jan-20 21:29N 31°29' E 121°24'102903.8
2017-Jan-20 21:28N 31°37' E 121°18'120.0
2017-Jan-20 21:26N 31°37' E 121°18'971.2
2017-Jan-20 21:19N 31°30' E 121°24'13133.9
2017-Jan-20 21:13N 31°20' E 121°33'1277.0
2017-Jan-20 21:04N 31°29' E 121°25'1 2.3
2017-Jan-20 20:33N 31°30' E 121°24'4015401533.3
2017-Jan-20 20:33S 27°27' E 153°06'4025206979.2
2017-Jan-20 20:31N 31°37' E 121°18'8213.3
2017-Jan-20 20:29N 31°31' E 121°23'7671.2
2017-Jan-20 20:29N 31°37' E 121°18'9329.2
2017-Jan-20 20:27N 31°30' E 121°24'1368.3
2017-Jan-20 20:27N 31°30' E 121°24'17147.0
2017-Jan-20 20:20N 31°42' E 121°10'262630.9
2017-Jan-20 20:19N 31°23' E 121°30'8373.3
2017-Jan-20 20:18N 31°29' E 121°25'40145291.7
2017-Jan-20 19:33S 27°27' E 153°06'4015307513.6
2017-Jan-20 19:32N 31°30' E 121°24'92697.8
2017-Jan-20 19:32N 31°37' E 121°18'83770.7
2017-Jan-20 19:31N 31°30' E 121°24'9506.9
2017-Jan-20 19:30N 31°23' E 121°30'91265.1
2017-Jan-20 19:30N 31°30' E 121°24'11397.5
2017-Jan-20 19:30N 31°29' E 121°25'10951.1
2017-Jan-20 19:29N 31°37' E 121°18'8442.8
2017-Jan-20 19:28N 31°42' E 121°10'16394.5
2017-Jan-20 19:26N 31°30' E 121°23'1496.0
2017-Jan-20 19:17N 31°20' E 121°33'40025395.8
2017-Jan-20 18:33S 27°27' E 153°06'40152409247.2
2017-Jan-20 18:32N 31°30' E 121°24'131963.9
2017-Jan-20 18:32N 31°20' E 121°33'123411.1
2017-Jan-20 18:32N 31°29' E 121°25'0115.8
2017-Jan-20 18:32N 31°30' E 121°24'1148.8
2017-Jan-20 18:32N 31°29' E 121°25'10816.4
2017-Jan-20 18:31N 31°37' E 121°18'74486.1
2017-Jan-20 18:31N 31°31' E 121°23'102478.0
2017-Jan-20 18:31N 31°23' E 121°30'18251.4
2017-Jan-20 18:26N 31°37' E 121°18'8165.7
2017-Jan-20 18:23N 31°42' E 121°10'17100.4
2017-Jan-20 18:13N 31°30' E 121°24'1725.4
2017-Jan-20 17:33N 31°42' E 121°10'4033302438.4
2017-Jan-20 17:33S 27°27' E 153°06'40151204421.8
2017-Jan-20 17:32N 31°30' E 121°24'10286.8
2017-Jan-20 17:30N 31°37' E 121°18'1113.5
2017-Jan-20 17:30N 31°37' E 121°18'71495.4
2017-Jan-20 17:30N 31°31' E 121°23'298.2
2017-Jan-20 17:28N 31°29' E 121°25'12306.2
2017-Jan-20 17:26N 31°20' E 121°33'13619.5
2017-Jan-20 17:25N 31°30' E 121°24'1 3.6
2017-Jan-20 17:06N 31°30' E 121°23'40167125.8
2017-Jan-20 16:33S 27°27' E 153°06'40251609861.2
2017-Jan-20 16:32N 31°37' E 121°18'82064.6
2017-Jan-20 16:32N 31°31' E 121°23'167163.9
2017-Jan-20 16:32N 31°42' E 121°10'3017940.9
2017-Jan-20 16:32N 31°20' E 121°33'12613.1
2017-Jan-20 16:31N 31°29' E 121°24'8694.6
2017-Jan-20 16:30N 31°23' E 121°30'172368.5
2017-Jan-20 16:30N 31°37' E 121°18'81207.3
2017-Jan-20 16:29N 31°30' E 121°24'116.5
2017-Jan-20 16:26N 31°29' E 121°25'119.7
2017-Jan-20 16:24N 31°30' E 121°24'111.6
2017-Jan-20 16:18N 31°29' E 121°25'1 0.8
2017-Jan-20 15:33N 31°30' E 121°24'4015390617.6
2017-Jan-20 15:33S 27°27' E 153°06'4024438979.4
2017-Jan-20 15:32N 31°37' E 121°18'91366.8
2017-Jan-20 15:32N 31°29' E 121°25'101834.0
2017-Jan-20 15:31N 31°37' E 121°18'910749.8
2017-Jan-20 15:31N 31°30' E 121°24'185.6
2017-Jan-20 15:30N 31°29' E 121°25'21274.8
2017-Jan-20 15:30N 31°31' E 121°23'16786.6
2017-Jan-20 15:29N 31°42' E 121°10'461.0
2017-Jan-20 15:25N 31°39' E 121°13'212820.0
2017-Jan-20 15:24N 31°23' E 121°30'9809.1
2017-Jan-20 15:24N 31°30' E 121°24'1214.8
2017-Jan-20 14:33N 31°39' E 121°13'135295.1
2017-Jan-20 14:33N 31°29' E 121°25'4015628375.2
2017-Jan-20 14:33S 27°27' E 153°06'40064807623.5
2017-Jan-20 14:33N 31°23' E 121°30'173420.2
2017-Jan-20 14:32N 31°37' E 121°18'7426.7
2017-Jan-20 14:31N 31°31' E 121°23'2577.2
2017-Jan-20 14:31N 31°29' E 121°25'2243.6
2017-Jan-20 14:30N 31°30' E 121°23'2165.9
2017-Jan-20 14:30N 31°30' E 121°24'135.4
2017-Jan-20 14:29N 31°30' E 121°24'91243.6
2017-Jan-20 14:28N 31°37' E 121°18'9238.3
2017-Jan-20 14:26N 31°30' E 121°24'171128.3
2017-Jan-20 14:25N 31°42' E 121°10'8 9.5
2017-Jan-20 13:33N 31°37' E 121°18'4025536625.6
2017-Jan-20 13:33S 27°27' E 153°06'40151606175.5
2017-Jan-20 13:32N 31°30' E 121°24'1311259.8
2017-Jan-20 13:32N 31°39' E 121°13'131815.2
2017-Jan-20 13:32N 31°30' E 121°24'1214936.2
2017-Jan-20 13:32N 31°20' E 121°33'214060.3
2017-Jan-20 13:32N 31°37' E 121°18'8522.1
2017-Jan-20 13:31N 31°30' E 121°23'0 7.5
2017-Jan-20 13:29N 31°31' E 121°23'164.9
2017-Jan-20 13:28N 31°30' E 121°24'17400.2
2017-Jan-20 13:25N 31°42' E 121°10'41233.6
2017-Jan-20 13:15N 31°59' E 120°26'58728.5
2017-Jan-20 13:10N 31°29' E 121°25'40146422.8
2017-Jan-20 12:33S 27°27' E 153°06'4015170062.5
2017-Jan-20 12:31N 31°30' E 121°24'053.9
2017-Jan-20 12:31N 31°30' E 121°24'17649.1
2017-Jan-20 12:29N 31°42' E 121°10'82120.2
2017-Jan-20 12:29N 31°37' E 121°18'101840.5
2017-Jan-20 12:29N 31°29' E 121°24'019.1
2017-Jan-20 12:28N 31°29' E 121°24'13225.5
2017-Jan-20 12:25N 31°39' E 121°13'12629.0
2017-Jan-20 12:24N 31°31' E 121°23'7218.4
2017-Jan-20 12:22N 31°37' E 121°18'1 0.9
2017-Jan-20 11:33N 31°37' E 121°18'4025362224.8
2017-Jan-20 11:33S 27°27' E 153°06'4033439920.1
2017-Jan-20 11:32N 31°42' E 121°10'306759.3
2017-Jan-20 11:32N 31°20' E 121°33'132057.2
2017-Jan-20 11:31N 31°30' E 121°24'8377.7
2017-Jan-20 11:30N 31°37' E 121°18'81360.8
2017-Jan-20 11:30N 31°31' E 121°23'2130.1
2017-Jan-20 11:29N 31°29' E 121°24'095.3
2017-Jan-20 11:29N 31°30' E 121°24'57741.1
2017-Jan-20 11:24N 31°59' E 120°26'57374.2
2017-Jan-20 11:15N 31°30' E 121°24'0 0.0
2017-Jan-20 10:33N 31°30' E 121°24'9888.5
2017-Jan-20 10:33N 31°37' E 121°18'1011627.1
2017-Jan-20 10:33N 31°29' E 121°24'187055.4
2017-Jan-20 10:33N 31°42' E 121°10'40332903469.4
2017-Jan-20 10:33S 27°27' E 153°06'4014143084.3
2017-Jan-20 10:31N 31°29' E 121°25'1142.0
2017-Jan-20 10:30N 31°30' E 121°24'123.2
2017-Jan-20 10:29N 31°30' E 121°24'22781.8
2017-Jan-20 10:29N 31°31' E 121°23'8319.4
2017-Jan-20 10:27N 31°37' E 121°18'49315.5
2017-Jan-20 10:18N 31°59' E 120°26'692732.5
2017-Jan-20 10:17N 31°20' E 121°33'14280.1
2017-Jan-20 10:14N 31°30' E 121°23'40165879.9
2017-Jan-20 09:33S 27°27' E 153°06'4024237490.7
2017-Jan-20 09:32N 31°37' E 121°18'7156.7
2017-Jan-20 09:29N 31°31' E 121°23'162.9
2017-Jan-20 09:28N 31°30' E 121°24'9397.2
2017-Jan-20 09:26N 31°37' E 121°18'5728.2
2017-Jan-20 09:26N 31°40' E 121°13'131853.2
2017-Jan-20 09:26N 31°30' E 121°24'161.3
2017-Jan-20 09:25N 31°30' E 121°24'134.1
2017-Jan-20 09:24N 31°29' E 121°25'085.7
2017-Jan-20 09:24N 31°29' E 121°24'12103.3
2017-Jan-20 09:16N 31°20' E 121°33'30581.1
2017-Jan-20 09:13N 31°42' E 121°10'40335940.0
2017-Jan-20 08:33S 27°27' E 153°06'4015498379.7
2017-Jan-20 08:32N 31°29' E 121°24'125.8
2017-Jan-20 08:30N 31°30' E 121°24'17426.9
2017-Jan-20 08:28N 31°42' E 121°10'4212.0
2017-Jan-20 08:27N 31°40' E 121°13'142958.4
2017-Jan-20 08:27N 31°30' E 121°24'9630.9
2017-Jan-20 08:26N 31°37' E 121°18'8505.2
2017-Jan-20 08:25N 31°31' E 121°23'166.7
2017-Jan-20 08:24N 31°30' E 121°24'8117.9
2017-Jan-20 08:20N 31°37' E 121°18'2283.6
2017-Jan-20 08:04N 31°20' E 121°33'1223.4
2017-Jan-20 07:33N 31°29' E 121°25'4014963470.9
2017-Jan-20 07:33S 27°27' E 153°06'40161112217.5
2017-Jan-20 07:32N 31°31' E 121°23'1135.5
2017-Jan-20 07:32N 31°30' E 121°24'1112.6
2017-Jan-20 07:32N 31°29' E 121°24'9850.9
2017-Jan-20 07:31N 31°37' E 121°18'9496.9
2017-Jan-20 07:30N 31°42' E 121°10'8689.4
2017-Jan-20 07:29N 31°37' E 121°18'515.4
2017-Jan-20 07:11N 31°40' E 121°13'14252.2
2017-Jan-20 07:08N 31°29' E 121°25'1424.4
2017-Jan-20 06:33N 31°40' E 121°13'1425349.3
2017-Jan-20 06:33N 31°30' E 121°24'1036642.3
2017-Jan-20 06:33N 31°38' E 121°17'40253622716.6
2017-Jan-20 06:33S 27°27' E 153°06'4015760815.3
2017-Jan-20 06:32N 31°30' E 121°24'1124.2
2017-Jan-20 06:32N 31°31' E 121°23'1166.7
2017-Jan-20 06:31N 31°29' E 121°24'9314.2
2017-Jan-20 06:30N 31°37' E 121°18'9160.1
2017-Jan-20 06:26N 31°29' E 121°25'126.8
2017-Jan-20 06:24N 31°29' E 121°23'13460.9
2017-Jan-20 06:22N 31°20' E 121°33'307700.0
2017-Jan-20 06:22N 31°42' E 121°10'33454.4
2017-Jan-20 06:18N 31°16' E 121°33'1621.6
2017-Jan-20 05:33N 31°29' E 121°23'186.0
2017-Jan-20 05:33N 31°29' E 121°25'40151605802.4
2017-Jan-20 05:33S 27°27' E 153°06'4029659297.5
2017-Jan-20 05:32N 31°40' E 121°13'271706.0
2017-Jan-20 05:31N 31°20' E 121°33'142522.6
2017-Jan-20 05:31N 31°31' E 121°23'156.1
2017-Jan-20 05:30N 31°30' E 121°24'1710075.8
2017-Jan-20 05:30N 31°41' E 121°10'171490.8
2017-Jan-20 05:29N 31°30' E 121°24'101645.8
2017-Jan-20 05:29N 31°38' E 121°18'8184.8
2017-Jan-20 05:26N 31°42' E 121°10'17934.3
2017-Jan-20 05:25N 31°29' E 121°24'1415.9
2017-Jan-20 04:33N 31°40' E 121°13'1315103.6
2017-Jan-20 04:33N 31°30' E 121°23'91484.1
2017-Jan-20 04:33N 31°38' E 121°18'40252070073.4
2017-Jan-20 04:33S 27°27' E 153°06'4015602308.3
2017-Jan-20 04:32N 31°30' E 121°24'13859.0
2017-Jan-20 04:31N 31°20' E 121°33'309800.0
2017-Jan-20 04:31N 31°42' E 121°10'121167.8
2017-Jan-20 04:30N 31°33' E 121°19'6665.1
2017-Jan-20 04:30N 31°30' E 121°24'274.7
2017-Jan-20 04:29N 31°31' E 121°23'146.2
2017-Jan-20 04:27N 31°29' E 121°24'0 1.7
2017-Jan-20 04:23N 31°29' E 121°23'1 1.2
2017-Jan-20 03:33N 31°30' E 121°24'17965.3
2017-Jan-20 03:32N 31°42' E 121°10'8192.3
2017-Jan-20 03:30N 31°38' E 121°18'40254830199.0
2017-Jan-20 03:30S 27°27' E 153°06'4016152196.1
2017-Jan-20 03:28N 31°31' E 121°23'13704.8
2017-Jan-20 03:27N 31°40' E 121°13'14165.1
2017-Jan-20 03:22N 31°29' E 121°25'144.6
2017-Jan-20 03:20N 31°29' E 121°23'046.9
2017-Jan-20 03:20N 31°29' E 121°24'112.0
2017-Jan-20 03:16N 31°30' E 121°24'1013.9
2017-Jan-20 02:33N 31°38' E 121°18'9433.8
2017-Jan-20 02:32N 31°31' E 121°23'022.5
2017-Jan-20 02:31N 31°30' E 121°23'272.3
2017-Jan-20 02:30N 31°30' E 121°24'181910.3
2017-Jan-20 02:29N 31°42' E 121°10'172253.5
2017-Jan-20 02:29N 31°30' E 121°24'4015112934.1
2017-Jan-20 02:27S 27°27' E 153°06'4015182968.2
2017-Jan-20 02:25N 31°29' E 121°23'0 1.5
2017-Jan-20 02:19N 31°29' E 121°24'14168.3
2017-Jan-20 02:14N 31°40' E 121°13'27159.6
2017-Jan-20 02:04N 31°20' E 121°33'1325.4
2017-Jan-20 01:33N 31°29' E 121°23'170.0
2017-Jan-20 01:33N 31°29' E 121°24'40152890581.7
2017-Jan-20 01:33S 27°27' E 153°06'40151806929.1
2017-Jan-20 01:32N 31°30' E 121°24'131791.0
2017-Jan-20 01:32N 31°40' E 121°13'133471.3
2017-Jan-20 01:32N 31°31' E 121°23'16692.2
2017-Jan-20 01:30N 31°42' E 121°10'8196.4
2017-Jan-20 01:28N 31°38' E 121°18'23464.2
2017-Jan-20 01:25N 31°20' E 121°33'1214.3
2017-Jan-20 00:33N 31°29' E 121°24'102417.5
2017-Jan-20 00:33N 31°38' E 121°18'40251811322.3
2017-Jan-20 00:33S 27°27' E 153°06'4015160616.8
2017-Jan-20 00:31N 31°30' E 121°24'118.0
2017-Jan-20 00:28N 31°29' E 121°23'137.0
2017-Jan-20 00:26N 31°31' E 121°23'11083.1
2017-Jan-20 00:26N 31°29' E 121°23'18559.7
2017-Jan-20 00:24N 31°12' E 121°29'343864.1
2017-Jan-20 00:23N 31°42' E 121°10'1652.9
2017-Jan-20 00:05N 31°30' E 121°23'1731.6
2017-Jan-19 23:33N 31°15' E 121°31'163242.5
2017-Jan-19 23:33N 31°30' E 121°24'4015760809.3
2017-Jan-19 23:32S 27°27' E 153°06'4025439104.4
2017-Jan-19 23:32N 31°38' E 121°18'107061.2
2017-Jan-19 23:32N 31°29' E 121°23'13827.5
2017-Jan-19 23:31N 31°20' E 121°33'307196.4
2017-Jan-19 23:31N 31°42' E 121°10'17695.8
2017-Jan-19 23:29N 31°29' E 121°23'1136.7
2017-Jan-19 23:29N 31°31' E 121°23'233.9
2017-Jan-19 23:26N 31°29' E 121°24'1480.1
2017-Jan-19 23:15N 31°40' E 121°13'40295641.7
2017-Jan-19 22:33S 27°27' E 153°06'4029604368.3
2017-Jan-19 22:32N 31°40' E 121°13'125602.5
2017-Jan-19 22:32N 31°31' E 121°23'2507.1
2017-Jan-19 22:32N 31°30' E 121°24'102391.8
2017-Jan-19 22:32N 31°38' E 121°18'10907.4
2017-Jan-19 22:31N 31°29' E 121°24'181290.4
2017-Jan-19 22:30N 31°42' E 121°10'173820.0
2017-Jan-19 22:30N 31°29' E 121°23'0 4.5
2017-Jan-19 22:28N 31°29' E 121°23'134225.3
2017-Jan-19 22:28N 31°20' E 121°33'13884.2
2017-Jan-19 22:27N 31°30' E 121°24'1718.8
2017-Jan-19 21:33N 31°42' E 121°10'17794.4
2017-Jan-19 21:32N 31°30' E 121°24'144.4
2017-Jan-19 21:31N 31°29' E 121°23'4015198006.4
2017-Jan-19 21:30S 27°27' E 153°06'4025322012.4
2017-Jan-19 21:29N 31°38' E 121°18'93732.3
2017-Jan-19 21:29N 31°30' E 121°24'13302.0
2017-Jan-19 21:26N 31°40' E 121°13'122982.6
2017-Jan-19 21:26N 31°31' E 121°23'14214.2
2017-Jan-19 21:22N 31°20' E 121°33'1341.3
2017-Jan-19 21:04N 31°29' E 121°24'1834.4
2017-Jan-19 20:33N 31°42' E 121°10'176957.0
2017-Jan-19 20:33N 31°30' E 121°24'4015578136.7
2017-Jan-19 20:32S 27°27' E 153°06'4017761049.4
2017-Jan-19 20:32N 31°31' E 121°22'181.0
2017-Jan-19 20:32N 31°31' E 121°23'82350.3
2017-Jan-19 20:32N 31°38' E 121°18'10588.1
2017-Jan-19 20:31N 31°29' E 121°23'115.5
2017-Jan-19 20:27N 31°30' E 121°24'125.2
2017-Jan-19 20:25N 31°29' E 121°24'128.7
2017-Jan-19 20:23N 31°29' E 121°23'14255.7
2017-Jan-19 20:20N 31°40' E 121°13'911.7
2017-Jan-19 19:33N 31°33' E 121°20'41142.8
2017-Jan-19 19:33N 31°30' E 121°24'4015963699.4
2017-Jan-19 19:33S 27°27' E 153°06'40151313917.0
2017-Jan-19 19:32N 31°29' E 121°24'2160.2
2017-Jan-19 19:32N 31°31' E 121°23'1374.7
2017-Jan-19 19:32N 31°29' E 121°23'104348.7
2017-Jan-19 19:31N 31°38' E 121°18'447.6
2017-Jan-19 19:26N 31°40' E 121°13'14713.8
2017-Jan-19 19:25N 31°29' E 121°23'17219.5
2017-Jan-19 19:20N 31°42' E 121°10'1721.8
2017-Jan-19 18:33N 31°29' E 121°23'4015267668.1
2017-Jan-19 18:33S 27°27' E 153°06'40257244322.5
2017-Jan-19 18:33N 31°37' E 121°17'9363.0
2017-Jan-19 18:31N 31°29' E 121°23'129.3
2017-Jan-19 18:29N 31°29' E 121°24'143622.5
2017-Jan-19 18:29N 31°40' E 121°13'133029.1
2017-Jan-19 18:29N 31°30' E 121°24'17382.7
2017-Jan-19 18:26N 31°42' E 121°10'1653.2
2017-Jan-19 18:08N 31°31' E 121°23'14189.8
2017-Jan-19 18:04N 31°20' E 121°33'1326.0
2017-Jan-19 17:34N 31°30' E 121°24'161946.3
2017-Jan-19 17:33N 31°41' E 121°10'2825038.2
2017-Jan-19 17:33N 31°21' E 121°32'132393.4
2017-Jan-19 17:33N 31°31' E 121°23'40161445873.1
2017-Jan-19 17:32S 27°27' E 153°06'4033226829.8
2017-Jan-19 17:31N 31°42' E 121°10'177712.2
2017-Jan-19 17:31N 31°29' E 121°24'1412375.3
2017-Jan-19 17:31N 31°40' E 121°13'1474.7
2017-Jan-19 17:20N 31°30' E 121°24'112.3
2017-Jan-19 17:15N 31°29' E 121°23'1 1.7
2017-Jan-19 16:33N 31°31' E 121°23'106953.1
2017-Jan-19 16:33N 31°24' E 121°31'4007360590.9
2017-Jan-19 16:32S 27°27' E 153°06'4029426623.4
2017-Jan-19 16:32N 31°40' E 121°13'1425349.3
2017-Jan-19 16:32N 31°30' E 121°24'11679.5
2017-Jan-19 16:32N 31°29' E 121°23'158.5
2017-Jan-19 16:31N 31°30' E 121°24'17177.9
2017-Jan-19 16:25N 31°42' E 121°10'184885.7
2017-Jan-19 16:25N 31°29' E 121°25'124.9
2017-Jan-19 16:23N 31°30' E 121°24'2 2.2
2017-Jan-19 15:33N 31°29' E 121°25'40141806155.3
2017-Jan-19 15:33S 27°27' E 153°06'4016344249.6
2017-Jan-19 15:32N 31°30' E 121°23'2154.7
2017-Jan-19 15:31N 31°30' E 121°24'18927.3
2017-Jan-19 15:30N 31°42' E 121°10'173042.2
2017-Jan-19 15:30N 31°30' E 121°24'13384.5
2017-Jan-19 15:28N 31°40' E 121°13'1376.9
2017-Jan-19 15:18N 31°31' E 121°23'1 7.1
2017-Jan-19 15:10N 31°30' E 121°24'1727.3
2017-Jan-19 14:33N 31°42' E 121°10'121468.6
2017-Jan-19 14:33N 31°33' E 121°19'42473.9
2017-Jan-19 14:33N 31°30' E 121°23'4016722928.3
2017-Jan-19 14:33S 27°27' E 153°06'4015321179.1
2017-Jan-19 14:32N 31°30' E 121°24'116.1
2017-Jan-19 14:29N 31°30' E 121°24'034.6
2017-Jan-19 14:29N 31°30' E 121°24'13503.0
2017-Jan-19 14:27N 31°40' E 121°13'13358.3
2017-Jan-19 14:25N 31°31' E 121°23'1 1.0
2017-Jan-19 13:33N 31°30' E 121°24'133092.9
2017-Jan-19 13:33N 31°39' E 121°13'4028402847.7
2017-Jan-19 13:33S 27°27' E 153°06'4029853238.2
2017-Jan-19 13:32N 31°40' E 121°13'13727.3
2017-Jan-19 13:31N 31°30' E 121°23'160.4
2017-Jan-19 13:30N 31°30' E 121°24'1107.6
2017-Jan-19 13:30N 31°30' E 121°24'2 4.2
2017-Jan-19 13:07N 31°31' E 121°23'1 1.5
2017-Jan-19 12:33N 31°30' E 121°24'135367.2
2017-Jan-19 12:33N 31°40' E 121°13'4029296016.6
2017-Jan-19 12:32S 27°27' E 153°06'4015150576.5
2017-Jan-19 12:31N 31°30' E 121°24'137.6
2017-Jan-19 12:30N 31°30' E 121°24'259.5
2017-Jan-19 12:28N 31°30' E 121°23'010.9
2017-Jan-19 12:27N 31°31' E 121°23'2 1.7
2017-Jan-19 11:33N 31°30' E 121°24'162.3
2017-Jan-19 11:33N 31°30' E 121°24'4015903482.0
2017-Jan-19 11:33S 27°27' E 153°06'4029467908.5
2017-Jan-19 11:32N 31°40' E 121°13'13661.5
2017-Jan-19 11:31N 31°30' E 121°24'114.3
2017-Jan-19 11:27N 31°30' E 121°23'16448.6
2017-Jan-19 11:25N 31°42' E 121°10'16131.7
2017-Jan-19 11:17N 31°31' E 121°23'1 1.1
2017-Jan-19 10:33N 31°30' E 121°24'4015301161.0
2017-Jan-19 10:32S 27°27' E 153°06'4015321188.7
2017-Jan-19 10:32N 31°30' E 121°24'0 0.0
2017-Jan-19 10:30N 31°30' E 121°24'178.9
2017-Jan-19 10:29N 31°30' E 121°24'132670.7
2017-Jan-19 10:29N 31°40' E 121°13'4109.0
2017-Jan-19 10:27N 31°42' E 121°10'161151.2
2017-Jan-19 10:26N 31°30' E 121°23'17301.5
2017-Jan-19 10:23N 31°15' E 121°31'1619.5
2017-Jan-19 09:33N 31°30' E 121°24'401514455527.5
2017-Jan-19 09:33S 27°27' E 153°06'40152409293.7
2017-Jan-19 09:33N 31°30' E 121°24'135.7
2017-Jan-19 09:31N 31°30' E 121°23'241.6
2017-Jan-19 09:29N 31°30' E 121°24'14540.4
2017-Jan-19 09:27N 31°40' E 121°13'457.3
2017-Jan-19 09:23N 31°42' E 121°10'33857.1
2017-Jan-19 09:21N 31°15' E 121°31'17495.6
2017-Jan-19 09:19N 31°31' E 121°23'19123.6
2017-Jan-19 09:10N 31°44' E 121°07'40366601.4
2017-Jan-19 08:33S 27°27' E 153°06'4033806512.8
2017-Jan-19 08:33N 31°42' E 121°10'17527.9
2017-Jan-19 08:31N 31°30' E 121°24'13923.5
2017-Jan-19 08:30N 31°40' E 121°13'13621.9
2017-Jan-19 08:28N 31°30' E 121°24'168.6
2017-Jan-19 08:28N 31°31' E 121°23'291.2
2017-Jan-19 08:27N 31°30' E 121°24'0 0.0
2017-Jan-19 08:26N 31°30' E 121°24'216.3
2017-Jan-19 08:20N 31°30' E 121°23'2089.2
2017-Jan-19 08:07N 31°11' E 121°28'32652.0
2017-Jan-19 08:04N 31°40' E 121°12'611.8
2017-Jan-19 07:33N 31°36' E 121°17'4024517356.2
2017-Jan-19 07:33S 27°27' E 153°06'40153613361.8
2017-Jan-19 07:33N 31°30' E 121°24'11139.4
2017-Jan-19 07:28N 31°37' E 121°16'275779.4
2017-Jan-19 07:28N 31°13' E 121°30'191096.9
2017-Jan-19 07:27N 31°30' E 121°23'144.5
2017-Jan-19 07:26N 31°30' E 121°24'13113.5
2017-Jan-19 07:19N 31°40' E 121°13'1215.6
2017-Jan-19 06:33N 31°31' E 121°23'27581.9
2017-Jan-19 06:33N 31°33' E 121°21'4019688993.3
2017-Jan-19 06:33S 27°27' E 153°06'4015602307.3
2017-Jan-19 06:32N 31°30' E 121°24'155.8
2017-Jan-19 06:32N 31°30' E 121°24'172021.8
2017-Jan-19 06:31N 31°42' E 121°10'16675.2
2017-Jan-19 06:30N 31°31' E 121°23'0 3.1
2017-Jan-19 06:25N 31°30' E 121°23'175.7
2017-Jan-19 06:24N 31°30' E 121°24'0 5.2
2017-Jan-19 06:19N 31°30' E 121°24'14960.1
2017-Jan-19 06:18N 31°40' E 121°13'40295368.2
2017-Jan-19 05:33S 27°27' E 153°06'4032468288.0
2017-Jan-19 05:32N 31°42' E 121°10'183002.6
2017-Jan-19 05:32N 31°30' E 121°24'3232.0
2017-Jan-19 05:31N 31°31' E 121°22'1414.7
2017-Jan-19 05:31N 31°30' E 121°23'1377.4
2017-Jan-19 05:31N 31°30' E 121°24'3875.4
2017-Jan-19 05:31N 31°29' E 121°27'3164.2
2017-Jan-19 05:29N 31°30' E 121°24'2164.1
2017-Jan-19 05:29N 31°28' E 121°26'358.7
2017-Jan-19 05:26N 31°31' E 121°23'8 9.5
2017-Jan-19 04:33N 31°25' E 121°31'40084809783.6
2017-Jan-19 04:33S 27°27' E 153°06'40221608940.9
2017-Jan-19 04:33N 31°35' E 121°18'6502.2
2017-Jan-19 04:32N 31°30' E 121°23'3170.0
2017-Jan-19 04:31N 31°28' E 121°26'19631.0
2017-Jan-19 04:29N 31°42' E 121°10'1712165.6
2017-Jan-19 04:29N 31°30' E 121°24'132.5
2017-Jan-19 04:28N 31°30' E 121°24'2104.1
2017-Jan-19 04:27N 31°31' E 121°23'150.3
2017-Jan-19 04:26N 31°30' E 121°24'40154541.5
2017-Jan-19 03:33S 27°27' E 153°06'4015516266.0
2017-Jan-19 03:32N 31°30' E 121°24'123070.3
2017-Jan-19 03:32N 31°23' E 121°35'13590.6
2017-Jan-19 03:31N 31°31' E 121°23'21105.6
2017-Jan-19 03:31N 31°29' E 121°24'1107.9
2017-Jan-19 03:30N 31°30' E 121°24'134037.5
2017-Jan-19 03:30N 31°40' E 121°13'3292.9
2017-Jan-19 03:29N 31°42' E 121°10'152606.6
2017-Jan-19 03:29N 31°31' E 121°22'12316.1
2017-Jan-19 03:27N 31°39' E 121°13'14444.4
2017-Jan-19 03:25N 31°30' E 121°24'5394928.3
2017-Jan-19 03:18N 22°34' E 120°15'538242315.2
2017-Jan-19 03:18N 31°28' E 121°26'1318.0
2017-Jan-19 02:33N 31°22' E 121°39'133020.1
2017-Jan-19 02:33N 31°28' E 121°26'2010291.4
2017-Jan-19 02:33N 31°43' E 121°09'40341037194.2
2017-Jan-19 02:33S 27°27' E 153°06'4016272805.4
2017-Jan-19 02:32N 31°31' E 121°23'13778.0
2017-Jan-19 02:31N 31°40' E 121°13'13160.4
2017-Jan-19 02:26N 31°30' E 121°24'017.5
2017-Jan-19 02:25N 31°30' E 121°24'146.7
2017-Jan-19 02:24N 31°30' E 121°24'53919403.7
2017-Jan-19 02:22N 22°34' E 120°14'5452063.4
2017-Jan-19 02:06N 31°36' E 121°17'129.2
2017-Jan-19 02:04N 31°37' E 121°16'2651.7
2017-Jan-19 01:34N 31°21' E 121°41'4000306370.8
2017-Jan-19 01:33S 27°27' E 153°06'4028557747.8
2017-Jan-19 01:32N 31°39' E 121°13'1214082.8
2017-Jan-19 01:32N 31°31' E 121°23'171092.2
2017-Jan-19 01:31N 31°42' E 121°09'5165.3
2017-Jan-19 01:29N 31°39' E 121°13'134530.8
2017-Jan-19 01:29N 31°30' E 121°24'2378.1
2017-Jan-19 01:29N 31°28' E 121°26'150.4
2017-Jan-19 01:27N 31°30' E 121°24'128.6
2017-Jan-19 01:26N 31°30' E 121°24'13120.7
2017-Jan-19 01:19N 31°40' E 121°13'1418.2
2017-Jan-19 00:33N 31°30' E 121°24'401514453003.8
2017-Jan-19 00:33S 27°27' E 153°06'40167229314.4
2017-Jan-19 00:33N 31°31' E 121°23'13429.6
2017-Jan-19 00:31N 31°40' E 121°13'301455.1
2017-Jan-19 00:30N 31°21' E 121°41'17180.8
2017-Jan-19 00:24N 31°30' E 121°24'181294.3
2017-Jan-19 00:23N 31°42' E 121°09'20452.8
2017-Jan-19 00:21N 31°28' E 121°26'211.1
2017-Jan-19 00:09N 31°30' E 121°24'40156603.6
2017-Jan-18 23:33S 27°27' E 153°06'401575288.5
2017-Jan-18 23:30N 31°30' E 121°24'114.9
2017-Jan-18 23:25N 31°31' E 121°23'131750.0
2017-Jan-18 23:25N 31°23' E 121°35'11292.8
2017-Jan-18 23:23N 31°30' E 121°24'110.2
2017-Jan-18 23:19N 31°30' E 121°24'18342.4
2017-Jan-18 23:16N 31°42' E 121°09'5167.8
2017-Jan-18 23:14N 31°40' E 121°13'40295797.4
2017-Jan-18 22:33S 27°27' E 153°06'4006225345.1
2017-Jan-18 22:32N 31°23' E 121°30'9187.1
2017-Jan-18 22:29N 31°30' E 121°24'035.0
2017-Jan-18 22:28N 31°30' E 121°24'1252.5
2017-Jan-18 22:28N 31°31' E 121°23'3738.9
2017-Jan-18 22:28N 31°28' E 121°26'16140.2
2017-Jan-18 22:21N 31°40' E 121°13'133139.0
2017-Jan-18 22:21N 31°46' E 120°60'271889.3
2017-Jan-18 22:20N 31°30' E 121°24'19371.6
2017-Jan-18 22:17N 31°43' E 121°09'34193.9
2017-Jan-18 22:07N 31°15' E 121°31'2137.4
2017-Jan-18 21:33N 31°33' E 121°19'6885.9
2017-Jan-18 21:33N 31°30' E 121°24'401514453613.2
2017-Jan-18 21:33S 27°27' E 153°06'4013262689.9
2017-Jan-18 21:32N 31°28' E 121°26'248.5
2017-Jan-18 21:29N 31°30' E 121°24'13566.8
2017-Jan-18 21:28N 31°40' E 121°13'13623.7
2017-Jan-18 21:26N 31°30' E 121°24'1865.6
2017-Jan-18 21:10N 31°43' E 121°09'1829.2
2017-Jan-18 20:33N 31°30' E 121°24'101563.5
2017-Jan-18 20:33N 31°37' E 121°16'10205.9
2017-Jan-18 20:30N 31°30' E 121°24'1352.1
2017-Jan-18 20:30N 31°30' E 121°24'401514455761.4
2017-Jan-18 20:30S 27°27' E 153°06'403389633.3
2017-Jan-18 20:27N 31°43' E 121°09'0 4.5
2017-Jan-18 20:24N 31°42' E 121°08'20129.6
2017-Jan-18 20:15N 31°28' E 121°26'1687.5
2017-Jan-18 20:04N 31°40' E 121°13'40297715.4
2017-Jan-18 19:33S 27°27' E 153°06'4028906313.3
2017-Jan-18 19:32N 31°39' E 121°14'126335.3
2017-Jan-18 19:32N 31°30' E 121°24'143655.9
2017-Jan-18 19:32N 31°40' E 121°12'141707.8
2017-Jan-18 19:32N 31°30' E 121°24'13312.6
2017-Jan-18 19:29N 31°40' E 121°13'5315.2
2017-Jan-18 19:28N 31°42' E 121°09'18175.2
2017-Jan-18 19:22N 31°30' E 121°24'2429.0
2017-Jan-18 19:22N 31°28' E 121°26'910.8
2017-Jan-18 18:33N 31°35' E 121°19'4022381054.6
2017-Jan-18 18:33S 27°27' E 153°06'4016535406.0
2017-Jan-18 18:32N 31°30' E 121°24'1108.4
2017-Jan-18 18:32N 31°30' E 121°24'18800.9
2017-Jan-18 18:31N 31°42' E 121°09'171605.7
2017-Jan-18 18:30N 31°31' E 121°23'155.5
2017-Jan-18 18:29N 31°30' E 121°24'239.1
2017-Jan-18 18:26N 31°28' E 121°26'1547.3
2017-Jan-18 18:06N 31°40' E 121°13'1221.9
2017-Jan-18 17:33N 31°31' E 121°22'40172410026.5
2017-Jan-18 17:33S 27°27' E 153°06'403385414.7
2017-Jan-18 17:30N 31°42' E 121°09'197419.3
2017-Jan-18 17:30N 31°30' E 121°24'2102.4
2017-Jan-18 17:29N 31°31' E 121°23'1518.0
2017-Jan-18 17:29N 31°30' E 121°24'0 2.1
2017-Jan-18 17:18N 31°30' E 121°24'13190.0
2017-Jan-18 17:14N 31°40' E 121°13'1594.8
2017-Jan-18 17:04N 31°29' E 121°26'40147636.8
2017-Jan-18 16:33S 27°27' E 153°06'4015233113.9
2017-Jan-18 16:32N 31°30' E 121°24'128.6
2017-Jan-18 16:30N 31°30' E 121°24'123.5
2017-Jan-18 16:27N 31°29' E 121°25'144.1
2017-Jan-18 16:25N 31°30' E 121°24'1 9.8
2017-Jan-18 16:19N 31°31' E 121°23'17308.8
2017-Jan-18 16:15N 31°42' E 121°09'1825.7
2017-Jan-18 15:33N 31°30' E 121°24'4015295009.3
2017-Jan-18 15:33S 27°27' E 153°06'401554343.7
2017-Jan-18 15:28N 31°30' E 121°24'18261.4
2017-Jan-18 15:24N 31°42' E 121°09'193710.5
2017-Jan-18 15:24N 31°30' E 121°24'14143.6
2017-Jan-18 15:18N 31°40' E 121°13'15386.9
2017-Jan-18 15:16N 31°29' E 121°25'228.0
2017-Jan-18 15:11N 31°31' E 121°23'2 2.5
2017-Jan-18 14:33N 31°30' E 121°24'4015802957.4
2017-Jan-18 14:33S 27°27' E 153°06'40154818558.0
2017-Jan-18 14:33N 31°30' E 121°24'182227.0
2017-Jan-18 14:32N 31°42' E 121°09'17421.7
2017-Jan-18 14:30N 31°31' E 121°23'2632.7
2017-Jan-18 14:30N 31°29' E 121°25'1289.4
2017-Jan-18 14:29N 31°30' E 121°24'13699.4
2017-Jan-18 14:28N 31°40' E 121°13'1415.3
2017-Jan-18 13:33N 31°30' E 121°24'118.1
2017-Jan-18 13:31N 31°30' E 121°24'4015262828.7
2017-Jan-18 13:30S 27°27' E 153°06'401434325.8
2017-Jan-18 13:23N 31°29' E 121°25'15243.7
2017-Jan-18 13:19N 31°40' E 121°13'27813.5
2017-Jan-18 13:17N 31°19' E 121°34'14671.7
2017-Jan-18 13:16N 31°31' E 121°23'17279.1
2017-Jan-18 13:12N 31°42' E 121°09'1725.9
2017-Jan-18 12:33N 31°31' E 121°23'40167229371.6
2017-Jan-18 12:33S 27°27' E 153°06'40153613289.0
2017-Jan-18 12:33N 31°30' E 121°24'1 9.3
2017-Jan-18 12:28N 31°30' E 121°24'0 8.4
2017-Jan-18 12:26N 31°30' E 121°24'174.6
2017-Jan-18 12:25N 31°29' E 121°25'12151.7
2017-Jan-18 12:20N 31°19' E 121°34'31522.1
2017-Jan-18 12:16N 31°42' E 121°09'1926.1
2017-Jan-18 11:33N 31°30' E 121°24'4015321177.3
2017-Jan-18 11:33S 27°27' E 153°06'4034764244.8
2017-Jan-18 11:32N 31°42' E 121°09'181618.6
2017-Jan-18 11:32N 31°30' E 121°24'158.2
2017-Jan-18 11:31N 31°31' E 121°23'144.6
2017-Jan-18 11:29N 31°30' E 121°24'117.2
2017-Jan-18 11:25N 31°29' E 121°25'1675.0
2017-Jan-18 11:12N 31°14' E 121°30'39986151.4
2017-Jan-18 10:33S 27°27' E 153°06'4015328489.5
2017-Jan-18 10:32N 31°30' E 121°24'14121.9
2017-Jan-18 10:25N 31°40' E 121°13'13650.3
2017-Jan-18 10:24N 31°30' E 121°24'035.4
2017-Jan-18 10:23N 31°30' E 121°24'138.2
2017-Jan-18 10:22N 31°31' E 121°23'14163.0
2017-Jan-18 10:16N 31°19' E 121°34'3497.4
2017-Jan-18 10:16N 31°21' E 121°30'9470.8
2017-Jan-18 10:15N 31°29' E 121°25'1217.7
2017-Jan-18 09:33N 31°19' E 121°34'4001480178.8
2017-Jan-18 09:33S 27°27' E 153°06'4006320473.8
2017-Jan-18 09:32N 31°24' E 121°32'106934.7
2017-Jan-18 09:32N 31°30' E 121°24'121.9
2017-Jan-18 09:28N 31°29' E 121°25'110.6
2017-Jan-18 09:24N 31°30' E 121°24'125.4
2017-Jan-18 09:22N 31°30' E 121°24'0 0.0
2017-Jan-18 08:33N 31°30' E 121°24'4015516275.9
2017-Jan-18 08:33S 27°27' E 153°06'4003423858.3
2017-Jan-18 08:32N 31°22' E 121°35'121447.5
2017-Jan-18 08:32N 31°30' E 121°24'122.4
2017-Jan-18 08:30N 31°30' E 121°24'136.6
2017-Jan-18 08:28N 31°29' E 121°25'15262.5
2017-Jan-18 08:24N 31°40' E 121°13'40294691.2
2017-Jan-18 07:33S 27°27' E 153°06'4016307575.6
2017-Jan-18 07:32N 31°30' E 121°24'13761.4
2017-Jan-18 07:31N 31°39' E 121°13'144950.9
2017-Jan-18 07:31N 31°30' E 121°24'12546.0
2017-Jan-18 07:29N 31°22' E 121°36'2672.7
2017-Jan-18 07:08N 31°40' E 121°13'2645.3
2017-Jan-18 06:33N 31°22' E 121°35'4003360301.8
2017-Jan-18 06:33S 27°27' E 153°06'4025337004.7
2017-Jan-18 06:32N 31°37' E 121°16'101167.2
2017-Jan-18 06:31N 31°30' E 121°24'91789.4
2017-Jan-18 06:31N 31°37' E 121°17'1049.3
2017-Jan-18 06:20N 31°30' E 121°24'121.3
2017-Jan-18 06:18N 31°30' E 121°24'115.4
2017-Jan-18 06:13N 31°29' E 121°25'4 6.0
2017-Jan-18 05:33N 31°32' E 121°22'3407.7
2017-Jan-18 05:33N 31°30' E 121°24'4015602221.4
2017-Jan-18 05:33S 27°27' E 153°06'4003554313.9
2017-Jan-18 05:32N 31°22' E 121°35'145059.4
2017-Jan-18 05:32N 31°32' E 121°23'240.5
2017-Jan-18 05:29N 31°30' E 121°24'148.2
2017-Jan-18 05:28N 31°29' E 121°25'119.2
2017-Jan-18 05:23N 31°30' E 121°24'40154755.1
2017-Jan-18 04:33S 27°27' E 153°06'40142890194.5
2017-Jan-18 04:33N 31°29' E 121°25'1258.4
2017-Jan-18 04:32N 31°30' E 121°24'41491.3
2017-Jan-18 04:32N 31°28' E 121°28'3189.0
2017-Jan-18 04:31N 31°30' E 121°24'1 9.0
2017-Jan-18 04:26N 31°29' E 121°25'2556.9
2017-Jan-18 04:26N 31°31' E 121°23'664.9
2017-Jan-18 04:20N 31°27' E 121°29'758.1
2017-Jan-18 04:12N 31°22' E 121°36'40036029.7
2017-Jan-18 03:33S 27°27' E 153°06'359061258.2
2017-Jan-18 03:29N 22°34' E 120°13'5411829.6
2017-Jan-18 03:11N 31°32' E 121°20'5201.9
2017-Jan-18 03:10N 31°29' E 121°25'363.9
2017-Jan-18 03:07N 31°31' E 121°22'5 9.0
2017-Jan-18 02:33N 31°35' E 121°18'74126.5
2017-Jan-18 02:33N 31°30' E 121°24'51161.6
2017-Jan-18 02:33N 31°33' E 121°20'402072718.7
2017-Jan-18 02:30S 27°27' E 153°06'40157226539.7
2017-Jan-18 02:30N 31°30' E 121°24'1616.3
2017-Jan-18 01:32N 31°14' E 121°29'2515007.2
2017-Jan-18 01:32N 31°37' E 121°16'103828.3
2017-Jan-18 01:32N 31°30' E 121°24'121117.1
2017-Jan-18 01:31N 31°39' E 121°14'131014.2
2017-Jan-18 01:30N 31°30' E 121°24'401568823.8
2017-Jan-18 01:27S 27°27' E 153°06'401421995.5
2017-Jan-18 01:16N 31°29' E 121°25'1 1.0
2017-Jan-18 00:33N 31°30' E 121°24'152005.9
2017-Jan-18 00:33N 31°40' E 121°12'40301813457.7
2017-Jan-18 00:33S 27°27' E 153°06'35901436028.9
2017-Jan-18 00:32N 22°35' E 120°15'5398181.2
2017-Jan-18 00:29N 31°30' E 121°24'129.2
2017-Jan-18 00:26N 31°29' E 121°25'40144524.5
2017-Jan-17 23:33S 27°27' E 153°06'4014656868.2
2017-Jan-17 23:32N 31°29' E 121°25'120.4
2017-Jan-17 23:28N 31°30' E 121°24'1 3.5
2017-Jan-17 23:19N 31°30' E 121°24'40155227.2
2017-Jan-17 22:33S 27°27' E 153°06'401599010.1
2017-Jan-17 22:30N 31°30' E 121°24'110.7
2017-Jan-17 22:27N 31°30' E 121°24'18116.1
2017-Jan-17 22:17N 31°42' E 121°09'1824.8
2017-Jan-17 21:33N 31°30' E 121°24'4015516193.2
2017-Jan-17 21:33S 27°27' E 153°06'4028185902.4
2017-Jan-17 21:31N 31°39' E 121°14'12108.1
2017-Jan-17 21:24N 31°30' E 121°24'5 6.1
2017-Jan-17 20:33N 31°34' E 121°20'4021295397.3
2017-Jan-17 20:33S 27°27' E 153°06'4015187707.7
2017-Jan-17 20:31N 31°30' E 121°24'12144.6
2017-Jan-17 20:31N 31°30' E 121°24'1 6.3
2017-Jan-17 20:19N 31°29' E 121°25'40145245.6
2017-Jan-17 19:33S 27°27' E 153°06'40131111374.6
2017-Jan-17 19:32N 31°29' E 121°27'233.5
2017-Jan-17 19:29N 31°30' E 121°24'116.9
2017-Jan-17 19:27N 31°30' E 121°24'128.8
2017-Jan-17 19:24N 31°29' E 121°25'251771.5
2017-Jan-17 19:23N 31°19' E 120°58'40184778.9
2017-Jan-17 18:33S 27°27' E 153°06'4015107875.7
2017-Jan-17 18:30N 31°30' E 121°24'153.6
2017-Jan-17 18:30N 31°30' E 121°24'1660.3
2017-Jan-17 18:14N 31°14' E 121°30'1724.9
2017-Jan-17 17:33N 31°30' E 121°24'4015289105.9
2017-Jan-17 17:33S 27°27' E 153°06'401548828.3
2017-Jan-17 17:28N 31°30' E 121°24'1617.4
2017-Jan-17 16:33N 31°14' E 121°29'399963421.8
2017-Jan-17 16:30S 27°27' E 153°06'4015289059.7
2017-Jan-17 16:29N 31°30' E 121°24'1 2.3
2017-Jan-17 16:09N 31°29' E 121°25'1 1.3
2017-Jan-17 15:33N 31°30' E 121°24'4015321177.4
2017-Jan-17 15:33S 27°27' E 153°06'4015174157.6
2017-Jan-17 15:31N 31°30' E 121°24'1 7.3
2017-Jan-17 15:21N 31°29' E 121°25'40145012.5
2017-Jan-17 14:33S 27°27' E 153°06'4014760571.8
2017-Jan-17 14:32N 31°29' E 121°25'121.7
2017-Jan-17 14:30N 31°29' E 121°24'144.7
2017-Jan-17 14:29N 31°30' E 121°24'1 0.6
2017-Jan-17 13:33N 31°30' E 121°24'40151204417.0
2017-Jan-17 13:33S 27°27' E 153°06'401434002.3
2017-Jan-17 13:26N 31°29' E 121°25'1267.3
2017-Jan-17 13:25N 31°30' E 121°24'0 0.0
2017-Jan-17 12:33N 31°30' E 121°24'4015370646.0
2017-Jan-17 12:33S 27°27' E 153°06'401916405.1
2017-Jan-17 12:18N 31°32' E 121°20'560.0
2017-Jan-17 12:13N 31°29' E 121°25'40146033.9
2017-Jan-17 11:33S 27°27' E 153°06'4014110314.3
2017-Jan-17 11:30N 31°29' E 121°25'126.8
2017-Jan-17 11:29N 31°30' E 121°24'1105.2
2017-Jan-17 11:28N 31°30' E 121°24'40154309.7
2017-Jan-17 10:33S 27°27' E 153°06'401573375.0
2017-Jan-17 10:29N 31°30' E 121°24'110.5
2017-Jan-17 10:26N 31°30' E 121°24'128.3
2017-Jan-17 10:25N 31°29' E 121°25'40144628.9
2017-Jan-17 09:33S 27°27' E 153°06'4015178465.4
2017-Jan-17 09:31N 31°30' E 121°24'1 8.4
2017-Jan-17 09:22N 31°29' E 121°25'1 1.0
2017-Jan-17 08:33N 31°30' E 121°24'40153613377.7
2017-Jan-17 08:33S 27°27' E 153°06'401997750.1
2017-Jan-17 08:30N 31°32' E 121°20'5270.5
2017-Jan-17 08:29N 31°29' E 121°25'1131.0
2017-Jan-17 08:28N 31°30' E 121°24'40154310.0
2017-Jan-17 07:33S 27°27' E 153°06'4015283404.6
2017-Jan-17 07:32N 31°30' E 121°24'1 2.1
2017-Jan-17 07:14N 31°30' E 121°24'155.8
2017-Jan-17 07:13N 31°29' E 121°25'17203.5
2017-Jan-17 07:08N 31°41' E 121°11'1628.0
2017-Jan-17 06:34N 31°30' E 121°24'12947.8
2017-Jan-17 06:33N 31°38' E 121°15'40271449615.1
2017-Jan-17 06:33S 27°27' E 153°06'40152065094.5
2017-Jan-17 06:32N 31°30' E 121°24'123.3
2017-Jan-17 06:29N 31°29' E 121°25'5 5.7
2017-Jan-17 05:33N 31°33' E 121°21'40207235455.8
2017-Jan-17 05:33S 27°27' E 153°06'4015283401.1
2017-Jan-17 05:32N 31°30' E 121°24'149.7
2017-Jan-17 05:31N 31°29' E 121°25'1 5.2
2017-Jan-17 05:15N 31°30' E 121°24'449.5
2017-Jan-17 05:10N 31°32' E 121°20'40196416.6
2017-Jan-17 04:33S 27°27' E 153°06'4015963540.4
2017-Jan-17 04:32N 31°30' E 121°24'116.4
2017-Jan-17 04:30N 31°30' E 121°24'449.4
2017-Jan-17 04:25N 31°32' E 121°20'6194.2
2017-Jan-17 04:23N 31°29' E 121°25'0 0.1
2017-Jan-17 03:33N 31°29' E 121°25'401414451119.4
2017-Jan-17 03:33S 27°27' E 153°06'401954601.1
2017-Jan-17 03:28N 31°32' E 121°20'4266.5
2017-Jan-17 03:27N 31°30' E 121°24'195.6
2017-Jan-17 03:27N 31°30' E 121°24'414372538.6
2017-Jan-17 03:27N 38°23' E 121°02'2 2.8
2017-Jan-17 02:33N 38°24' E 120°60'4392272605.9
2017-Jan-17 02:33S 27°27' E 153°06'4015656965.4
2017-Jan-17 02:32N 31°30' E 121°24'118.8
2017-Jan-17 02:30N 31°30' E 121°24'4116.0
2017-Jan-17 02:28N 31°32' E 121°20'686.9
2017-Jan-17 02:24N 31°29' E 121°25'536633.6
2017-Jan-17 01:34N 22°37' E 120°16'53633265.2
2017-Jan-17 01:33N 31°29' E 121°25'40147225479.9
2017-Jan-17 01:33S 27°27' E 153°06'402349257.8
2017-Jan-17 01:28N 31°35' E 121°18'8182.6
2017-Jan-17 01:25N 31°30' E 121°24'1 9.4
2017-Jan-17 01:21N 31°30' E 121°24'40154950.3
2017-Jan-17 00:33S 27°27' E 153°06'401538139.6
2017-Jan-17 00:26N 31°30' E 121°24'53947358.9
2017-Jan-17 00:26N 22°34' E 120°13'5392168.3
2017-Jan-17 00:11N 31°30' E 121°24'123.6
2017-Jan-17 00:09N 31°29' E 121°25'40146149.4
2017-Jan-16 23:30S 27°27' E 153°06'4015963682.5
2017-Jan-16 23:29N 31°30' E 121°24'111.1
2017-Jan-16 23:26N 31°30' E 121°24'112.4
2017-Jan-16 23:22N 31°29' E 121°25'1 1.3
2017-Jan-16 22:33N 31°29' E 121°24'4015277943.1
2017-Jan-16 22:32S 27°27' E 153°06'401489204.8
2017-Jan-16 22:30N 31°29' E 121°25'126.9
2017-Jan-16 22:27N 31°30' E 121°24'118.2
2017-Jan-16 22:25N 31°30' E 121°24'1 0.8
2017-Jan-16 21:33N 31°30' E 121°24'40151606165.6
2017-Jan-16 21:33S 27°27' E 153°06'4014109480.0
2017-Jan-16 21:30N 31°29' E 121°25'10902.1
2017-Jan-16 21:30N 31°24' E 121°35'111080.2
2017-Jan-16 21:29N 31°30' E 121°24'353.3
2017-Jan-16 21:26N 31°31' E 121°21'40184529.9
2017-Jan-16 20:33S 27°27' E 153°06'4019723497.3
2017-Jan-16 20:32N 31°32' E 121°20'15581.9
2017-Jan-16 20:31N 31°24' E 121°35'10303.4
2017-Jan-16 20:29N 31°29' E 121°25'1109.0
2017-Jan-16 20:28N 31°30' E 121°24'120.4
2017-Jan-16 20:26N 31°30' E 121°24'4202108.6
2017-Jan-16 20:15N 38°29' E 120°54'43996281.7
2017-Jan-16 19:33S 27°27' E 153°06'4021425751.8
2017-Jan-16 19:32N 31°34' E 121°19'171305.8
2017-Jan-16 19:31N 31°24' E 121°35'10977.6
2017-Jan-16 19:31N 31°29' E 121°25'175.7
2017-Jan-16 19:30N 31°30' E 121°24'142.9
2017-Jan-16 19:29N 31°30' E 121°24'4197357.3
2017-Jan-16 19:25N 38°28' E 120°55'419478.8
2017-Jan-16 18:33N 31°30' E 121°24'417500816.1
2017-Jan-16 18:33N 38°27' E 120°57'4395879053.9
2017-Jan-16 18:32S 27°27' E 153°06'4005252945.8
2017-Jan-16 18:32N 31°24' E 121°35'1165.6
2017-Jan-16 18:22N 31°30' E 121°24'16146.4
2017-Jan-16 18:15N 31°41' E 121°11'2735.9
2017-Jan-16 17:31N 31°24' E 121°35'223592.5
2017-Jan-16 17:31N 31°38' E 121°15'4027230098.9
2017-Jan-16 17:30S 27°27' E 153°06'399994709.4
2017-Jan-16 17:27N 31°15' E 121°31'16100.7
2017-Jan-16 17:18N 31°30' E 121°24'0 2.4
2017-Jan-16 17:07N 31°29' E 121°25'119.7
2017-Jan-16 17:04N 31°30' E 121°24'1121.9
2017-Jan-16 16:33N 31°24' E 121°35'4005351650.0
2017-Jan-16 16:33S 27°27' E 153°06'401781244.6
2017-Jan-16 16:30N 31°31' E 121°22'398.9
2017-Jan-16 16:28N 31°30' E 121°24'1 7.1
2017-Jan-16 16:23N 31°30' E 121°24'4654730.8
2017-Jan-16 16:17N 24°18' E 118°10'4676345.4
2017-Jan-16 16:13N 31°33' E 121°20'3 4.4
2017-Jan-16 15:33N 31°35' E 121°17'192241.4
2017-Jan-16 15:32N 31°24' E 121°35'11330.4
2017-Jan-16 15:30N 31°30' E 121°24'162.3
2017-Jan-16 15:30N 31°30' E 121°24'4015760692.5
2017-Jan-16 15:29S 27°27' E 153°06'401750209.3
2017-Jan-16 15:25N 31°31' E 121°24'1415.9
2017-Jan-16 14:31N 31°41' E 121°11'2631677.1
2017-Jan-16 14:31N 31°24' E 121°35'4005208951.4
2017-Jan-16 14:29S 27°27' E 153°06'401510729.8
2017-Jan-16 14:07N 31°30' E 121°24'40156975.3
2017-Jan-16 13:32S 27°27' E 153°06'4005248575.2
2017-Jan-16 13:32N 31°24' E 121°35'1138.8
2017-Jan-16 13:14N 31°30' E 121°24'160.9
2017-Jan-16 13:14N 31°30' E 121°24'71006.8
2017-Jan-16 13:13N 31°25' E 121°31'40085860.6
2017-Jan-16 12:32S 27°27' E 153°06'4005192236.4
2017-Jan-16 12:31N 31°24' E 121°35'1055.9
2017-Jan-16 12:20N 31°30' E 121°24'810.1
2017-Jan-16 11:33N 31°25' E 121°32'4007343458.4
2017-Jan-16 11:32S 27°27' E 153°06'4015425089.5
2017-Jan-16 11:32N 31°30' E 121°24'16761.4
2017-Jan-16 11:31N 31°16' E 121°33'16320.5
2017-Jan-16 11:28N 31°30' E 121°24'40154368.5
2017-Jan-16 10:32S 27°27' E 153°06'401575287.7
2017-Jan-16 10:29N 31°30' E 121°24'114.2
2017-Jan-16 10:27N 31°30' E 121°24'218.5
2017-Jan-16 10:21N 31°30' E 121°23'5 6.7
2017-Jan-16 09:33N 31°34' E 121°18'4022353127.0
2017-Jan-16 09:32S 27°27' E 153°06'40151111953.5
2017-Jan-16 09:32N 31°30' E 121°24'128.6
2017-Jan-16 09:31N 31°30' E 121°24'40154110.7
2017-Jan-16 08:32S 27°27' E 153°06'401520161.3
2017-Jan-16 08:20N 31°30' E 121°24'0 0.1
2017-Jan-16 07:33N 31°30' E 121°24'4016277996.5
2017-Jan-16 07:33S 27°27' E 153°06'4015481779.2
2017-Jan-16 07:32N 31°30' E 121°24'58444.8
2017-Jan-16 07:24N 31°58' E 120°25'40684723.0
2017-Jan-16 06:32S 27°27' E 153°06'4015144534.7
2017-Jan-16 06:31N 31°30' E 121°24'58769.3
2017-Jan-16 06:26N 31°58' E 120°25'46138.1
2017-Jan-16 06:06N 31°38' E 121°14'610.8
2017-Jan-16 05:33N 31°35' E 121°19'524657.3
2017-Jan-16 05:33N 31°58' E 120°25'4068861469.1
2017-Jan-16 05:32S 27°27' E 153°06'4015145994.9
2017-Jan-16 05:31N 31°30' E 121°24'1391.2
2017-Jan-16 05:22N 31°39' E 121°13'4091403.3
2017-Jan-16 05:04N 38°28' E 120°56'391756.4
2017-Jan-16 04:33N 31°58' E 120°25'406861276.4
2017-Jan-16 04:29S 27°27' E 153°06'4396134128.6
2017-Jan-16 04:27N 38°28' E 120°57'4197079.5
2017-Jan-16 04:24N 31°30' E 121°24'0 0.1
2017-Jan-16 03:33N 31°30' E 121°24'4015555876.2
2017-Jan-16 03:32S 27°27' E 153°06'40152065059.8
2017-Jan-16 03:32N 31°30' E 121°24'572023.0
2017-Jan-16 03:31N 31°58' E 120°25'3904329.8
2017-Jan-16 03:25N 38°27' E 120°55'4333098.5
2017-Jan-16 03:17N 31°15' E 121°31'5253210.3
2017-Jan-16 03:07N 22°34' E 120°13'9531701.0
2017-Jan-16 02:33N 38°27' E 120°53'41860214.2
2017-Jan-16 02:33N 31°30' E 121°24'4015466230.9
2017-Jan-16 02:32S 27°27' E 153°06'4068108482.1
2017-Jan-16 02:30N 31°58' E 120°25'5633669.7
2017-Jan-16 02:21N 22°35' E 120°13'563711.0
2017-Jan-16 01:33N 31°58' E 120°25'39053960.3
2017-Jan-16 01:33N 38°27' E 120°51'4398395840.1
2017-Jan-16 01:32S 27°27' E 153°06'401558763.2
2017-Jan-16 01:28N 31°30' E 121°24'174.0
2017-Jan-16 01:28N 31°30' E 121°24'15285.1
2017-Jan-16 01:25N 31°23' E 121°40'2064.9
2017-Jan-16 01:06N 31°33' E 121°19'40207236.0
2017-Jan-16 00:32S 27°27' E 153°06'4015133824.3
2017-Jan-16 00:31N 31°30' E 121°24'1517959.3
2017-Jan-16 00:31N 31°23' E 121°40'11372.9
2017-Jan-16 00:29N 31°15' E 121°31'4352262.0
2017-Jan-16 00:17N 38°28' E 120°48'4192791.3
2017-Jan-16 00:08N 31°30' E 121°24'1627.8
2017-Jan-15 23:33N 31°15' E 121°31'3999306293.7
2017-Jan-15 23:32S 27°27' E 153°06'401586030.1
2017-Jan-15 23:30N 31°30' E 121°24'188.8
2017-Jan-15 23:29N 31°30' E 121°24'16575.8
2017-Jan-15 23:28N 31°23' E 121°40'4641120.7
2017-Jan-15 23:03N 24°18' E 118°10'476945.3
2017-Jan-15 22:32N 31°59' E 120°27'406814644444.6
2017-Jan-15 22:32S 27°27' E 153°06'4015155409.5
2017-Jan-15 22:31N 31°29' E 121°24'15882.8
2017-Jan-15 22:30N 31°23' E 121°40'165130.3
2017-Jan-15 22:30N 31°30' E 121°24'921.4
2017-Jan-15 22:05N 31°23' E 121°30'917.1
2017-Jan-15 21:33N 31°23' E 121°40'4002266783.7
2017-Jan-15 21:32S 27°27' E 153°06'399984185.8
2017-Jan-15 21:30N 31°15' E 121°31'16560.8
2017-Jan-15 21:28N 31°29' E 121°24'1 4.2
2017-Jan-15 21:18N 31°30' E 121°24'1621.8
2017-Jan-15 20:33N 31°15' E 121°31'3999293790.7
2017-Jan-15 20:32S 27°27' E 153°06'4015437981.2
2017-Jan-15 20:32N 31°30' E 121°24'15364.3
2017-Jan-15 20:29N 31°23' E 121°40'0 0.0
2017-Jan-15 19:33N 31°23' E 121°40'4002496766.9
2017-Jan-15 19:32S 27°27' E 153°06'399970914.7
2017-Jan-15 19:29N 31°15' E 121°31'1112.2
2017-Jan-15 18:33N 31°23' E 121°40'272565.6
2017-Jan-15 18:33N 31°39' E 121°14'4028557672.9
2017-Jan-15 18:32S 27°27' E 153°06'401656690.1
2017-Jan-15 18:28N 31°30' E 121°24'1 6.2
2017-Jan-15 18:22N 31°30' E 121°24'4372813.5
2017-Jan-15 18:12N 38°46' E 121°27'6 9.9
2017-Jan-15 17:33N 38°47' E 121°35'43357702.8
2017-Jan-15 17:33N 31°34' E 121°20'4021657995.6
2017-Jan-15 17:32S 27°27' E 153°06'40022058059.6
2017-Jan-15 17:32N 31°23' E 121°40'421173.0
2017-Jan-15 17:30N 31°47' E 120°59'40123286.2
2017-Jan-15 17:29N 38°28' E 120°57'418449.7
2017-Jan-15 16:33N 31°30' E 121°25'151157.0
2017-Jan-15 16:33N 31°23' E 121°40'37133977.5
2017-Jan-15 16:33N 31°45' E 121°05'40382076540.5
2017-Jan-15 16:32S 27°27' E 153°06'401536498.2
2017-Jan-15 16:26N 31°30' E 121°24'1820.3
2017-Jan-15 15:33N 31°42' E 121°09'189256.3
2017-Jan-15 15:33N 31°30' E 121°24'4015760688.4
2017-Jan-15 15:32S 27°27' E 153°06'4014352489.2
2017-Jan-15 15:32N 31°29' E 121°24'15282.5
2017-Jan-15 15:29N 31°23' E 121°40'8167.3
2017-Jan-15 15:26N 31°24' E 121°31'963.4
2017-Jan-15 15:18N 31°15' E 121°31'16105.0
2017-Jan-15 15:08N 31°30' E 121°24'813.6
2017-Jan-15 14:33N 31°36' E 121°17'51567.0
2017-Jan-15 14:33N 31°39' E 121°14'131725.4
2017-Jan-15 14:33N 31°30' E 121°24'4015903319.9
2017-Jan-15 14:32S 27°27' E 153°06'4002240106.6
2017-Jan-15 14:31N 31°23' E 121°40'16415.0
2017-Jan-15 14:29N 31°30' E 121°24'4177.8
2017-Jan-15 14:28N 31°28' E 121°27'511.7
2017-Jan-15 14:04N 31°25' E 121°31'1020.6
2017-Jan-15 13:34N 31°31' E 121°22'72668.9
2017-Jan-15 13:33N 31°36' E 121°17'106901.2
2017-Jan-15 13:33N 31°29' E 121°25'1180.2
2017-Jan-15 13:33N 31°30' E 121°24'162970.6
2017-Jan-15 13:33N 31°23' E 121°40'40021800792.6
2017-Jan-15 13:32S 27°27' E 153°06'3999306293.3
2017-Jan-15 13:32N 31°15' E 121°31'16157.2
2017-Jan-15 13:26N 31°30' E 121°24'40154515.2
2017-Jan-15 12:32S 27°27' E 153°06'40202894171.6
2017-Jan-15 12:32N 31°33' E 121°20'186.5
2017-Jan-15 12:32N 31°32' E 121°21'540.5
2017-Jan-15 12:24N 31°36' E 121°17'241712.3
2017-Jan-15 12:23N 31°23' E 121°40'11362.9
2017-Jan-15 12:21N 31°15' E 121°31'0 6.1
2017-Jan-15 12:17N 31°15' E 121°32'39995339.3
2017-Jan-15 11:32S 27°27' E 153°06'4029483492.7
2017-Jan-15 11:32N 31°39' E 121°13'2925836.1
2017-Jan-15 11:32N 31°23' E 121°40'14820.7
2017-Jan-15 11:31N 31°30' E 121°26'15121.5
2017-Jan-15 11:23N 31°15' E 121°31'463.5
2017-Jan-15 11:19N 31°12' E 121°29'1934229.5
2017-Jan-15 11:19N 31°30' E 121°24'1 9.2
2017-Jan-15 11:15N 31°30' E 121°24'5 7.9
2017-Jan-15 10:33N 31°26' E 121°30'4009424531.1
2017-Jan-15 10:32S 27°27' E 153°06'4015253609.8
2017-Jan-15 10:31N 31°30' E 121°24'16458.9
2017-Jan-15 10:29N 31°23' E 121°40'152992.7
2017-Jan-15 10:29N 31°30' E 121°24'16246.0
2017-Jan-15 10:25N 31°15' E 121°31'1113.1
2017-Jan-15 09:33N 31°23' E 121°40'163527.1
2017-Jan-15 09:33N 31°30' E 121°24'4015301160.4
2017-Jan-15 09:32S 27°27' E 153°06'401544334.5
2017-Jan-15 09:27N 31°29' E 121°24'15169.7
2017-Jan-15 09:22N 31°40' E 121°12'2734.0
2017-Jan-15 08:33N 31°20' E 121°33'21698.8
2017-Jan-15 08:32N 31°36' E 121°17'4024110579.4
2017-Jan-15 08:29S 27°27' E 153°06'401619857.1
2017-Jan-15 08:17N 31°30' E 121°24'1 1.1
2017-Jan-15 07:33N 31°30' E 121°23'43860656.7
2017-Jan-15 07:33N 38°48' E 121°44'448403365.8
2017-Jan-15 07:33N 31°20' E 121°33'4002758291.8
2017-Jan-15 07:32S 27°27' E 153°06'403211158.2
2017-Jan-15 07:11N 31°42' E 121°10'550883.4
2017-Jan-15 06:33N 22°34' E 120°16'976702736.4
2017-Jan-15 06:33N 38°48' E 121°34'439868543.4
2017-Jan-15 06:29S 27°27' E 153°06'40142408507.8
2017-Jan-15 06:29N 31°29' E 121°24'12279.9
2017-Jan-15 06:27N 31°20' E 121°33'13115.3
2017-Jan-15 06:20N 31°30' E 121°24'144.6
2017-Jan-15 06:19N 31°30' E 121°24'42112726.3
2017-Jan-15 06:17N 38°30' E 120°55'4133860.1
2017-Jan-15 06:11N 31°37' E 121°17'412656.0
2017-Jan-15 05:33N 38°29' E 120°57'421378815.9
2017-Jan-15 05:33N 31°29' E 121°24'4014498312.9
2017-Jan-15 05:32S 27°27' E 153°06'4002228689.3
2017-Jan-15 05:31N 31°20' E 121°33'181552.7
2017-Jan-15 05:31N 31°34' E 121°20'10165.8
2017-Jan-15 05:27N 31°40' E 121°12'15370.5
2017-Jan-15 05:25N 31°30' E 121°24'40154589.9
2017-Jan-15 04:32S 27°27' E 153°06'401460975.0
2017-Jan-15 04:28N 31°29' E 121°24'9860.5
2017-Jan-15 04:28N 31°36' E 121°18'8125.8
2017-Jan-15 04:24N 31°30' E 121°24'12287.6
2017-Jan-15 04:21N 31°20' E 121°33'1620.0
2017-Jan-15 03:33N 31°32' E 121°22'3186.3
2017-Jan-15 03:32N 31°30' E 121°24'401614455961.5
2017-Jan-15 03:32S 27°27' E 153°06'4007147213.4
2017-Jan-15 03:31N 31°25' E 121°31'7168.5
2017-Jan-15 03:28N 31°29' E 121°24'12463.4
2017-Jan-15 03:27N 31°20' E 121°33'12150.0
2017-Jan-15 03:22N 31°29' E 121°24'1 1.0
2017-Jan-15 02:33N 31°29' E 121°24'121420.1
2017-Jan-15 02:32N 31°20' E 121°33'4584594.9
2017-Jan-15 02:26N 24°18' E 118°10'4701541.9
2017-Jan-15 02:08N 31°41' E 121°10'2947.5
2017-Jan-15 01:32N 31°20' E 121°33'52917482.0
2017-Jan-15 01:30N 22°35' E 120°15'359060684.3
2017-Jan-15 01:26S 27°27' E 153°06'401515313.3
2017-Jan-15 01:11N 31°30' E 121°24'33410.0
2017-Jan-15 01:06N 31°09' E 121°53'520965.3
2017-Jan-15 00:33N 22°36' E 120°15'3591184655.3
2017-Jan-15 00:32S 27°27' E 153°06'4003141277.3
2017-Jan-15 00:31N 31°20' E 121°33'123135.3
2017-Jan-15 00:30N 31°30' E 121°24'271079.4
2017-Jan-15 00:29N 31°13' E 121°48'26290.2
2017-Jan-15 00:24N 31°29' E 121°24'1 4.3
2017-Jan-15 00:10N 31°30' E 121°25'914.8
2017-Jan-14 23:33N 31°24' E 121°33'8961.6
2017-Jan-14 23:33N 31°20' E 121°40'3999327158.7
2017-Jan-14 23:32S 27°27' E 153°06'401561251.9
2017-Jan-14 23:28N 31°30' E 121°24'2132.9
2017-Jan-14 23:27N 31°29' E 121°25'1010.6
2017-Jan-14 22:33N 31°24' E 121°35'4005244356.2
2017-Jan-14 22:32S 27°27' E 153°06'4013158763.3
2017-Jan-14 22:31N 31°28' E 121°25'219.6
2017-Jan-14 22:24N 31°30' E 121°24'119.9
2017-Jan-14 22:22N 31°29' E 121°24'115.6
2017-Jan-14 22:19N 31°29' E 121°24'1774.1
2017-Jan-14 22:05N 31°41' E 121°10'2751.3
2017-Jan-14 21:33N 31°24' E 121°35'400558368.5
2017-Jan-14 21:29S 27°27' E 153°06'4014141676.9
2017-Jan-14 21:28N 31°29' E 121°24'186.6
2017-Jan-14 21:27N 31°28' E 121°25'256.1
2017-Jan-14 21:24N 31°30' E 121°24'161000.5
2017-Jan-14 21:24N 31°41' E 121°10'2732.5
2017-Jan-14 20:33N 31°24' E 121°35'11747.5
2017-Jan-14 20:32N 31°29' E 121°24'40141111643.0
2017-Jan-14 20:32S 27°27' E 153°06'401520049.6
2017-Jan-14 20:20N 31°30' E 121°24'10221.7
2017-Jan-14 20:18N 31°37' E 121°16'10151.1
2017-Jan-14 20:14N 31°30' E 121°24'1623.1
2017-Jan-14 19:33N 31°21' E 121°40'309851.1
2017-Jan-14 19:33N 31°40' E 121°12'4030580258.5
2017-Jan-14 19:32S 27°27' E 153°06'4014222325.3
2017-Jan-14 19:31N 31°29' E 121°24'1740.2
2017-Jan-14 19:31N 31°30' E 121°24'1 5.6
2017-Jan-14 19:24N 31°30' E 121°24'1821.1
2017-Jan-14 18:33N 31°20' E 121°41'  

Dump ship's entire track history